<?xml version="1.0" encoding="UTF-8" standalone="no" ?>
<gpx xmlns="http://www.topografix.com/GPX/1/1" xmlns:xsi="http://www.w3.org/2001/XMLSchema-instance" xsi:schemaLocation="http://www.topografix.com/GPX/1/1 http://www.topografix.com/GPX/1/1/gpx.xsd" version="1.1" creator="VisuGPX - https://www.visugpx.com">
  <metadata>
    <name>Regusse</name>
    <desc><![CDATA[Une petite boucle au dessus de Régusse, Des sous-bois, passage dans des gorges, point de vue. Pas de difficulté.]]></desc>
  </metadata>
  <trk>
    <name><![CDATA[Regusse]]></name>
    <extensions>
      <line xmlns="http://www.topografix.com/GPX/gpx_style/0/2">
        <color>0000FF</color>
        <opacity>1</opacity>
        <width>4</width>
      </line>
    </extensions>
    <trkseg>
      <trkpt lat="43.66571" lon="6.12692">
        <ele>602.9</ele>
        <time>2026-08-29T06:51:31.456Z</time>
      </trkpt>
      <trkpt lat="43.66571" lon="6.12694">
        <ele>603</ele>
        <time>2026-08-29T06:51:47.467Z</time>
      </trkpt>
      <trkpt lat="43.66573" lon="6.12693">
        <ele>602.9</ele>
        <time>2026-08-29T06:51:58.443Z</time>
      </trkpt>
      <trkpt lat="43.66577" lon="6.12685">
        <ele>602.6</ele>
        <time>2026-08-29T06:52:08.478Z</time>
      </trkpt>
      <trkpt lat="43.6658" lon="6.1268">
        <ele>602.4</ele>
        <time>2026-08-29T06:52:13.662Z</time>
      </trkpt>
      <trkpt lat="43.66583" lon="6.12674">
        <ele>602.3</ele>
        <time>2026-08-29T06:52:19.484Z</time>
      </trkpt>
      <trkpt lat="43.66586" lon="6.12669">
        <ele>602.2</ele>
        <time>2026-08-29T06:52:24.922Z</time>
      </trkpt>
      <trkpt lat="43.66588" lon="6.12663">
        <ele>602.1</ele>
        <time>2026-08-29T06:52:30.454Z</time>
      </trkpt>
      <trkpt lat="43.66593" lon="6.12658">
        <ele>602.2</ele>
        <time>2026-08-29T06:52:36.326Z</time>
      </trkpt>
      <trkpt lat="43.66597" lon="6.12653">
        <ele>602.2</ele>
        <time>2026-08-29T06:52:41.458Z</time>
      </trkpt>
      <trkpt lat="43.66603" lon="6.12651">
        <ele>602.3</ele>
        <time>2026-08-29T06:52:47.321Z</time>
      </trkpt>
      <trkpt lat="43.66608" lon="6.12648">
        <ele>602.3</ele>
        <time>2026-08-29T06:52:52.500Z</time>
      </trkpt>
      <trkpt lat="43.66613" lon="6.12646">
        <ele>602.3</ele>
        <time>2026-08-29T06:52:57.985Z</time>
      </trkpt>
      <trkpt lat="43.66618" lon="6.12644">
        <ele>602.2</ele>
        <time>2026-08-29T06:53:03.470Z</time>
      </trkpt>
      <trkpt lat="43.66624" lon="6.12644">
        <ele>602.2</ele>
        <time>2026-08-29T06:53:09.419Z</time>
      </trkpt>
      <trkpt lat="43.66629" lon="6.12644">
        <ele>602.2</ele>
        <time>2026-08-29T06:53:14.378Z</time>
      </trkpt>
      <trkpt lat="43.66634" lon="6.12646">
        <ele>602.3</ele>
        <time>2026-08-29T06:53:19.485Z</time>
      </trkpt>
      <trkpt lat="43.66639" lon="6.12647">
        <ele>602.3</ele>
        <time>2026-08-29T06:53:24.443Z</time>
      </trkpt>
      <trkpt lat="43.66645" lon="6.12651">
        <ele>602.3</ele>
        <time>2026-08-29T06:53:29.798Z</time>
      </trkpt>
      <trkpt lat="43.6665" lon="6.12655">
        <ele>602.3</ele>
        <time>2026-08-29T06:53:34.443Z</time>
      </trkpt>
      <trkpt lat="43.66654" lon="6.12662">
        <ele>602.4</ele>
        <time>2026-08-29T06:53:39.672Z</time>
      </trkpt>
      <trkpt lat="43.66657" lon="6.12669">
        <ele>602.3</ele>
        <time>2026-08-29T06:53:44.443Z</time>
      </trkpt>
      <trkpt lat="43.66659" lon="6.12676">
        <ele>602.3</ele>
        <time>2026-08-29T06:53:49.443Z</time>
      </trkpt>
      <trkpt lat="43.66661" lon="6.12683">
        <ele>602.2</ele>
        <time>2026-08-29T06:53:54.443Z</time>
      </trkpt>
      <trkpt lat="43.66664" lon="6.1269">
        <ele>602.1</ele>
        <time>2026-08-29T06:54:00.157Z</time>
      </trkpt>
      <trkpt lat="43.66666" lon="6.12697">
        <ele>602.1</ele>
        <time>2026-08-29T06:54:05.443Z</time>
      </trkpt>
      <trkpt lat="43.66667" lon="6.12705">
        <ele>602.4</ele>
        <time>2026-08-29T06:54:10.956Z</time>
      </trkpt>
      <trkpt lat="43.66668" lon="6.12713">
        <ele>602.6</ele>
        <time>2026-08-29T06:54:16.469Z</time>
      </trkpt>
      <trkpt lat="43.66667" lon="6.1272">
        <ele>602.9</ele>
        <time>2026-08-29T06:54:27.459Z</time>
      </trkpt>
      <trkpt lat="43.66667" lon="6.12721">
        <ele>602.9</ele>
        <time>2026-08-29T06:55:01.448Z</time>
      </trkpt>
      <trkpt lat="43.66664" lon="6.1273">
        <ele>603</ele>
        <time>2026-08-29T06:55:06.997Z</time>
      </trkpt>
      <trkpt lat="43.6666" lon="6.12738">
        <ele>603</ele>
        <time>2026-08-29T06:55:12.444Z</time>
      </trkpt>
      <trkpt lat="43.66655" lon="6.12747">
        <ele>603</ele>
        <time>2026-08-29T06:55:23.357Z</time>
      </trkpt>
      <trkpt lat="43.66651" lon="6.12754">
        <ele>602.9</ele>
        <time>2026-08-29T06:55:28.399Z</time>
      </trkpt>
      <trkpt lat="43.66647" lon="6.12761">
        <ele>602.9</ele>
        <time>2026-08-29T06:55:33.443Z</time>
      </trkpt>
      <trkpt lat="43.66644" lon="6.12767">
        <ele>602.9</ele>
        <time>2026-08-29T06:55:38.162Z</time>
      </trkpt>
      <trkpt lat="43.6664" lon="6.12773">
        <ele>603</ele>
        <time>2026-08-29T06:55:43.443Z</time>
      </trkpt>
      <trkpt lat="43.66637" lon="6.12781">
        <ele>602.9</ele>
        <time>2026-08-29T06:55:48.698Z</time>
      </trkpt>
      <trkpt lat="43.66634" lon="6.12788">
        <ele>602.6</ele>
        <time>2026-08-29T06:55:53.444Z</time>
      </trkpt>
      <trkpt lat="43.66632" lon="6.12796">
        <ele>602.3</ele>
        <time>2026-08-29T06:55:58.301Z</time>
      </trkpt>
      <trkpt lat="43.66629" lon="6.12804">
        <ele>602.1</ele>
        <time>2026-08-29T06:56:03.473Z</time>
      </trkpt>
      <trkpt lat="43.66632" lon="6.12812">
        <ele>601.8</ele>
        <time>2026-08-29T06:56:09.214Z</time>
      </trkpt>
      <trkpt lat="43.66635" lon="6.12819">
        <ele>601.5</ele>
        <time>2026-08-29T06:56:14.399Z</time>
      </trkpt>
      <trkpt lat="43.6664" lon="6.12826">
        <ele>601.2</ele>
        <time>2026-08-29T06:56:19.421Z</time>
      </trkpt>
      <trkpt lat="43.66645" lon="6.12833">
        <ele>600.8</ele>
        <time>2026-08-29T06:56:24.444Z</time>
      </trkpt>
      <trkpt lat="43.66649" lon="6.1284">
        <ele>600.5</ele>
        <time>2026-08-29T06:56:29.945Z</time>
      </trkpt>
      <trkpt lat="43.66652" lon="6.12846">
        <ele>600.3</ele>
        <time>2026-08-29T06:56:34.444Z</time>
      </trkpt>
      <trkpt lat="43.66657" lon="6.12853">
        <ele>599.9</ele>
        <time>2026-08-29T06:56:39.944Z</time>
      </trkpt>
      <trkpt lat="43.66662" lon="6.1286">
        <ele>599.4</ele>
        <time>2026-08-29T06:56:45.444Z</time>
      </trkpt>
      <trkpt lat="43.66665" lon="6.12868">
        <ele>598.9</ele>
        <time>2026-08-29T06:56:50.704Z</time>
      </trkpt>
      <trkpt lat="43.66668" lon="6.12875">
        <ele>598.4</ele>
        <time>2026-08-29T06:56:55.455Z</time>
      </trkpt>
      <trkpt lat="43.66673" lon="6.12882">
        <ele>597.8</ele>
        <time>2026-08-29T06:57:00.949Z</time>
      </trkpt>
      <trkpt lat="43.66678" lon="6.12889">
        <ele>597.2</ele>
        <time>2026-08-29T06:57:06.444Z</time>
      </trkpt>
      <trkpt lat="43.66682" lon="6.12896">
        <ele>596.6</ele>
        <time>2026-08-29T06:57:11.456Z</time>
      </trkpt>
      <trkpt lat="43.66686" lon="6.12903">
        <ele>596.1</ele>
        <time>2026-08-29T06:57:16.469Z</time>
      </trkpt>
      <trkpt lat="43.66691" lon="6.12911">
        <ele>595.5</ele>
        <time>2026-08-29T06:57:22.193Z</time>
      </trkpt>
      <trkpt lat="43.66695" lon="6.12919">
        <ele>595</ele>
        <time>2026-08-29T06:57:27.460Z</time>
      </trkpt>
      <trkpt lat="43.66701" lon="6.12926">
        <ele>594.7</ele>
        <time>2026-08-29T06:57:33.208Z</time>
      </trkpt>
      <trkpt lat="43.66706" lon="6.12933">
        <ele>594.3</ele>
        <time>2026-08-29T06:57:38.419Z</time>
      </trkpt>
      <trkpt lat="43.66712" lon="6.12937">
        <ele>593.9</ele>
        <time>2026-08-29T06:57:43.787Z</time>
      </trkpt>
      <trkpt lat="43.66717" lon="6.12941">
        <ele>593.5</ele>
        <time>2026-08-29T06:57:48.444Z</time>
      </trkpt>
      <trkpt lat="43.66723" lon="6.12946">
        <ele>592.9</ele>
        <time>2026-08-29T06:57:53.943Z</time>
      </trkpt>
      <trkpt lat="43.66729" lon="6.12951">
        <ele>592.3</ele>
        <time>2026-08-29T06:57:59.443Z</time>
      </trkpt>
      <trkpt lat="43.66735" lon="6.12955">
        <ele>591.7</ele>
        <time>2026-08-29T06:58:04.804Z</time>
      </trkpt>
      <trkpt lat="43.6674" lon="6.12959">
        <ele>591.2</ele>
        <time>2026-08-29T06:58:09.455Z</time>
      </trkpt>
      <trkpt lat="43.66746" lon="6.12964">
        <ele>590.6</ele>
        <time>2026-08-29T06:58:14.949Z</time>
      </trkpt>
      <trkpt lat="43.66752" lon="6.12969">
        <ele>590</ele>
        <time>2026-08-29T06:58:20.444Z</time>
      </trkpt>
      <trkpt lat="43.66758" lon="6.12974">
        <ele>589.6</ele>
        <time>2026-08-29T06:58:25.570Z</time>
      </trkpt>
      <trkpt lat="43.66764" lon="6.12978">
        <ele>589.3</ele>
        <time>2026-08-29T06:58:30.444Z</time>
      </trkpt>
      <trkpt lat="43.6677" lon="6.12983">
        <ele>588.9</ele>
        <time>2026-08-29T06:58:35.944Z</time>
      </trkpt>
      <trkpt lat="43.66776" lon="6.12988">
        <ele>588.5</ele>
        <time>2026-08-29T06:58:41.444Z</time>
      </trkpt>
      <trkpt lat="43.66782" lon="6.12992">
        <ele>588</ele>
        <time>2026-08-29T06:58:46.458Z</time>
      </trkpt>
      <trkpt lat="43.66788" lon="6.12996">
        <ele>587.4</ele>
        <time>2026-08-29T06:58:51.473Z</time>
      </trkpt>
      <trkpt lat="43.66795" lon="6.13001">
        <ele>586.7</ele>
        <time>2026-08-29T06:58:57.429Z</time>
      </trkpt>
      <trkpt lat="43.66801" lon="6.13005">
        <ele>586.1</ele>
        <time>2026-08-29T06:59:02.466Z</time>
      </trkpt>
      <trkpt lat="43.66807" lon="6.13009">
        <ele>585.6</ele>
        <time>2026-08-29T06:59:07.914Z</time>
      </trkpt>
      <trkpt lat="43.66813" lon="6.13013">
        <ele>585.3</ele>
        <time>2026-08-29T06:59:13.362Z</time>
      </trkpt>
      <trkpt lat="43.66819" lon="6.13019">
        <ele>584.8</ele>
        <time>2026-08-29T06:59:18.861Z</time>
      </trkpt>
      <trkpt lat="43.66824" lon="6.13024">
        <ele>584.5</ele>
        <time>2026-08-29T06:59:23.445Z</time>
      </trkpt>
      <trkpt lat="43.66831" lon="6.13029">
        <ele>584.1</ele>
        <time>2026-08-29T06:59:29.267Z</time>
      </trkpt>
      <trkpt lat="43.66837" lon="6.13034">
        <ele>583.8</ele>
        <time>2026-08-29T06:59:34.444Z</time>
      </trkpt>
      <trkpt lat="43.66843" lon="6.13039">
        <ele>583.5</ele>
        <time>2026-08-29T06:59:40.472Z</time>
      </trkpt>
      <trkpt lat="43.66848" lon="6.13043">
        <ele>583.2</ele>
        <time>2026-08-29T06:59:45.444Z</time>
      </trkpt>
      <trkpt lat="43.66854" lon="6.13049">
        <ele>582.7</ele>
        <time>2026-08-29T06:59:50.898Z</time>
      </trkpt>
      <trkpt lat="43.66859" lon="6.13054">
        <ele>582.2</ele>
        <time>2026-08-29T06:59:55.444Z</time>
      </trkpt>
      <trkpt lat="43.66859" lon="6.13065">
        <ele>582.1</ele>
        <time>2026-08-29T07:00:01.205Z</time>
      </trkpt>
      <trkpt lat="43.66859" lon="6.13075">
        <ele>582.1</ele>
        <time>2026-08-29T07:00:06.443Z</time>
      </trkpt>
      <trkpt lat="43.66858" lon="6.13079">
        <ele>582.1</ele>
        <time>2026-08-29T07:00:16.444Z</time>
      </trkpt>
      <trkpt lat="43.66858" lon="6.13088">
        <ele>582.1</ele>
        <time>2026-08-29T07:00:27.443Z</time>
      </trkpt>
      <trkpt lat="43.66856" lon="6.13098">
        <ele>582.2</ele>
        <time>2026-08-29T07:00:32.942Z</time>
      </trkpt>
      <trkpt lat="43.66854" lon="6.13108">
        <ele>582.3</ele>
        <time>2026-08-29T07:00:38.443Z</time>
      </trkpt>
      <trkpt lat="43.66852" lon="6.13117">
        <ele>582.3</ele>
        <time>2026-08-29T07:00:43.709Z</time>
      </trkpt>
      <trkpt lat="43.6685" lon="6.13125">
        <ele>582.4</ele>
        <time>2026-08-29T07:00:48.444Z</time>
      </trkpt>
      <trkpt lat="43.66848" lon="6.13134">
        <ele>582.5</ele>
        <time>2026-08-29T07:00:53.327Z</time>
      </trkpt>
      <trkpt lat="43.66845" lon="6.13143">
        <ele>582.6</ele>
        <time>2026-08-29T07:00:58.468Z</time>
      </trkpt>
      <trkpt lat="43.66843" lon="6.13152">
        <ele>582.7</ele>
        <time>2026-08-29T07:01:04.256Z</time>
      </trkpt>
      <trkpt lat="43.66841" lon="6.1316">
        <ele>582.7</ele>
        <time>2026-08-29T07:01:09.461Z</time>
      </trkpt>
      <trkpt lat="43.66839" lon="6.13169">
        <ele>582.8</ele>
        <time>2026-08-29T07:01:14.955Z</time>
      </trkpt>
      <trkpt lat="43.66837" lon="6.13178">
        <ele>582.8</ele>
        <time>2026-08-29T07:01:20.450Z</time>
      </trkpt>
      <trkpt lat="43.66835" lon="6.13188">
        <ele>582.9</ele>
        <time>2026-08-29T07:01:26.213Z</time>
      </trkpt>
      <trkpt lat="43.66833" lon="6.13197">
        <ele>582.9</ele>
        <time>2026-08-29T07:01:31.443Z</time>
      </trkpt>
      <trkpt lat="43.66832" lon="6.13206">
        <ele>582.7</ele>
        <time>2026-08-29T07:01:36.625Z</time>
      </trkpt>
      <trkpt lat="43.6683" lon="6.13214">
        <ele>582.5</ele>
        <time>2026-08-29T07:01:41.443Z</time>
      </trkpt>
      <trkpt lat="43.66829" lon="6.13223">
        <ele>582.3</ele>
        <time>2026-08-29T07:01:46.625Z</time>
      </trkpt>
      <trkpt lat="43.66827" lon="6.13231">
        <ele>582.4</ele>
        <time>2026-08-29T07:01:51.443Z</time>
      </trkpt>
      <trkpt lat="43.66825" lon="6.1324">
        <ele>582.4</ele>
        <time>2026-08-29T07:01:56.341Z</time>
      </trkpt>
      <trkpt lat="43.66822" lon="6.13249">
        <ele>582.4</ele>
        <time>2026-08-29T07:02:01.498Z</time>
      </trkpt>
      <trkpt lat="43.6682" lon="6.13258">
        <ele>582.2</ele>
        <time>2026-08-29T07:02:06.970Z</time>
      </trkpt>
      <trkpt lat="43.66818" lon="6.13267">
        <ele>581.9</ele>
        <time>2026-08-29T07:02:12.443Z</time>
      </trkpt>
      <trkpt lat="43.66817" lon="6.13276">
        <ele>581.7</ele>
        <time>2026-08-29T07:02:17.637Z</time>
      </trkpt>
      <trkpt lat="43.66815" lon="6.13284">
        <ele>581.7</ele>
        <time>2026-08-29T07:02:22.467Z</time>
      </trkpt>
      <trkpt lat="43.66813" lon="6.13293">
        <ele>581.7</ele>
        <time>2026-08-29T07:02:27.823Z</time>
      </trkpt>
      <trkpt lat="43.6681" lon="6.13302">
        <ele>581.8</ele>
        <time>2026-08-29T07:02:33.461Z</time>
      </trkpt>
      <trkpt lat="43.66808" lon="6.13311">
        <ele>581.7</ele>
        <time>2026-08-29T07:02:39.072Z</time>
      </trkpt>
      <trkpt lat="43.66805" lon="6.13319">
        <ele>581.5</ele>
        <time>2026-08-29T07:02:44.443Z</time>
      </trkpt>
      <trkpt lat="43.66804" lon="6.13328">
        <ele>581.2</ele>
        <time>2026-08-29T07:02:49.367Z</time>
      </trkpt>
      <trkpt lat="43.66802" lon="6.13337">
        <ele>581.1</ele>
        <time>2026-08-29T07:02:54.460Z</time>
      </trkpt>
      <trkpt lat="43.66801" lon="6.13346">
        <ele>581.1</ele>
        <time>2026-08-29T07:02:59.859Z</time>
      </trkpt>
      <trkpt lat="43.66799" lon="6.13355">
        <ele>581.1</ele>
        <time>2026-08-29T07:03:05.443Z</time>
      </trkpt>
      <trkpt lat="43.66797" lon="6.13364">
        <ele>580.9</ele>
        <time>2026-08-29T07:03:10.315Z</time>
      </trkpt>
      <trkpt lat="43.66794" lon="6.13373">
        <ele>580.8</ele>
        <time>2026-08-29T07:03:15.443Z</time>
      </trkpt>
      <trkpt lat="43.66793" lon="6.13382">
        <ele>580.6</ele>
        <time>2026-08-29T07:03:20.625Z</time>
      </trkpt>
      <trkpt lat="43.66791" lon="6.1339">
        <ele>580.5</ele>
        <time>2026-08-29T07:03:25.443Z</time>
      </trkpt>
      <trkpt lat="43.66789" lon="6.13401">
        <ele>580.2</ele>
        <time>2026-08-29T07:03:31.162Z</time>
      </trkpt>
      <trkpt lat="43.66787" lon="6.13411">
        <ele>579.9</ele>
        <time>2026-08-29T07:03:36.395Z</time>
      </trkpt>
      <trkpt lat="43.66785" lon="6.1342">
        <ele>579.6</ele>
        <time>2026-08-29T07:03:41.685Z</time>
      </trkpt>
      <trkpt lat="43.66783" lon="6.13428">
        <ele>579.3</ele>
        <time>2026-08-29T07:03:46.442Z</time>
      </trkpt>
      <trkpt lat="43.66781" lon="6.13436">
        <ele>579.1</ele>
        <time>2026-08-29T07:03:51.441Z</time>
      </trkpt>
      <trkpt lat="43.66779" lon="6.13444">
        <ele>578.9</ele>
        <time>2026-08-29T07:03:56.442Z</time>
      </trkpt>
      <trkpt lat="43.66778" lon="6.13453">
        <ele>578.4</ele>
        <time>2026-08-29T07:04:01.376Z</time>
      </trkpt>
      <trkpt lat="43.66776" lon="6.13462">
        <ele>577.8</ele>
        <time>2026-08-29T07:04:06.479Z</time>
      </trkpt>
      <trkpt lat="43.66774" lon="6.13471">
        <ele>577.4</ele>
        <time>2026-08-29T07:04:11.960Z</time>
      </trkpt>
      <trkpt lat="43.66772" lon="6.1348">
        <ele>577.1</ele>
        <time>2026-08-29T07:04:17.442Z</time>
      </trkpt>
      <trkpt lat="43.66771" lon="6.13489">
        <ele>576.7</ele>
        <time>2026-08-29T07:04:22.368Z</time>
      </trkpt>
      <trkpt lat="43.66769" lon="6.13498">
        <ele>576.4</ele>
        <time>2026-08-29T07:04:27.463Z</time>
      </trkpt>
      <trkpt lat="43.66767" lon="6.13508">
        <ele>576.3</ele>
        <time>2026-08-29T07:04:32.963Z</time>
      </trkpt>
      <trkpt lat="43.66765" lon="6.13518">
        <ele>576.2</ele>
        <time>2026-08-29T07:04:38.464Z</time>
      </trkpt>
      <trkpt lat="43.66763" lon="6.13528">
        <ele>576</ele>
        <time>2026-08-29T07:04:44.231Z</time>
      </trkpt>
      <trkpt lat="43.66761" lon="6.13537">
        <ele>575.7</ele>
        <time>2026-08-29T07:04:49.465Z</time>
      </trkpt>
      <trkpt lat="43.66759" lon="6.13546">
        <ele>575.3</ele>
        <time>2026-08-29T07:04:54.953Z</time>
      </trkpt>
      <trkpt lat="43.66757" lon="6.13555">
        <ele>575</ele>
        <time>2026-08-29T07:05:00.443Z</time>
      </trkpt>
      <trkpt lat="43.66756" lon="6.13564">
        <ele>574.8</ele>
        <time>2026-08-29T07:05:05.366Z</time>
      </trkpt>
      <trkpt lat="43.66754" lon="6.13573">
        <ele>574.5</ele>
        <time>2026-08-29T07:05:10.458Z</time>
      </trkpt>
      <trkpt lat="43.66753" lon="6.13583">
        <ele>574.1</ele>
        <time>2026-08-29T07:05:16.150Z</time>
      </trkpt>
      <trkpt lat="43.66751" lon="6.13592">
        <ele>574</ele>
        <time>2026-08-29T07:05:21.459Z</time>
      </trkpt>
      <trkpt lat="43.66749" lon="6.13602">
        <ele>574</ele>
        <time>2026-08-29T07:05:26.833Z</time>
      </trkpt>
      <trkpt lat="43.66746" lon="6.13612">
        <ele>574</ele>
        <time>2026-08-29T07:05:32.442Z</time>
      </trkpt>
      <trkpt lat="43.66745" lon="6.13621">
        <ele>573.6</ele>
        <time>2026-08-29T07:05:37.359Z</time>
      </trkpt>
      <trkpt lat="43.66743" lon="6.1363">
        <ele>573.3</ele>
        <time>2026-08-29T07:05:42.445Z</time>
      </trkpt>
      <trkpt lat="43.66741" lon="6.13638">
        <ele>573</ele>
        <time>2026-08-29T07:05:47.452Z</time>
      </trkpt>
      <trkpt lat="43.66739" lon="6.13646">
        <ele>572.9</ele>
        <time>2026-08-29T07:05:52.460Z</time>
      </trkpt>
      <trkpt lat="43.66736" lon="6.13655">
        <ele>572.7</ele>
        <time>2026-08-29T07:05:57.950Z</time>
      </trkpt>
      <trkpt lat="43.66733" lon="6.13664">
        <ele>572.4</ele>
        <time>2026-08-29T07:06:03.442Z</time>
      </trkpt>
      <trkpt lat="43.66731" lon="6.13673">
        <ele>572.3</ele>
        <time>2026-08-29T07:06:08.551Z</time>
      </trkpt>
      <trkpt lat="43.66728" lon="6.13681">
        <ele>572.2</ele>
        <time>2026-08-29T07:06:13.442Z</time>
      </trkpt>
      <trkpt lat="43.66725" lon="6.1369">
        <ele>572.1</ele>
        <time>2026-08-29T07:06:18.993Z</time>
      </trkpt>
      <trkpt lat="43.66721" lon="6.13698">
        <ele>572</ele>
        <time>2026-08-29T07:06:24.442Z</time>
      </trkpt>
      <trkpt lat="43.66719" lon="6.13704">
        <ele>571.8</ele>
        <time>2026-08-29T07:06:29.195Z</time>
      </trkpt>
      <trkpt lat="43.66716" lon="6.1371">
        <ele>571.7</ele>
        <time>2026-08-29T07:06:34.443Z</time>
      </trkpt>
      <trkpt lat="43.66714" lon="6.13718">
        <ele>571.5</ele>
        <time>2026-08-29T07:06:39.550Z</time>
      </trkpt>
      <trkpt lat="43.66711" lon="6.13725">
        <ele>571.2</ele>
        <time>2026-08-29T07:06:44.461Z</time>
      </trkpt>
      <trkpt lat="43.66708" lon="6.13734">
        <ele>571</ele>
        <time>2026-08-29T07:06:50.003Z</time>
      </trkpt>
      <trkpt lat="43.66704" lon="6.13742">
        <ele>570.7</ele>
        <time>2026-08-29T07:06:55.443Z</time>
      </trkpt>
      <trkpt lat="43.66701" lon="6.1375">
        <ele>570.5</ele>
        <time>2026-08-29T07:07:00.468Z</time>
      </trkpt>
      <trkpt lat="43.66697" lon="6.13757">
        <ele>570.2</ele>
        <time>2026-08-29T07:07:05.443Z</time>
      </trkpt>
      <trkpt lat="43.66694" lon="6.13766">
        <ele>570</ele>
        <time>2026-08-29T07:07:10.942Z</time>
      </trkpt>
      <trkpt lat="43.66691" lon="6.13775">
        <ele>569.9</ele>
        <time>2026-08-29T07:07:16.443Z</time>
      </trkpt>
      <trkpt lat="43.66687" lon="6.13784">
        <ele>569.7</ele>
        <time>2026-08-29T07:07:22.170Z</time>
      </trkpt>
      <trkpt lat="43.66683" lon="6.13792">
        <ele>569.6</ele>
        <time>2026-08-29T07:07:27.443Z</time>
      </trkpt>
      <trkpt lat="43.6668" lon="6.13802">
        <ele>569.5</ele>
        <time>2026-08-29T07:07:33.019Z</time>
      </trkpt>
      <trkpt lat="43.66676" lon="6.13811">
        <ele>569.3</ele>
        <time>2026-08-29T07:07:38.460Z</time>
      </trkpt>
      <trkpt lat="43.66673" lon="6.13819">
        <ele>569.2</ele>
        <time>2026-08-29T07:07:43.935Z</time>
      </trkpt>
      <trkpt lat="43.66669" lon="6.13826">
        <ele>569.1</ele>
        <time>2026-08-29T07:07:49.357Z</time>
      </trkpt>
      <trkpt lat="43.66666" lon="6.13833">
        <ele>569</ele>
        <time>2026-08-29T07:07:54.412Z</time>
      </trkpt>
      <trkpt lat="43.66662" lon="6.13839">
        <ele>568.8</ele>
        <time>2026-08-29T07:07:59.482Z</time>
      </trkpt>
      <trkpt lat="43.66658" lon="6.13843">
        <ele>568.7</ele>
        <time>2026-08-29T07:08:10.501Z</time>
      </trkpt>
      <trkpt lat="43.66652" lon="6.1385">
        <ele>568.5</ele>
        <time>2026-08-29T07:08:21.443Z</time>
      </trkpt>
      <trkpt lat="43.66649" lon="6.13858">
        <ele>568.4</ele>
        <time>2026-08-29T07:08:26.699Z</time>
      </trkpt>
      <trkpt lat="43.66646" lon="6.13865">
        <ele>568.3</ele>
        <time>2026-08-29T07:08:31.445Z</time>
      </trkpt>
      <trkpt lat="43.66643" lon="6.13873">
        <ele>568.1</ele>
        <time>2026-08-29T07:08:36.736Z</time>
      </trkpt>
      <trkpt lat="43.66639" lon="6.13881">
        <ele>568</ele>
        <time>2026-08-29T07:08:42.448Z</time>
      </trkpt>
      <trkpt lat="43.66637" lon="6.13892">
        <ele>567.9</ele>
        <time>2026-08-29T07:08:48.073Z</time>
      </trkpt>
      <trkpt lat="43.66634" lon="6.13902">
        <ele>567.8</ele>
        <time>2026-08-29T07:08:53.443Z</time>
      </trkpt>
      <trkpt lat="43.66631" lon="6.13908">
        <ele>567.7</ele>
        <time>2026-08-29T07:08:58.732Z</time>
      </trkpt>
      <trkpt lat="43.66628" lon="6.13913">
        <ele>567.6</ele>
        <time>2026-08-29T07:09:03.443Z</time>
      </trkpt>
      <trkpt lat="43.66626" lon="6.13922">
        <ele>567.7</ele>
        <time>2026-08-29T07:09:08.810Z</time>
      </trkpt>
      <trkpt lat="43.66623" lon="6.13931">
        <ele>567.9</ele>
        <time>2026-08-29T07:09:14.459Z</time>
      </trkpt>
      <trkpt lat="43.66621" lon="6.1394">
        <ele>568.2</ele>
        <time>2026-08-29T07:09:19.809Z</time>
      </trkpt>
      <trkpt lat="43.66618" lon="6.13949">
        <ele>568.2</ele>
        <time>2026-08-29T07:09:25.441Z</time>
      </trkpt>
      <trkpt lat="43.66615" lon="6.13957">
        <ele>568.1</ele>
        <time>2026-08-29T07:09:30.696Z</time>
      </trkpt>
      <trkpt lat="43.66612" lon="6.13964">
        <ele>568</ele>
        <time>2026-08-29T07:09:35.442Z</time>
      </trkpt>
      <trkpt lat="43.66609" lon="6.13973">
        <ele>567.9</ele>
        <time>2026-08-29T07:09:40.699Z</time>
      </trkpt>
      <trkpt lat="43.66606" lon="6.13981">
        <ele>567.8</ele>
        <time>2026-08-29T07:09:45.481Z</time>
      </trkpt>
      <trkpt lat="43.66602" lon="6.13991">
        <ele>567.7</ele>
        <time>2026-08-29T07:09:51.176Z</time>
      </trkpt>
      <trkpt lat="43.66598" lon="6.14">
        <ele>567.5</ele>
        <time>2026-08-29T07:09:56.442Z</time>
      </trkpt>
      <trkpt lat="43.66596" lon="6.14009">
        <ele>567.8</ele>
        <time>2026-08-29T07:10:01.801Z</time>
      </trkpt>
      <trkpt lat="43.66593" lon="6.14018">
        <ele>568</ele>
        <time>2026-08-29T07:10:07.443Z</time>
      </trkpt>
      <trkpt lat="43.6659" lon="6.14027">
        <ele>568.2</ele>
        <time>2026-08-29T07:10:12.769Z</time>
      </trkpt>
      <trkpt lat="43.66586" lon="6.14036">
        <ele>568.1</ele>
        <time>2026-08-29T07:10:18.448Z</time>
      </trkpt>
      <trkpt lat="43.66583" lon="6.14046">
        <ele>568</ele>
        <time>2026-08-29T07:10:24.195Z</time>
      </trkpt>
      <trkpt lat="43.6658" lon="6.14055">
        <ele>567.9</ele>
        <time>2026-08-29T07:10:29.457Z</time>
      </trkpt>
      <trkpt lat="43.66577" lon="6.14065">
        <ele>567.8</ele>
        <time>2026-08-29T07:10:35.026Z</time>
      </trkpt>
      <trkpt lat="43.66573" lon="6.14074">
        <ele>567.6</ele>
        <time>2026-08-29T07:10:40.461Z</time>
      </trkpt>
      <trkpt lat="43.6657" lon="6.14084">
        <ele>567.5</ele>
        <time>2026-08-29T07:10:45.341Z</time>
      </trkpt>
      <trkpt lat="43.66566" lon="6.14094">
        <ele>567.4</ele>
        <time>2026-08-29T07:10:50.494Z</time>
      </trkpt>
      <trkpt lat="43.66564" lon="6.14103">
        <ele>567.3</ele>
        <time>2026-08-29T07:10:55.838Z</time>
      </trkpt>
      <trkpt lat="43.66561" lon="6.14112">
        <ele>567.2</ele>
        <time>2026-08-29T07:11:01.463Z</time>
      </trkpt>
      <trkpt lat="43.6656" lon="6.14121">
        <ele>567.5</ele>
        <time>2026-08-29T07:11:06.965Z</time>
      </trkpt>
      <trkpt lat="43.66559" lon="6.1413">
        <ele>567.8</ele>
        <time>2026-08-29T07:11:12.469Z</time>
      </trkpt>
      <trkpt lat="43.66558" lon="6.14139">
        <ele>568.1</ele>
        <time>2026-08-29T07:11:17.963Z</time>
      </trkpt>
      <trkpt lat="43.66557" lon="6.14148">
        <ele>568.1</ele>
        <time>2026-08-29T07:11:23.459Z</time>
      </trkpt>
      <trkpt lat="43.66558" lon="6.14156">
        <ele>568.1</ele>
        <time>2026-08-29T07:11:28.830Z</time>
      </trkpt>
      <trkpt lat="43.66558" lon="6.14163">
        <ele>568.1</ele>
        <time>2026-08-29T07:11:33.462Z</time>
      </trkpt>
      <trkpt lat="43.66565" lon="6.14167">
        <ele>568.3</ele>
        <time>2026-08-29T07:11:39.304Z</time>
      </trkpt>
      <trkpt lat="43.66571" lon="6.14171">
        <ele>568.6</ele>
        <time>2026-08-29T07:11:44.442Z</time>
      </trkpt>
      <trkpt lat="43.66573" lon="6.14176">
        <ele>568.8</ele>
        <time>2026-08-29T07:11:54.460Z</time>
      </trkpt>
      <trkpt lat="43.66576" lon="6.14184">
        <ele>568.9</ele>
        <time>2026-08-29T07:12:00.133Z</time>
      </trkpt>
      <trkpt lat="43.66578" lon="6.14192">
        <ele>569</ele>
        <time>2026-08-29T07:12:05.463Z</time>
      </trkpt>
      <trkpt lat="43.66582" lon="6.142">
        <ele>569</ele>
        <time>2026-08-29T07:12:11.454Z</time>
      </trkpt>
      <trkpt lat="43.66585" lon="6.14207">
        <ele>569.1</ele>
        <time>2026-08-29T07:12:16.468Z</time>
      </trkpt>
      <trkpt lat="43.66589" lon="6.14216">
        <ele>569.2</ele>
        <time>2026-08-29T07:12:22.406Z</time>
      </trkpt>
      <trkpt lat="43.66592" lon="6.14224">
        <ele>569.3</ele>
        <time>2026-08-29T07:12:27.472Z</time>
      </trkpt>
      <trkpt lat="43.66595" lon="6.14232">
        <ele>569.2</ele>
        <time>2026-08-29T07:12:33.093Z</time>
      </trkpt>
      <trkpt lat="43.66597" lon="6.1424">
        <ele>569.2</ele>
        <time>2026-08-29T07:12:38.374Z</time>
      </trkpt>
      <trkpt lat="43.66598" lon="6.14252">
        <ele>568.9</ele>
        <time>2026-08-29T07:12:48.468Z</time>
      </trkpt>
      <trkpt lat="43.66605" lon="6.14257">
        <ele>569.1</ele>
        <time>2026-08-29T07:12:59.469Z</time>
      </trkpt>
      <trkpt lat="43.66602" lon="6.14262">
        <ele>568.6</ele>
        <time>2026-08-29T07:13:04.924Z</time>
      </trkpt>
      <trkpt lat="43.66599" lon="6.14267">
        <ele>568.2</ele>
        <time>2026-08-29T07:13:10.381Z</time>
      </trkpt>
      <trkpt lat="43.66604" lon="6.14276">
        <ele>567.9</ele>
        <time>2026-08-29T07:13:15.811Z</time>
      </trkpt>
      <trkpt lat="43.66608" lon="6.14284">
        <ele>567.9</ele>
        <time>2026-08-29T07:13:20.466Z</time>
      </trkpt>
      <trkpt lat="43.66614" lon="6.14291">
        <ele>568.2</ele>
        <time>2026-08-29T07:13:26.436Z</time>
      </trkpt>
      <trkpt lat="43.66619" lon="6.14297">
        <ele>568.4</ele>
        <time>2026-08-29T07:13:31.472Z</time>
      </trkpt>
      <trkpt lat="43.66624" lon="6.14305">
        <ele>568.5</ele>
        <time>2026-08-29T07:13:37.439Z</time>
      </trkpt>
      <trkpt lat="43.66628" lon="6.14312">
        <ele>569.3</ele>
        <time>2026-08-29T07:13:42.474Z</time>
      </trkpt>
      <trkpt lat="43.66633" lon="6.14319">
        <ele>570.2</ele>
        <time>2026-08-29T07:13:47.965Z</time>
      </trkpt>
      <trkpt lat="43.66638" lon="6.14326">
        <ele>571.2</ele>
        <time>2026-08-29T07:13:53.456Z</time>
      </trkpt>
      <trkpt lat="43.66642" lon="6.14332">
        <ele>571.9</ele>
        <time>2026-08-29T07:13:58.462Z</time>
      </trkpt>
      <trkpt lat="43.66646" lon="6.14338">
        <ele>572.2</ele>
        <time>2026-08-29T07:14:03.469Z</time>
      </trkpt>
      <trkpt lat="43.66652" lon="6.14344">
        <ele>572.6</ele>
        <time>2026-08-29T07:14:09.472Z</time>
      </trkpt>
      <trkpt lat="43.66657" lon="6.14349">
        <ele>572.9</ele>
        <time>2026-08-29T07:14:14.476Z</time>
      </trkpt>
      <trkpt lat="43.66662" lon="6.14354">
        <ele>573.4</ele>
        <time>2026-08-29T07:14:20.337Z</time>
      </trkpt>
      <trkpt lat="43.66666" lon="6.14359">
        <ele>573.8</ele>
        <time>2026-08-29T07:14:25.460Z</time>
      </trkpt>
      <trkpt lat="43.66671" lon="6.14363">
        <ele>574.2</ele>
        <time>2026-08-29T07:14:30.463Z</time>
      </trkpt>
      <trkpt lat="43.66676" lon="6.14367">
        <ele>574.5</ele>
        <time>2026-08-29T07:14:35.467Z</time>
      </trkpt>
      <trkpt lat="43.66681" lon="6.14372">
        <ele>574.9</ele>
        <time>2026-08-29T07:14:41.288Z</time>
      </trkpt>
      <trkpt lat="43.66685" lon="6.14377">
        <ele>575.2</ele>
        <time>2026-08-29T07:14:46.376Z</time>
      </trkpt>
      <trkpt lat="43.6669" lon="6.14382">
        <ele>575.6</ele>
        <time>2026-08-29T07:14:51.757Z</time>
      </trkpt>
      <trkpt lat="43.66694" lon="6.14387">
        <ele>575.9</ele>
        <time>2026-08-29T07:14:56.461Z</time>
      </trkpt>
      <trkpt lat="43.667" lon="6.14393">
        <ele>576</ele>
        <time>2026-08-29T07:15:02.255Z</time>
      </trkpt>
      <trkpt lat="43.66705" lon="6.14399">
        <ele>576</ele>
        <time>2026-08-29T07:15:07.436Z</time>
      </trkpt>
      <trkpt lat="43.66709" lon="6.14405">
        <ele>576</ele>
        <time>2026-08-29T07:15:12.725Z</time>
      </trkpt>
      <trkpt lat="43.66712" lon="6.14411">
        <ele>576</ele>
        <time>2026-08-29T07:15:17.453Z</time>
      </trkpt>
      <trkpt lat="43.66718" lon="6.14416">
        <ele>576</ele>
        <time>2026-08-29T07:15:23.497Z</time>
      </trkpt>
      <trkpt lat="43.66723" lon="6.1442">
        <ele>576.1</ele>
        <time>2026-08-29T07:15:28.481Z</time>
      </trkpt>
      <trkpt lat="43.66728" lon="6.14425">
        <ele>576.3</ele>
        <time>2026-08-29T07:15:33.481Z</time>
      </trkpt>
      <trkpt lat="43.66733" lon="6.1443">
        <ele>576.5</ele>
        <time>2026-08-29T07:15:38.481Z</time>
      </trkpt>
      <trkpt lat="43.66738" lon="6.14434">
        <ele>576.6</ele>
        <time>2026-08-29T07:15:44.396Z</time>
      </trkpt>
      <trkpt lat="43.66742" lon="6.14438">
        <ele>576.8</ele>
        <time>2026-08-29T07:15:49.452Z</time>
      </trkpt>
      <trkpt lat="43.66748" lon="6.14443">
        <ele>576.9</ele>
        <time>2026-08-29T07:15:55.304Z</time>
      </trkpt>
      <trkpt lat="43.66753" lon="6.14448">
        <ele>576.9</ele>
        <time>2026-08-29T07:16:00.460Z</time>
      </trkpt>
      <trkpt lat="43.66759" lon="6.14454">
        <ele>576.8</ele>
        <time>2026-08-29T07:16:06.464Z</time>
      </trkpt>
      <trkpt lat="43.66764" lon="6.14459">
        <ele>576.8</ele>
        <time>2026-08-29T07:16:11.468Z</time>
      </trkpt>
      <trkpt lat="43.66766" lon="6.14461">
        <ele>576.8</ele>
        <time>2026-08-29T07:16:35.440Z</time>
      </trkpt>
      <trkpt lat="43.66771" lon="6.14467">
        <ele>576.9</ele>
        <time>2026-08-29T07:16:40.951Z</time>
      </trkpt>
      <trkpt lat="43.66775" lon="6.14472">
        <ele>577</ele>
        <time>2026-08-29T07:16:45.440Z</time>
      </trkpt>
      <trkpt lat="43.66782" lon="6.14478">
        <ele>577.2</ele>
        <time>2026-08-29T07:16:51.069Z</time>
      </trkpt>
      <trkpt lat="43.66789" lon="6.14483">
        <ele>577.4</ele>
        <time>2026-08-29T07:16:56.454Z</time>
      </trkpt>
      <trkpt lat="43.66794" lon="6.14488">
        <ele>577.6</ele>
        <time>2026-08-29T07:17:02.568Z</time>
      </trkpt>
      <trkpt lat="43.66798" lon="6.14492">
        <ele>577.7</ele>
        <time>2026-08-29T07:17:07.460Z</time>
      </trkpt>
      <trkpt lat="43.66804" lon="6.14498">
        <ele>577.9</ele>
        <time>2026-08-29T07:17:13.257Z</time>
      </trkpt>
      <trkpt lat="43.66809" lon="6.14504">
        <ele>578.1</ele>
        <time>2026-08-29T07:17:18.441Z</time>
      </trkpt>
      <trkpt lat="43.66814" lon="6.1451">
        <ele>578.3</ele>
        <time>2026-08-29T07:17:23.616Z</time>
      </trkpt>
      <trkpt lat="43.66819" lon="6.14515">
        <ele>578.5</ele>
        <time>2026-08-29T07:17:28.441Z</time>
      </trkpt>
      <trkpt lat="43.66826" lon="6.14521">
        <ele>578.7</ele>
        <time>2026-08-29T07:17:33.940Z</time>
      </trkpt>
      <trkpt lat="43.66833" lon="6.14527">
        <ele>579</ele>
        <time>2026-08-29T07:17:39.440Z</time>
      </trkpt>
      <trkpt lat="43.66838" lon="6.14534">
        <ele>579.1</ele>
        <time>2026-08-29T07:17:44.906Z</time>
      </trkpt>
      <trkpt lat="43.66842" lon="6.1454">
        <ele>579.2</ele>
        <time>2026-08-29T07:17:49.440Z</time>
      </trkpt>
      <trkpt lat="43.66848" lon="6.14548">
        <ele>579.1</ele>
        <time>2026-08-29T07:17:54.609Z</time>
      </trkpt>
      <trkpt lat="43.66854" lon="6.14555">
        <ele>579</ele>
        <time>2026-08-29T07:17:59.478Z</time>
      </trkpt>
      <trkpt lat="43.6686" lon="6.14563">
        <ele>579</ele>
        <time>2026-08-29T07:18:05.123Z</time>
      </trkpt>
      <trkpt lat="43.66866" lon="6.1457">
        <ele>578.9</ele>
        <time>2026-08-29T07:18:10.440Z</time>
      </trkpt>
      <trkpt lat="43.66871" lon="6.14577">
        <ele>578.7</ele>
        <time>2026-08-29T07:18:15.620Z</time>
      </trkpt>
      <trkpt lat="43.66876" lon="6.14583">
        <ele>578.5</ele>
        <time>2026-08-29T07:18:20.441Z</time>
      </trkpt>
      <trkpt lat="43.66882" lon="6.1459">
        <ele>578.2</ele>
        <time>2026-08-29T07:18:26.372Z</time>
      </trkpt>
      <trkpt lat="43.66887" lon="6.14596">
        <ele>578.1</ele>
        <time>2026-08-29T07:18:31.375Z</time>
      </trkpt>
      <trkpt lat="43.66893" lon="6.14603">
        <ele>577.9</ele>
        <time>2026-08-29T07:18:36.835Z</time>
      </trkpt>
      <trkpt lat="43.66898" lon="6.14609">
        <ele>577.7</ele>
        <time>2026-08-29T07:18:41.440Z</time>
      </trkpt>
      <trkpt lat="43.66904" lon="6.14615">
        <ele>577.5</ele>
        <time>2026-08-29T07:18:46.719Z</time>
      </trkpt>
      <trkpt lat="43.66909" lon="6.14621">
        <ele>577.3</ele>
        <time>2026-08-29T07:18:51.440Z</time>
      </trkpt>
      <trkpt lat="43.66915" lon="6.14627">
        <ele>577.1</ele>
        <time>2026-08-29T07:18:56.719Z</time>
      </trkpt>
      <trkpt lat="43.6692" lon="6.14633">
        <ele>576.9</ele>
        <time>2026-08-29T07:19:01.440Z</time>
      </trkpt>
      <trkpt lat="43.66925" lon="6.14639">
        <ele>576.7</ele>
        <time>2026-08-29T07:19:06.951Z</time>
      </trkpt>
      <trkpt lat="43.66929" lon="6.14644">
        <ele>576.6</ele>
        <time>2026-08-29T07:19:11.440Z</time>
      </trkpt>
      <trkpt lat="43.66935" lon="6.14648">
        <ele>576.3</ele>
        <time>2026-08-29T07:19:16.548Z</time>
      </trkpt>
      <trkpt lat="43.66941" lon="6.14651">
        <ele>576.1</ele>
        <time>2026-08-29T07:19:21.441Z</time>
      </trkpt>
      <trkpt lat="43.66947" lon="6.14654">
        <ele>575.9</ele>
        <time>2026-08-29T07:19:27.487Z</time>
      </trkpt>
      <trkpt lat="43.66952" lon="6.14656">
        <ele>575.7</ele>
        <time>2026-08-29T07:19:32.421Z</time>
      </trkpt>
      <trkpt lat="43.66959" lon="6.14656">
        <ele>575.5</ele>
        <time>2026-08-29T07:19:37.816Z</time>
      </trkpt>
      <trkpt lat="43.66965" lon="6.14656">
        <ele>575.3</ele>
        <time>2026-08-29T07:19:42.441Z</time>
      </trkpt>
      <trkpt lat="43.66971" lon="6.14654">
        <ele>575</ele>
        <time>2026-08-29T07:19:47.849Z</time>
      </trkpt>
      <trkpt lat="43.66977" lon="6.14651">
        <ele>575</ele>
        <time>2026-08-29T07:19:53.441Z</time>
      </trkpt>
      <trkpt lat="43.66982" lon="6.1465">
        <ele>575</ele>
        <time>2026-08-29T07:19:58.366Z</time>
      </trkpt>
      <trkpt lat="43.66987" lon="6.14648">
        <ele>575</ele>
        <time>2026-08-29T07:20:03.441Z</time>
      </trkpt>
      <trkpt lat="43.66993" lon="6.14646">
        <ele>575</ele>
        <time>2026-08-29T07:20:08.847Z</time>
      </trkpt>
      <trkpt lat="43.66999" lon="6.14643">
        <ele>575</ele>
        <time>2026-08-29T07:20:14.437Z</time>
      </trkpt>
      <trkpt lat="43.67006" lon="6.1464">
        <ele>574.8</ele>
        <time>2026-08-29T07:20:19.702Z</time>
      </trkpt>
      <trkpt lat="43.67012" lon="6.14636">
        <ele>574.7</ele>
        <time>2026-08-29T07:20:24.489Z</time>
      </trkpt>
      <trkpt lat="43.67019" lon="6.14634">
        <ele>574.6</ele>
        <time>2026-08-29T07:20:29.877Z</time>
      </trkpt>
      <trkpt lat="43.67026" lon="6.14631">
        <ele>574.6</ele>
        <time>2026-08-29T07:20:35.402Z</time>
      </trkpt>
      <trkpt lat="43.67032" lon="6.14629">
        <ele>574.6</ele>
        <time>2026-08-29T07:20:40.339Z</time>
      </trkpt>
      <trkpt lat="43.67038" lon="6.14626">
        <ele>574.6</ele>
        <time>2026-08-29T07:20:45.444Z</time>
      </trkpt>
      <trkpt lat="43.67046" lon="6.14622">
        <ele>574.4</ele>
        <time>2026-08-29T07:20:51.292Z</time>
      </trkpt>
      <trkpt lat="43.67053" lon="6.14618">
        <ele>574.1</ele>
        <time>2026-08-29T07:20:56.499Z</time>
      </trkpt>
      <trkpt lat="43.67059" lon="6.14616">
        <ele>573.9</ele>
        <time>2026-08-29T07:21:01.811Z</time>
      </trkpt>
      <trkpt lat="43.67064" lon="6.14613">
        <ele>573.7</ele>
        <time>2026-08-29T07:21:06.503Z</time>
      </trkpt>
      <trkpt lat="43.6707" lon="6.14611">
        <ele>573.5</ele>
        <time>2026-08-29T07:21:11.901Z</time>
      </trkpt>
      <trkpt lat="43.67076" lon="6.14608">
        <ele>573.4</ele>
        <time>2026-08-29T07:21:17.483Z</time>
      </trkpt>
      <trkpt lat="43.67083" lon="6.14606">
        <ele>573.2</ele>
        <time>2026-08-29T07:21:23.282Z</time>
      </trkpt>
      <trkpt lat="43.67089" lon="6.14603">
        <ele>573.2</ele>
        <time>2026-08-29T07:21:28.460Z</time>
      </trkpt>
      <trkpt lat="43.67095" lon="6.146">
        <ele>573.1</ele>
        <time>2026-08-29T07:21:34.381Z</time>
      </trkpt>
      <trkpt lat="43.671" lon="6.14597">
        <ele>572.9</ele>
        <time>2026-08-29T07:21:39.441Z</time>
      </trkpt>
      <trkpt lat="43.67105" lon="6.14594">
        <ele>572.7</ele>
        <time>2026-08-29T07:21:44.479Z</time>
      </trkpt>
      <trkpt lat="43.6711" lon="6.14591">
        <ele>572.3</ele>
        <time>2026-08-29T07:21:49.518Z</time>
      </trkpt>
      <trkpt lat="43.67118" lon="6.14589">
        <ele>572.3</ele>
        <time>2026-08-29T07:21:55.302Z</time>
      </trkpt>
      <trkpt lat="43.67125" lon="6.14586">
        <ele>572.1</ele>
        <time>2026-08-29T07:22:00.517Z</time>
      </trkpt>
      <trkpt lat="43.67132" lon="6.14582">
        <ele>572.1</ele>
        <time>2026-08-29T07:22:05.870Z</time>
      </trkpt>
      <trkpt lat="43.67139" lon="6.14577">
        <ele>572.2</ele>
        <time>2026-08-29T07:22:11.440Z</time>
      </trkpt>
      <trkpt lat="43.67145" lon="6.14573">
        <ele>572.3</ele>
        <time>2026-08-29T07:22:16.442Z</time>
      </trkpt>
      <trkpt lat="43.67151" lon="6.14569">
        <ele>572.3</ele>
        <time>2026-08-29T07:22:21.444Z</time>
      </trkpt>
      <trkpt lat="43.67156" lon="6.14566">
        <ele>572.1</ele>
        <time>2026-08-29T07:22:26.697Z</time>
      </trkpt>
      <trkpt lat="43.6716" lon="6.14562">
        <ele>571.8</ele>
        <time>2026-08-29T07:22:31.456Z</time>
      </trkpt>
      <trkpt lat="43.67166" lon="6.14558">
        <ele>571.2</ele>
        <time>2026-08-29T07:22:36.663Z</time>
      </trkpt>
      <trkpt lat="43.67171" lon="6.14553">
        <ele>571.3</ele>
        <time>2026-08-29T07:22:41.487Z</time>
      </trkpt>
      <trkpt lat="43.67177" lon="6.1455">
        <ele>571.5</ele>
        <time>2026-08-29T07:22:47.245Z</time>
      </trkpt>
      <trkpt lat="43.67182" lon="6.14546">
        <ele>571.7</ele>
        <time>2026-08-29T07:22:52.460Z</time>
      </trkpt>
      <trkpt lat="43.67188" lon="6.14542">
        <ele>571.6</ele>
        <time>2026-08-29T07:22:58.339Z</time>
      </trkpt>
      <trkpt lat="43.67193" lon="6.14538">
        <ele>571.4</ele>
        <time>2026-08-29T07:23:03.439Z</time>
      </trkpt>
      <trkpt lat="43.672" lon="6.14533">
        <ele>571</ele>
        <time>2026-08-29T07:23:09.251Z</time>
      </trkpt>
      <trkpt lat="43.67206" lon="6.14528">
        <ele>570.6</ele>
        <time>2026-08-29T07:23:14.419Z</time>
      </trkpt>
      <trkpt lat="43.67211" lon="6.14522">
        <ele>570.6</ele>
        <time>2026-08-29T07:23:19.249Z</time>
      </trkpt>
      <trkpt lat="43.67216" lon="6.14515">
        <ele>570.4</ele>
        <time>2026-08-29T07:23:24.441Z</time>
      </trkpt>
      <trkpt lat="43.67221" lon="6.14508">
        <ele>570.1</ele>
        <time>2026-08-29T07:23:29.448Z</time>
      </trkpt>
      <trkpt lat="43.67226" lon="6.14501">
        <ele>570.1</ele>
        <time>2026-08-29T07:23:34.456Z</time>
      </trkpt>
      <trkpt lat="43.67231" lon="6.14494">
        <ele>570.4</ele>
        <time>2026-08-29T07:23:40.216Z</time>
      </trkpt>
      <trkpt lat="43.67235" lon="6.14487">
        <ele>570.5</ele>
        <time>2026-08-29T07:23:45.440Z</time>
      </trkpt>
      <trkpt lat="43.67239" lon="6.1448">
        <ele>570.5</ele>
        <time>2026-08-29T07:23:50.224Z</time>
      </trkpt>
      <trkpt lat="43.67243" lon="6.14472">
        <ele>570.2</ele>
        <time>2026-08-29T07:23:55.441Z</time>
      </trkpt>
      <trkpt lat="43.67247" lon="6.14466">
        <ele>569.9</ele>
        <time>2026-08-29T07:24:00.464Z</time>
      </trkpt>
      <trkpt lat="43.6725" lon="6.14459">
        <ele>569.5</ele>
        <time>2026-08-29T07:24:05.473Z</time>
      </trkpt>
      <trkpt lat="43.67254" lon="6.14452">
        <ele>569.5</ele>
        <time>2026-08-29T07:24:10.724Z</time>
      </trkpt>
      <trkpt lat="43.67258" lon="6.14444">
        <ele>569.3</ele>
        <time>2026-08-29T07:24:16.449Z</time>
      </trkpt>
      <trkpt lat="43.67261" lon="6.14436">
        <ele>569.5</ele>
        <time>2026-08-29T07:24:21.683Z</time>
      </trkpt>
      <trkpt lat="43.67264" lon="6.14427">
        <ele>569.5</ele>
        <time>2026-08-29T07:24:27.440Z</time>
      </trkpt>
      <trkpt lat="43.67269" lon="6.14419">
        <ele>569.3</ele>
        <time>2026-08-29T07:24:33.211Z</time>
      </trkpt>
      <trkpt lat="43.67273" lon="6.14411">
        <ele>569</ele>
        <time>2026-08-29T07:24:38.521Z</time>
      </trkpt>
      <trkpt lat="43.67277" lon="6.14403">
        <ele>568.6</ele>
        <time>2026-08-29T07:24:43.929Z</time>
      </trkpt>
      <trkpt lat="43.6728" lon="6.14394">
        <ele>568.3</ele>
        <time>2026-08-29T07:24:49.440Z</time>
      </trkpt>
      <trkpt lat="43.67283" lon="6.14387">
        <ele>568.4</ele>
        <time>2026-08-29T07:24:54.442Z</time>
      </trkpt>
      <trkpt lat="43.67286" lon="6.1438">
        <ele>568.5</ele>
        <time>2026-08-29T07:24:59.444Z</time>
      </trkpt>
      <trkpt lat="43.67289" lon="6.14374">
        <ele>568.6</ele>
        <time>2026-08-29T07:25:04.206Z</time>
      </trkpt>
      <trkpt lat="43.67292" lon="6.14367">
        <ele>568.6</ele>
        <time>2026-08-29T07:25:09.520Z</time>
      </trkpt>
      <trkpt lat="43.67295" lon="6.14359">
        <ele>568.6</ele>
        <time>2026-08-29T07:25:14.745Z</time>
      </trkpt>
      <trkpt lat="43.67298" lon="6.1435">
        <ele>568.3</ele>
        <time>2026-08-29T07:25:20.491Z</time>
      </trkpt>
      <trkpt lat="43.67301" lon="6.14342">
        <ele>567.8</ele>
        <time>2026-08-29T07:25:25.716Z</time>
      </trkpt>
      <trkpt lat="43.67304" lon="6.14333">
        <ele>567.1</ele>
        <time>2026-08-29T07:25:31.462Z</time>
      </trkpt>
      <trkpt lat="43.67307" lon="6.14325">
        <ele>566.8</ele>
        <time>2026-08-29T07:25:36.690Z</time>
      </trkpt>
      <trkpt lat="43.6731" lon="6.14316">
        <ele>566.8</ele>
        <time>2026-08-29T07:25:42.441Z</time>
      </trkpt>
      <trkpt lat="43.67314" lon="6.14307">
        <ele>566.7</ele>
        <time>2026-08-29T07:25:48.156Z</time>
      </trkpt>
      <trkpt lat="43.67317" lon="6.14298">
        <ele>566.9</ele>
        <time>2026-08-29T07:25:53.518Z</time>
      </trkpt>
      <trkpt lat="43.6732" lon="6.1429">
        <ele>567</ele>
        <time>2026-08-29T07:25:58.906Z</time>
      </trkpt>
      <trkpt lat="43.67322" lon="6.14281">
        <ele>567</ele>
        <time>2026-08-29T07:26:04.536Z</time>
      </trkpt>
      <trkpt lat="43.67325" lon="6.14273">
        <ele>566.9</ele>
        <time>2026-08-29T07:26:10.000Z</time>
      </trkpt>
      <trkpt lat="43.67328" lon="6.14265">
        <ele>566.6</ele>
        <time>2026-08-29T07:26:15.464Z</time>
      </trkpt>
      <trkpt lat="43.67331" lon="6.14257">
        <ele>566.3</ele>
        <time>2026-08-29T07:26:20.690Z</time>
      </trkpt>
      <trkpt lat="43.67334" lon="6.14248">
        <ele>566</ele>
        <time>2026-08-29T07:26:26.438Z</time>
      </trkpt>
      <trkpt lat="43.67337" lon="6.1424">
        <ele>566</ele>
        <time>2026-08-29T07:26:31.329Z</time>
      </trkpt>
      <trkpt lat="43.67339" lon="6.14231">
        <ele>565.9</ele>
        <time>2026-08-29T07:26:36.440Z</time>
      </trkpt>
      <trkpt lat="43.67341" lon="6.14223">
        <ele>565.9</ele>
        <time>2026-08-29T07:26:41.459Z</time>
      </trkpt>
      <trkpt lat="43.67343" lon="6.14215">
        <ele>566</ele>
        <time>2026-08-29T07:26:46.478Z</time>
      </trkpt>
      <trkpt lat="43.67346" lon="6.14206">
        <ele>566.1</ele>
        <time>2026-08-29T07:26:52.103Z</time>
      </trkpt>
      <trkpt lat="43.67348" lon="6.14197">
        <ele>566.1</ele>
        <time>2026-08-29T07:26:57.449Z</time>
      </trkpt>
      <trkpt lat="43.67351" lon="6.14188">
        <ele>565.9</ele>
        <time>2026-08-29T07:27:02.935Z</time>
      </trkpt>
      <trkpt lat="43.67354" lon="6.14179">
        <ele>565.5</ele>
        <time>2026-08-29T07:27:08.422Z</time>
      </trkpt>
      <trkpt lat="43.67357" lon="6.14172">
        <ele>565.2</ele>
        <time>2026-08-29T07:27:13.430Z</time>
      </trkpt>
      <trkpt lat="43.6736" lon="6.14165">
        <ele>564.9</ele>
        <time>2026-08-29T07:27:18.439Z</time>
      </trkpt>
      <trkpt lat="43.67364" lon="6.14158">
        <ele>564.6</ele>
        <time>2026-08-29T07:27:23.676Z</time>
      </trkpt>
      <trkpt lat="43.67367" lon="6.14151">
        <ele>564.2</ele>
        <time>2026-08-29T07:27:28.454Z</time>
      </trkpt>
      <trkpt lat="43.67372" lon="6.14144">
        <ele>563.8</ele>
        <time>2026-08-29T07:27:33.739Z</time>
      </trkpt>
      <trkpt lat="43.67377" lon="6.14136">
        <ele>563.5</ele>
        <time>2026-08-29T07:27:39.419Z</time>
      </trkpt>
      <trkpt lat="43.67382" lon="6.1413">
        <ele>563.4</ele>
        <time>2026-08-29T07:27:44.747Z</time>
      </trkpt>
      <trkpt lat="43.67386" lon="6.14124">
        <ele>563</ele>
        <time>2026-08-29T07:27:49.497Z</time>
      </trkpt>
      <trkpt lat="43.6739" lon="6.14117">
        <ele>562.6</ele>
        <time>2026-08-29T07:27:54.606Z</time>
      </trkpt>
      <trkpt lat="43.67394" lon="6.14109">
        <ele>562.7</ele>
        <time>2026-08-29T07:28:00.176Z</time>
      </trkpt>
      <trkpt lat="43.67397" lon="6.14102">
        <ele>563</ele>
        <time>2026-08-29T07:28:05.045Z</time>
      </trkpt>
      <trkpt lat="43.674" lon="6.14094">
        <ele>563.1</ele>
        <time>2026-08-29T07:28:10.439Z</time>
      </trkpt>
      <trkpt lat="43.67403" lon="6.14087">
        <ele>563.2</ele>
        <time>2026-08-29T07:28:15.340Z</time>
      </trkpt>
      <trkpt lat="43.67405" lon="6.14079">
        <ele>563.1</ele>
        <time>2026-08-29T07:28:20.440Z</time>
      </trkpt>
      <trkpt lat="43.67407" lon="6.14073">
        <ele>563.1</ele>
        <time>2026-08-29T07:28:25.118Z</time>
      </trkpt>
      <trkpt lat="43.67409" lon="6.14066">
        <ele>562.9</ele>
        <time>2026-08-29T07:28:30.449Z</time>
      </trkpt>
      <trkpt lat="43.67412" lon="6.14059">
        <ele>562.5</ele>
        <time>2026-08-29T07:28:35.663Z</time>
      </trkpt>
      <trkpt lat="43.67415" lon="6.14051">
        <ele>561.8</ele>
        <time>2026-08-29T07:28:41.439Z</time>
      </trkpt>
      <trkpt lat="43.67418" lon="6.14044">
        <ele>561.3</ele>
        <time>2026-08-29T07:28:46.660Z</time>
      </trkpt>
      <trkpt lat="43.6742" lon="6.14037">
        <ele>561</ele>
        <time>2026-08-29T07:28:51.490Z</time>
      </trkpt>
      <trkpt lat="43.67423" lon="6.14029">
        <ele>560.8</ele>
        <time>2026-08-29T07:28:56.855Z</time>
      </trkpt>
      <trkpt lat="43.67425" lon="6.1402">
        <ele>561</ele>
        <time>2026-08-29T07:29:02.461Z</time>
      </trkpt>
      <trkpt lat="43.67429" lon="6.14012">
        <ele>561.4</ele>
        <time>2026-08-29T07:29:08.188Z</time>
      </trkpt>
      <trkpt lat="43.67432" lon="6.14004">
        <ele>561.6</ele>
        <time>2026-08-29T07:29:13.496Z</time>
      </trkpt>
      <trkpt lat="43.67435" lon="6.13996">
        <ele>561.5</ele>
        <time>2026-08-29T07:29:18.968Z</time>
      </trkpt>
      <trkpt lat="43.67438" lon="6.13988">
        <ele>561.2</ele>
        <time>2026-08-29T07:29:24.440Z</time>
      </trkpt>
      <trkpt lat="43.67443" lon="6.13981">
        <ele>560.7</ele>
        <time>2026-08-29T07:29:29.703Z</time>
      </trkpt>
      <trkpt lat="43.67447" lon="6.13974">
        <ele>560.2</ele>
        <time>2026-08-29T07:29:34.476Z</time>
      </trkpt>
      <trkpt lat="43.67451" lon="6.13968">
        <ele>560.3</ele>
        <time>2026-08-29T07:29:39.665Z</time>
      </trkpt>
      <trkpt lat="43.67455" lon="6.13961">
        <ele>560.3</ele>
        <time>2026-08-29T07:29:45.340Z</time>
      </trkpt>
      <trkpt lat="43.6746" lon="6.13956">
        <ele>560.2</ele>
        <time>2026-08-29T07:29:50.502Z</time>
      </trkpt>
      <trkpt lat="43.67464" lon="6.1395">
        <ele>559.8</ele>
        <time>2026-08-29T07:29:55.440Z</time>
      </trkpt>
      <trkpt lat="43.6747" lon="6.13943">
        <ele>559.2</ele>
        <time>2026-08-29T07:30:01.234Z</time>
      </trkpt>
      <trkpt lat="43.67475" lon="6.13936">
        <ele>559.5</ele>
        <time>2026-08-29T07:30:06.486Z</time>
      </trkpt>
      <trkpt lat="43.6748" lon="6.1393">
        <ele>559.9</ele>
        <time>2026-08-29T07:30:12.023Z</time>
      </trkpt>
      <trkpt lat="43.67484" lon="6.13923">
        <ele>560.1</ele>
        <time>2026-08-29T07:30:17.420Z</time>
      </trkpt>
      <trkpt lat="43.67489" lon="6.13917">
        <ele>560</ele>
        <time>2026-08-29T07:30:22.717Z</time>
      </trkpt>
      <trkpt lat="43.67493" lon="6.13911">
        <ele>559.8</ele>
        <time>2026-08-29T07:30:27.440Z</time>
      </trkpt>
      <trkpt lat="43.67497" lon="6.13905">
        <ele>559.3</ele>
        <time>2026-08-29T07:30:32.722Z</time>
      </trkpt>
      <trkpt lat="43.67501" lon="6.13898">
        <ele>558.8</ele>
        <time>2026-08-29T07:30:38.497Z</time>
      </trkpt>
      <trkpt lat="43.67504" lon="6.1389">
        <ele>558.5</ele>
        <time>2026-08-29T07:30:43.982Z</time>
      </trkpt>
      <trkpt lat="43.67507" lon="6.13882">
        <ele>558.8</ele>
        <time>2026-08-29T07:30:49.467Z</time>
      </trkpt>
      <trkpt lat="43.67511" lon="6.13875">
        <ele>559.1</ele>
        <time>2026-08-29T07:30:54.716Z</time>
      </trkpt>
      <trkpt lat="43.67515" lon="6.13867">
        <ele>559.1</ele>
        <time>2026-08-29T07:31:00.439Z</time>
      </trkpt>
      <trkpt lat="43.67519" lon="6.1386">
        <ele>559</ele>
        <time>2026-08-29T07:31:05.668Z</time>
      </trkpt>
      <trkpt lat="43.67522" lon="6.13853">
        <ele>558.7</ele>
        <time>2026-08-29T07:31:10.439Z</time>
      </trkpt>
      <trkpt lat="43.67526" lon="6.13847">
        <ele>558.1</ele>
        <time>2026-08-29T07:31:15.455Z</time>
      </trkpt>
      <trkpt lat="43.6753" lon="6.13841">
        <ele>557.7</ele>
        <time>2026-08-29T07:31:20.471Z</time>
      </trkpt>
      <trkpt lat="43.67533" lon="6.13835">
        <ele>557.5</ele>
        <time>2026-08-29T07:31:25.219Z</time>
      </trkpt>
      <trkpt lat="43.67536" lon="6.13828">
        <ele>557.7</ele>
        <time>2026-08-29T07:31:30.516Z</time>
      </trkpt>
      <trkpt lat="43.6754" lon="6.13821">
        <ele>557.9</ele>
        <time>2026-08-29T07:31:35.950Z</time>
      </trkpt>
      <trkpt lat="43.67543" lon="6.13813">
        <ele>558</ele>
        <time>2026-08-29T07:31:41.440Z</time>
      </trkpt>
      <trkpt lat="43.67547" lon="6.13806">
        <ele>558</ele>
        <time>2026-08-29T07:31:46.680Z</time>
      </trkpt>
      <trkpt lat="43.6755" lon="6.13799">
        <ele>557.9</ele>
        <time>2026-08-29T07:31:51.461Z</time>
      </trkpt>
      <trkpt lat="43.67554" lon="6.1379">
        <ele>557.5</ele>
        <time>2026-08-29T07:32:02.439Z</time>
      </trkpt>
      <trkpt lat="43.67553" lon="6.13787">
        <ele>557.5</ele>
        <time>2026-08-29T07:53:39.438Z</time>
      </trkpt>
      <trkpt lat="43.67556" lon="6.1378">
        <ele>557.1</ele>
        <time>2026-08-29T07:53:44.438Z</time>
      </trkpt>
      <trkpt lat="43.67559" lon="6.13773">
        <ele>557.1</ele>
        <time>2026-08-29T07:53:49.438Z</time>
      </trkpt>
      <trkpt lat="43.67563" lon="6.13768">
        <ele>557.2</ele>
        <time>2026-08-29T07:53:54.998Z</time>
      </trkpt>
      <trkpt lat="43.67566" lon="6.13762">
        <ele>557.2</ele>
        <time>2026-08-29T07:54:00.438Z</time>
      </trkpt>
      <trkpt lat="43.67569" lon="6.13754">
        <ele>557.1</ele>
        <time>2026-08-29T07:54:10.438Z</time>
      </trkpt>
      <trkpt lat="43.67573" lon="6.13747">
        <ele>557</ele>
        <time>2026-08-29T07:54:15.415Z</time>
      </trkpt>
      <trkpt lat="43.67576" lon="6.13739">
        <ele>556.9</ele>
        <time>2026-08-29T07:54:20.443Z</time>
      </trkpt>
      <trkpt lat="43.67581" lon="6.13732">
        <ele>556.5</ele>
        <time>2026-08-29T07:54:25.972Z</time>
      </trkpt>
      <trkpt lat="43.67585" lon="6.13724">
        <ele>556.1</ele>
        <time>2026-08-29T07:54:31.438Z</time>
      </trkpt>
      <trkpt lat="43.6759" lon="6.13718">
        <ele>556</ele>
        <time>2026-08-29T07:54:36.519Z</time>
      </trkpt>
      <trkpt lat="43.67594" lon="6.13711">
        <ele>556</ele>
        <time>2026-08-29T07:54:41.472Z</time>
      </trkpt>
      <trkpt lat="43.67598" lon="6.13705">
        <ele>556</ele>
        <time>2026-08-29T07:54:46.955Z</time>
      </trkpt>
      <trkpt lat="43.67602" lon="6.13699">
        <ele>556</ele>
        <time>2026-08-29T07:54:52.439Z</time>
      </trkpt>
      <trkpt lat="43.67602" lon="6.13692">
        <ele>556</ele>
        <time>2026-08-29T07:54:57.885Z</time>
      </trkpt>
      <trkpt lat="43.67601" lon="6.13685">
        <ele>556</ele>
        <time>2026-08-29T07:55:03.438Z</time>
      </trkpt>
      <trkpt lat="43.67603" lon="6.13677">
        <ele>556</ele>
        <time>2026-08-29T07:55:08.666Z</time>
      </trkpt>
      <trkpt lat="43.67605" lon="6.13668">
        <ele>556</ele>
        <time>2026-08-29T07:55:14.483Z</time>
      </trkpt>
      <trkpt lat="43.67608" lon="6.13661">
        <ele>555.6</ele>
        <time>2026-08-29T07:55:19.857Z</time>
      </trkpt>
      <trkpt lat="43.6761" lon="6.13653">
        <ele>555.1</ele>
        <time>2026-08-29T07:55:25.449Z</time>
      </trkpt>
      <trkpt lat="43.67612" lon="6.13645">
        <ele>554.5</ele>
        <time>2026-08-29T07:55:30.217Z</time>
      </trkpt>
      <trkpt lat="43.67614" lon="6.13636">
        <ele>554.2</ele>
        <time>2026-08-29T07:55:35.521Z</time>
      </trkpt>
      <trkpt lat="43.6762" lon="6.1363">
        <ele>554.3</ele>
        <time>2026-08-29T07:55:40.933Z</time>
      </trkpt>
      <trkpt lat="43.67625" lon="6.13623">
        <ele>554.2</ele>
        <time>2026-08-29T07:55:46.135Z</time>
      </trkpt>
      <trkpt lat="43.67627" lon="6.13616">
        <ele>554</ele>
        <time>2026-08-29T07:55:51.287Z</time>
      </trkpt>
      <trkpt lat="43.67629" lon="6.13609">
        <ele>553.7</ele>
        <time>2026-08-29T07:55:56.440Z</time>
      </trkpt>
      <trkpt lat="43.67629" lon="6.13601">
        <ele>553.7</ele>
        <time>2026-08-29T07:56:01.473Z</time>
      </trkpt>
      <trkpt lat="43.67629" lon="6.13593">
        <ele>553.7</ele>
        <time>2026-08-29T07:56:06.506Z</time>
      </trkpt>
      <trkpt lat="43.67629" lon="6.13585">
        <ele>553.7</ele>
        <time>2026-08-29T07:56:11.633Z</time>
      </trkpt>
      <trkpt lat="43.67628" lon="6.13576">
        <ele>553.4</ele>
        <time>2026-08-29T07:56:17.469Z</time>
      </trkpt>
      <trkpt lat="43.67625" lon="6.13568">
        <ele>553.2</ele>
        <time>2026-08-29T07:56:22.518Z</time>
      </trkpt>
      <trkpt lat="43.67621" lon="6.13559">
        <ele>552.8</ele>
        <time>2026-08-29T07:56:28.437Z</time>
      </trkpt>
      <trkpt lat="43.67618" lon="6.13553">
        <ele>552.6</ele>
        <time>2026-08-29T07:56:32.961Z</time>
      </trkpt>
      <trkpt lat="43.67614" lon="6.13546">
        <ele>552.3</ele>
        <time>2026-08-29T07:56:38.496Z</time>
      </trkpt>
      <trkpt lat="43.6761" lon="6.13538">
        <ele>551.8</ele>
        <time>2026-08-29T07:56:43.768Z</time>
      </trkpt>
      <trkpt lat="43.67605" lon="6.1353">
        <ele>551.6</ele>
        <time>2026-08-29T07:56:49.500Z</time>
      </trkpt>
      <trkpt lat="43.67602" lon="6.13522">
        <ele>551.7</ele>
        <time>2026-08-29T07:56:54.760Z</time>
      </trkpt>
      <trkpt lat="43.67598" lon="6.13514">
        <ele>551.7</ele>
        <time>2026-08-29T07:57:00.438Z</time>
      </trkpt>
      <trkpt lat="43.67593" lon="6.1351">
        <ele>551.7</ele>
        <time>2026-08-29T07:57:05.105Z</time>
      </trkpt>
      <trkpt lat="43.67587" lon="6.13506">
        <ele>551.5</ele>
        <time>2026-08-29T07:57:10.488Z</time>
      </trkpt>
      <trkpt lat="43.67583" lon="6.13498">
        <ele>551</ele>
        <time>2026-08-29T07:57:15.715Z</time>
      </trkpt>
      <trkpt lat="43.67578" lon="6.1349">
        <ele>550.9</ele>
        <time>2026-08-29T07:57:21.398Z</time>
      </trkpt>
      <trkpt lat="43.67573" lon="6.13484">
        <ele>550.8</ele>
        <time>2026-08-29T07:57:26.747Z</time>
      </trkpt>
      <trkpt lat="43.67568" lon="6.13477">
        <ele>550.5</ele>
        <time>2026-08-29T07:57:32.497Z</time>
      </trkpt>
      <trkpt lat="43.67562" lon="6.13474">
        <ele>550.3</ele>
        <time>2026-08-29T07:57:37.873Z</time>
      </trkpt>
      <trkpt lat="43.67556" lon="6.1347">
        <ele>550.3</ele>
        <time>2026-08-29T07:57:43.487Z</time>
      </trkpt>
      <trkpt lat="43.67549" lon="6.13468">
        <ele>550.3</ele>
        <time>2026-08-29T07:57:48.893Z</time>
      </trkpt>
      <trkpt lat="43.67542" lon="6.13465">
        <ele>550.3</ele>
        <time>2026-08-29T07:57:54.437Z</time>
      </trkpt>
      <trkpt lat="43.67538" lon="6.13459">
        <ele>550.2</ele>
        <time>2026-08-29T07:57:59.478Z</time>
      </trkpt>
      <trkpt lat="43.67534" lon="6.13453">
        <ele>549.9</ele>
        <time>2026-08-29T07:58:04.520Z</time>
      </trkpt>
      <trkpt lat="43.67532" lon="6.13445">
        <ele>549.6</ele>
        <time>2026-08-29T07:58:09.829Z</time>
      </trkpt>
      <trkpt lat="43.67529" lon="6.13437">
        <ele>549.4</ele>
        <time>2026-08-29T07:58:15.482Z</time>
      </trkpt>
      <trkpt lat="43.67529" lon="6.13427">
        <ele>549.8</ele>
        <time>2026-08-29T07:58:20.936Z</time>
      </trkpt>
      <trkpt lat="43.67528" lon="6.13417">
        <ele>550</ele>
        <time>2026-08-29T07:58:26.442Z</time>
      </trkpt>
      <trkpt lat="43.67528" lon="6.13408">
        <ele>549.7</ele>
        <time>2026-08-29T07:58:31.267Z</time>
      </trkpt>
      <trkpt lat="43.67527" lon="6.13398">
        <ele>549.4</ele>
        <time>2026-08-29T07:58:36.680Z</time>
      </trkpt>
      <trkpt lat="43.67528" lon="6.13389">
        <ele>549</ele>
        <time>2026-08-29T07:58:42.106Z</time>
      </trkpt>
      <trkpt lat="43.67528" lon="6.1338">
        <ele>549</ele>
        <time>2026-08-29T07:58:47.470Z</time>
      </trkpt>
      <trkpt lat="43.67528" lon="6.13371">
        <ele>549</ele>
        <time>2026-08-29T07:58:52.922Z</time>
      </trkpt>
      <trkpt lat="43.67527" lon="6.13362">
        <ele>549.1</ele>
        <time>2026-08-29T07:58:58.438Z</time>
      </trkpt>
      <trkpt lat="43.67528" lon="6.13354">
        <ele>548.8</ele>
        <time>2026-08-29T07:59:03.182Z</time>
      </trkpt>
      <trkpt lat="43.67529" lon="6.13345">
        <ele>548.6</ele>
        <time>2026-08-29T07:59:08.503Z</time>
      </trkpt>
      <trkpt lat="43.67531" lon="6.13336">
        <ele>548.6</ele>
        <time>2026-08-29T07:59:13.792Z</time>
      </trkpt>
      <trkpt lat="43.67532" lon="6.13326">
        <ele>548.5</ele>
        <time>2026-08-29T07:59:19.465Z</time>
      </trkpt>
      <trkpt lat="43.67533" lon="6.13318">
        <ele>548.5</ele>
        <time>2026-08-29T07:59:24.698Z</time>
      </trkpt>
      <trkpt lat="43.67533" lon="6.1331">
        <ele>548.4</ele>
        <time>2026-08-29T07:59:29.855Z</time>
      </trkpt>
      <trkpt lat="43.67533" lon="6.13301">
        <ele>548.3</ele>
        <time>2026-08-29T07:59:35.168Z</time>
      </trkpt>
      <trkpt lat="43.67533" lon="6.13292">
        <ele>548.3</ele>
        <time>2026-08-29T07:59:40.482Z</time>
      </trkpt>
      <trkpt lat="43.67532" lon="6.13282">
        <ele>548.2</ele>
        <time>2026-08-29T07:59:45.893Z</time>
      </trkpt>
      <trkpt lat="43.6753" lon="6.13272">
        <ele>547.9</ele>
        <time>2026-08-29T07:59:51.456Z</time>
      </trkpt>
      <trkpt lat="43.67527" lon="6.13265">
        <ele>547.5</ele>
        <time>2026-08-29T07:59:56.666Z</time>
      </trkpt>
      <trkpt lat="43.67524" lon="6.13257">
        <ele>547.2</ele>
        <time>2026-08-29T08:00:02.437Z</time>
      </trkpt>
      <trkpt lat="43.6752" lon="6.13252">
        <ele>546.8</ele>
        <time>2026-08-29T08:00:07.121Z</time>
      </trkpt>
      <trkpt lat="43.67515" lon="6.13247">
        <ele>546.6</ele>
        <time>2026-08-29T08:00:12.482Z</time>
      </trkpt>
      <trkpt lat="43.6751" lon="6.13244">
        <ele>546.6</ele>
        <time>2026-08-29T08:00:17.416Z</time>
      </trkpt>
      <trkpt lat="43.67504" lon="6.1324">
        <ele>546.8</ele>
        <time>2026-08-29T08:00:23.448Z</time>
      </trkpt>
      <trkpt lat="43.67498" lon="6.13235">
        <ele>547</ele>
        <time>2026-08-29T08:00:28.790Z</time>
      </trkpt>
      <trkpt lat="43.67492" lon="6.13229">
        <ele>547</ele>
        <time>2026-08-29T08:00:34.438Z</time>
      </trkpt>
      <trkpt lat="43.67489" lon="6.13224">
        <ele>547.1</ele>
        <time>2026-08-29T08:00:39.645Z</time>
      </trkpt>
      <trkpt lat="43.67486" lon="6.13218">
        <ele>547.1</ele>
        <time>2026-08-29T08:00:45.493Z</time>
      </trkpt>
      <trkpt lat="43.67483" lon="6.1321">
        <ele>546.8</ele>
        <time>2026-08-29T08:00:50.532Z</time>
      </trkpt>
      <trkpt lat="43.67479" lon="6.13201">
        <ele>546.3</ele>
        <time>2026-08-29T08:00:56.440Z</time>
      </trkpt>
      <trkpt lat="43.67479" lon="6.13193">
        <ele>546.2</ele>
        <time>2026-08-29T08:01:01.583Z</time>
      </trkpt>
      <trkpt lat="43.67478" lon="6.13184">
        <ele>545.6</ele>
        <time>2026-08-29T08:01:07.438Z</time>
      </trkpt>
      <trkpt lat="43.67479" lon="6.13176">
        <ele>545.4</ele>
        <time>2026-08-29T08:01:12.503Z</time>
      </trkpt>
      <trkpt lat="43.67479" lon="6.13168">
        <ele>545</ele>
        <time>2026-08-29T08:01:17.495Z</time>
      </trkpt>
      <trkpt lat="43.67482" lon="6.13158">
        <ele>545.1</ele>
        <time>2026-08-29T08:01:23.095Z</time>
      </trkpt>
      <trkpt lat="43.67484" lon="6.13148">
        <ele>544.8</ele>
        <time>2026-08-29T08:01:28.462Z</time>
      </trkpt>
      <trkpt lat="43.67487" lon="6.1314">
        <ele>544.6</ele>
        <time>2026-08-29T08:01:33.469Z</time>
      </trkpt>
      <trkpt lat="43.6749" lon="6.13132">
        <ele>544.7</ele>
        <time>2026-08-29T08:01:38.476Z</time>
      </trkpt>
      <trkpt lat="43.67493" lon="6.13126">
        <ele>544.5</ele>
        <time>2026-08-29T08:01:43.406Z</time>
      </trkpt>
      <trkpt lat="43.67495" lon="6.13119">
        <ele>544.2</ele>
        <time>2026-08-29T08:01:48.493Z</time>
      </trkpt>
      <trkpt lat="43.67499" lon="6.13112">
        <ele>543.2</ele>
        <time>2026-08-29T08:01:53.724Z</time>
      </trkpt>
      <trkpt lat="43.67502" lon="6.13105">
        <ele>543.6</ele>
        <time>2026-08-29T08:01:58.496Z</time>
      </trkpt>
      <trkpt lat="43.67506" lon="6.13097">
        <ele>544.1</ele>
        <time>2026-08-29T08:02:03.966Z</time>
      </trkpt>
      <trkpt lat="43.6751" lon="6.13089">
        <ele>544.2</ele>
        <time>2026-08-29T08:02:09.437Z</time>
      </trkpt>
      <trkpt lat="43.67512" lon="6.13082">
        <ele>544.1</ele>
        <time>2026-08-29T08:02:14.580Z</time>
      </trkpt>
      <trkpt lat="43.67513" lon="6.13075">
        <ele>543.9</ele>
        <time>2026-08-29T08:02:19.457Z</time>
      </trkpt>
      <trkpt lat="43.67512" lon="6.13067">
        <ele>543.8</ele>
        <time>2026-08-29T08:02:24.643Z</time>
      </trkpt>
      <trkpt lat="43.67511" lon="6.13058">
        <ele>543.7</ele>
        <time>2026-08-29T08:02:30.460Z</time>
      </trkpt>
      <trkpt lat="43.67509" lon="6.13051">
        <ele>543.9</ele>
        <time>2026-08-29T08:02:35.627Z</time>
      </trkpt>
      <trkpt lat="43.67507" lon="6.13043">
        <ele>544.1</ele>
        <time>2026-08-29T08:02:41.438Z</time>
      </trkpt>
      <trkpt lat="43.67504" lon="6.13038">
        <ele>543.6</ele>
        <time>2026-08-29T08:02:51.492Z</time>
      </trkpt>
      <trkpt lat="43.67501" lon="6.13034">
        <ele>542.7</ele>
        <time>2026-08-29T08:02:56.264Z</time>
      </trkpt>
      <trkpt lat="43.67497" lon="6.13029">
        <ele>542.1</ele>
        <time>2026-08-29T08:03:02.440Z</time>
      </trkpt>
      <trkpt lat="43.67492" lon="6.13023">
        <ele>542.6</ele>
        <time>2026-08-29T08:03:07.471Z</time>
      </trkpt>
      <trkpt lat="43.67486" lon="6.13016">
        <ele>542.8</ele>
        <time>2026-08-29T08:03:13.437Z</time>
      </trkpt>
      <trkpt lat="43.67483" lon="6.13009">
        <ele>542.9</ele>
        <time>2026-08-29T08:03:18.197Z</time>
      </trkpt>
      <trkpt lat="43.6748" lon="6.13001">
        <ele>542.7</ele>
        <time>2026-08-29T08:03:23.470Z</time>
      </trkpt>
      <trkpt lat="43.67478" lon="6.12991">
        <ele>542.1</ele>
        <time>2026-08-29T08:03:28.953Z</time>
      </trkpt>
      <trkpt lat="43.67476" lon="6.12981">
        <ele>541.6</ele>
        <time>2026-08-29T08:03:34.438Z</time>
      </trkpt>
      <trkpt lat="43.67477" lon="6.12972">
        <ele>541.7</ele>
        <time>2026-08-29T08:03:39.469Z</time>
      </trkpt>
      <trkpt lat="43.67478" lon="6.12963">
        <ele>541.2</ele>
        <time>2026-08-29T08:03:44.501Z</time>
      </trkpt>
      <trkpt lat="43.67483" lon="6.12956">
        <ele>541.1</ele>
        <time>2026-08-29T08:03:49.980Z</time>
      </trkpt>
      <trkpt lat="43.67487" lon="6.12948">
        <ele>540.4</ele>
        <time>2026-08-29T08:03:55.397Z</time>
      </trkpt>
      <trkpt lat="43.67492" lon="6.12942">
        <ele>540.2</ele>
        <time>2026-08-29T08:04:00.514Z</time>
      </trkpt>
      <trkpt lat="43.67496" lon="6.12935">
        <ele>540.5</ele>
        <time>2026-08-29T08:04:05.501Z</time>
      </trkpt>
      <trkpt lat="43.67502" lon="6.1293">
        <ele>540.5</ele>
        <time>2026-08-29T08:04:11.315Z</time>
      </trkpt>
      <trkpt lat="43.67507" lon="6.12925">
        <ele>540.6</ele>
        <time>2026-08-29T08:04:16.437Z</time>
      </trkpt>
      <trkpt lat="43.67513" lon="6.12922">
        <ele>540.3</ele>
        <time>2026-08-29T08:04:21.342Z</time>
      </trkpt>
      <trkpt lat="43.67519" lon="6.12918">
        <ele>539.7</ele>
        <time>2026-08-29T08:04:26.463Z</time>
      </trkpt>
      <trkpt lat="43.67525" lon="6.12913">
        <ele>539.5</ele>
        <time>2026-08-29T08:04:32.297Z</time>
      </trkpt>
      <trkpt lat="43.6753" lon="6.12908">
        <ele>539.9</ele>
        <time>2026-08-29T08:04:37.437Z</time>
      </trkpt>
      <trkpt lat="43.67533" lon="6.129">
        <ele>540.5</ele>
        <time>2026-08-29T08:04:42.230Z</time>
      </trkpt>
      <trkpt lat="43.67536" lon="6.12891">
        <ele>540.7</ele>
        <time>2026-08-29T08:04:47.502Z</time>
      </trkpt>
      <trkpt lat="43.67538" lon="6.12884">
        <ele>540.7</ele>
        <time>2026-08-29T08:04:53.126Z</time>
      </trkpt>
      <trkpt lat="43.67539" lon="6.12877">
        <ele>540.7</ele>
        <time>2026-08-29T08:04:58.458Z</time>
      </trkpt>
      <trkpt lat="43.67539" lon="6.12868">
        <ele>540.8</ele>
        <time>2026-08-29T08:05:03.947Z</time>
      </trkpt>
      <trkpt lat="43.67539" lon="6.12859">
        <ele>540.8</ele>
        <time>2026-08-29T08:05:09.437Z</time>
      </trkpt>
      <trkpt lat="43.67536" lon="6.12852">
        <ele>540.4</ele>
        <time>2026-08-29T08:05:14.199Z</time>
      </trkpt>
      <trkpt lat="43.67533" lon="6.12844">
        <ele>539.5</ele>
        <time>2026-08-29T08:05:19.475Z</time>
      </trkpt>
      <trkpt lat="43.67531" lon="6.12837">
        <ele>538.4</ele>
        <time>2026-08-29T08:05:24.495Z</time>
      </trkpt>
      <trkpt lat="43.67529" lon="6.1283">
        <ele>537.7</ele>
        <time>2026-08-29T08:05:29.517Z</time>
      </trkpt>
      <trkpt lat="43.67526" lon="6.12821">
        <ele>538.2</ele>
        <time>2026-08-29T08:05:40.438Z</time>
      </trkpt>
      <trkpt lat="43.67524" lon="6.1282">
        <ele>538.6</ele>
        <time>2026-08-29T08:07:02.498Z</time>
      </trkpt>
      <trkpt lat="43.67519" lon="6.12811">
        <ele>539.7</ele>
        <time>2026-08-29T08:07:13.460Z</time>
      </trkpt>
      <trkpt lat="43.67517" lon="6.12803">
        <ele>540.1</ele>
        <time>2026-08-29T08:07:18.728Z</time>
      </trkpt>
      <trkpt lat="43.67514" lon="6.12795">
        <ele>540.3</ele>
        <time>2026-08-29T08:07:24.338Z</time>
      </trkpt>
      <trkpt lat="43.67516" lon="6.12788">
        <ele>540</ele>
        <time>2026-08-29T08:07:29.221Z</time>
      </trkpt>
      <trkpt lat="43.67517" lon="6.1278">
        <ele>539.8</ele>
        <time>2026-08-29T08:07:34.489Z</time>
      </trkpt>
      <trkpt lat="43.67518" lon="6.12774">
        <ele>539.4</ele>
        <time>2026-08-29T08:07:39.567Z</time>
      </trkpt>
      <trkpt lat="43.67519" lon="6.12767">
        <ele>538.7</ele>
        <time>2026-08-29T08:07:45.452Z</time>
      </trkpt>
      <trkpt lat="43.67521" lon="6.12758">
        <ele>537.9</ele>
        <time>2026-08-29T08:07:50.559Z</time>
      </trkpt>
      <trkpt lat="43.67522" lon="6.12749">
        <ele>537.2</ele>
        <time>2026-08-29T08:07:55.500Z</time>
      </trkpt>
      <trkpt lat="43.67524" lon="6.12742">
        <ele>536.8</ele>
        <time>2026-08-29T08:08:00.642Z</time>
      </trkpt>
      <trkpt lat="43.67525" lon="6.12735">
        <ele>536.5</ele>
        <time>2026-08-29T08:08:05.517Z</time>
      </trkpt>
      <trkpt lat="43.67526" lon="6.12727">
        <ele>536.1</ele>
        <time>2026-08-29T08:08:10.696Z</time>
      </trkpt>
      <trkpt lat="43.67526" lon="6.12718">
        <ele>536.1</ele>
        <time>2026-08-29T08:08:16.438Z</time>
      </trkpt>
      <trkpt lat="43.67523" lon="6.12712">
        <ele>536.3</ele>
        <time>2026-08-29T08:08:21.465Z</time>
      </trkpt>
      <trkpt lat="43.6752" lon="6.12706">
        <ele>536.6</ele>
        <time>2026-08-29T08:08:26.494Z</time>
      </trkpt>
      <trkpt lat="43.67516" lon="6.1271">
        <ele>536.4</ele>
        <time>2026-08-29T08:08:32.146Z</time>
      </trkpt>
      <trkpt lat="43.67512" lon="6.12713">
        <ele>536.1</ele>
        <time>2026-08-29T08:08:37.357Z</time>
      </trkpt>
      <trkpt lat="43.67507" lon="6.12717">
        <ele>535.7</ele>
        <time>2026-08-29T08:08:42.433Z</time>
      </trkpt>
      <trkpt lat="43.67502" lon="6.12721">
        <ele>535.2</ele>
        <time>2026-08-29T08:08:47.510Z</time>
      </trkpt>
      <trkpt lat="43.67498" lon="6.12725">
        <ele>535.3</ele>
        <time>2026-08-29T08:08:52.717Z</time>
      </trkpt>
      <trkpt lat="43.67493" lon="6.12728">
        <ele>535.5</ele>
        <time>2026-08-29T08:08:58.467Z</time>
      </trkpt>
      <trkpt lat="43.67487" lon="6.12732">
        <ele>535.6</ele>
        <time>2026-08-29T08:09:04.070Z</time>
      </trkpt>
      <trkpt lat="43.67481" lon="6.12735">
        <ele>535.4</ele>
        <time>2026-08-29T08:09:09.437Z</time>
      </trkpt>
      <trkpt lat="43.67475" lon="6.12733">
        <ele>535.1</ele>
        <time>2026-08-29T08:09:14.462Z</time>
      </trkpt>
      <trkpt lat="43.67469" lon="6.12731">
        <ele>536.5</ele>
        <time>2026-08-29T08:09:19.488Z</time>
      </trkpt>
      <trkpt lat="43.67467" lon="6.12722">
        <ele>537.1</ele>
        <time>2026-08-29T08:09:24.813Z</time>
      </trkpt>
      <trkpt lat="43.67464" lon="6.12713">
        <ele>537.4</ele>
        <time>2026-08-29T08:09:30.419Z</time>
      </trkpt>
      <trkpt lat="43.67465" lon="6.12705">
        <ele>536.4</ele>
        <time>2026-08-29T08:09:35.428Z</time>
      </trkpt>
      <trkpt lat="43.67466" lon="6.12697">
        <ele>535.5</ele>
        <time>2026-08-29T08:09:40.438Z</time>
      </trkpt>
      <trkpt lat="43.67468" lon="6.12689">
        <ele>534.8</ele>
        <time>2026-08-29T08:09:45.448Z</time>
      </trkpt>
      <trkpt lat="43.6747" lon="6.12681">
        <ele>534.2</ele>
        <time>2026-08-29T08:09:50.459Z</time>
      </trkpt>
      <trkpt lat="43.67472" lon="6.12673">
        <ele>533.3</ele>
        <time>2026-08-29T08:09:55.947Z</time>
      </trkpt>
      <trkpt lat="43.67474" lon="6.12665">
        <ele>533.5</ele>
        <time>2026-08-29T08:10:01.436Z</time>
      </trkpt>
      <trkpt lat="43.67475" lon="6.12657">
        <ele>533.8</ele>
        <time>2026-08-29T08:10:06.459Z</time>
      </trkpt>
      <trkpt lat="43.67476" lon="6.12649">
        <ele>534</ele>
        <time>2026-08-29T08:10:11.482Z</time>
      </trkpt>
      <trkpt lat="43.67478" lon="6.12641">
        <ele>534.5</ele>
        <time>2026-08-29T08:10:16.781Z</time>
      </trkpt>
      <trkpt lat="43.67479" lon="6.12632">
        <ele>534.8</ele>
        <time>2026-08-29T08:10:22.482Z</time>
      </trkpt>
      <trkpt lat="43.67481" lon="6.12625">
        <ele>535.2</ele>
        <time>2026-08-29T08:10:27.296Z</time>
      </trkpt>
      <trkpt lat="43.67482" lon="6.12617">
        <ele>535.4</ele>
        <time>2026-08-29T08:10:32.489Z</time>
      </trkpt>
      <trkpt lat="43.67484" lon="6.12609">
        <ele>535.8</ele>
        <time>2026-08-29T08:10:37.767Z</time>
      </trkpt>
      <trkpt lat="43.67485" lon="6.126">
        <ele>536.1</ele>
        <time>2026-08-29T08:10:43.446Z</time>
      </trkpt>
      <trkpt lat="43.67487" lon="6.12591">
        <ele>536.4</ele>
        <time>2026-08-29T08:10:49.044Z</time>
      </trkpt>
      <trkpt lat="43.67488" lon="6.12582">
        <ele>536.4</ele>
        <time>2026-08-29T08:10:54.459Z</time>
      </trkpt>
      <trkpt lat="43.6749" lon="6.12573">
        <ele>536.2</ele>
        <time>2026-08-29T08:10:59.778Z</time>
      </trkpt>
      <trkpt lat="43.67491" lon="6.12563">
        <ele>535.8</ele>
        <time>2026-08-29T08:11:05.482Z</time>
      </trkpt>
      <trkpt lat="43.67492" lon="6.12555">
        <ele>535.4</ele>
        <time>2026-08-29T08:11:10.950Z</time>
      </trkpt>
      <trkpt lat="43.67493" lon="6.12547">
        <ele>535</ele>
        <time>2026-08-29T08:11:16.418Z</time>
      </trkpt>
      <trkpt lat="43.67496" lon="6.12539">
        <ele>534</ele>
        <time>2026-08-29T08:11:21.317Z</time>
      </trkpt>
      <trkpt lat="43.67498" lon="6.1253">
        <ele>532.9</ele>
        <time>2026-08-29T08:11:26.436Z</time>
      </trkpt>
      <trkpt lat="43.67501" lon="6.12523">
        <ele>532.5</ele>
        <time>2026-08-29T08:11:31.644Z</time>
      </trkpt>
      <trkpt lat="43.67503" lon="6.12516">
        <ele>533.2</ele>
        <time>2026-08-29T08:11:36.463Z</time>
      </trkpt>
      <trkpt lat="43.67506" lon="6.12509">
        <ele>533.6</ele>
        <time>2026-08-29T08:11:41.852Z</time>
      </trkpt>
      <trkpt lat="43.67508" lon="6.12501">
        <ele>533.7</ele>
        <time>2026-08-29T08:11:47.459Z</time>
      </trkpt>
      <trkpt lat="43.67512" lon="6.12495">
        <ele>534</ele>
        <time>2026-08-29T08:11:52.480Z</time>
      </trkpt>
      <trkpt lat="43.67515" lon="6.12488">
        <ele>534.2</ele>
        <time>2026-08-29T08:11:57.488Z</time>
      </trkpt>
      <trkpt lat="43.6752" lon="6.1248">
        <ele>533.5</ele>
        <time>2026-08-29T08:12:03.196Z</time>
      </trkpt>
      <trkpt lat="43.67524" lon="6.12472">
        <ele>532.3</ele>
        <time>2026-08-29T08:12:08.447Z</time>
      </trkpt>
      <trkpt lat="43.67529" lon="6.12465">
        <ele>532.2</ele>
        <time>2026-08-29T08:12:13.941Z</time>
      </trkpt>
      <trkpt lat="43.67534" lon="6.12458">
        <ele>533.1</ele>
        <time>2026-08-29T08:12:19.436Z</time>
      </trkpt>
      <trkpt lat="43.67539" lon="6.12453">
        <ele>533.3</ele>
        <time>2026-08-29T08:12:24.455Z</time>
      </trkpt>
      <trkpt lat="43.67544" lon="6.12448">
        <ele>532.8</ele>
        <time>2026-08-29T08:12:29.475Z</time>
      </trkpt>
      <trkpt lat="43.67548" lon="6.12442">
        <ele>532.2</ele>
        <time>2026-08-29T08:12:34.918Z</time>
      </trkpt>
      <trkpt lat="43.67552" lon="6.12436">
        <ele>531.7</ele>
        <time>2026-08-29T08:12:40.361Z</time>
      </trkpt>
      <trkpt lat="43.67556" lon="6.1243">
        <ele>531.2</ele>
        <time>2026-08-29T08:12:45.174Z</time>
      </trkpt>
      <trkpt lat="43.6756" lon="6.12423">
        <ele>532.3</ele>
        <time>2026-08-29T08:12:50.437Z</time>
      </trkpt>
      <trkpt lat="43.67561" lon="6.12416">
        <ele>532.4</ele>
        <time>2026-08-29T08:12:55.448Z</time>
      </trkpt>
      <trkpt lat="43.67562" lon="6.12409">
        <ele>532.5</ele>
        <time>2026-08-29T08:13:00.459Z</time>
      </trkpt>
      <trkpt lat="43.67564" lon="6.124">
        <ele>532.6</ele>
        <time>2026-08-29T08:13:05.573Z</time>
      </trkpt>
      <trkpt lat="43.67565" lon="6.12391">
        <ele>532.4</ele>
        <time>2026-08-29T08:13:10.520Z</time>
      </trkpt>
      <trkpt lat="43.67568" lon="6.12383">
        <ele>533</ele>
        <time>2026-08-29T08:13:16.001Z</time>
      </trkpt>
      <trkpt lat="43.67571" lon="6.12375">
        <ele>533.2</ele>
        <time>2026-08-29T08:13:21.483Z</time>
      </trkpt>
      <trkpt lat="43.67577" lon="6.12369">
        <ele>531.9</ele>
        <time>2026-08-29T08:13:27.072Z</time>
      </trkpt>
      <trkpt lat="43.67582" lon="6.12362">
        <ele>529.6</ele>
        <time>2026-08-29T08:13:32.443Z</time>
      </trkpt>
      <trkpt lat="43.67586" lon="6.12358">
        <ele>529.8</ele>
        <time>2026-08-29T08:14:14.437Z</time>
      </trkpt>
      <trkpt lat="43.67591" lon="6.12353">
        <ele>530.8</ele>
        <time>2026-08-29T08:14:19.446Z</time>
      </trkpt>
      <trkpt lat="43.67596" lon="6.12348">
        <ele>531.2</ele>
        <time>2026-08-29T08:14:24.455Z</time>
      </trkpt>
      <trkpt lat="43.67602" lon="6.12341">
        <ele>530.9</ele>
        <time>2026-08-29T08:14:29.946Z</time>
      </trkpt>
      <trkpt lat="43.67608" lon="6.12334">
        <ele>529.6</ele>
        <time>2026-08-29T08:14:35.437Z</time>
      </trkpt>
      <trkpt lat="43.67613" lon="6.1233">
        <ele>529.9</ele>
        <time>2026-08-29T08:14:40.283Z</time>
      </trkpt>
      <trkpt lat="43.67618" lon="6.12325">
        <ele>531</ele>
        <time>2026-08-29T08:14:45.460Z</time>
      </trkpt>
      <trkpt lat="43.67626" lon="6.12322">
        <ele>531.2</ele>
        <time>2026-08-29T08:14:51.285Z</time>
      </trkpt>
      <trkpt lat="43.67633" lon="6.12319">
        <ele>530.9</ele>
        <time>2026-08-29T08:14:56.436Z</time>
      </trkpt>
      <trkpt lat="43.6764" lon="6.12315">
        <ele>530.3</ele>
        <time>2026-08-29T08:15:01.476Z</time>
      </trkpt>
      <trkpt lat="43.67647" lon="6.12311">
        <ele>529.9</ele>
        <time>2026-08-29T08:15:06.516Z</time>
      </trkpt>
      <trkpt lat="43.67653" lon="6.12305">
        <ele>529.1</ele>
        <time>2026-08-29T08:15:11.983Z</time>
      </trkpt>
      <trkpt lat="43.67659" lon="6.12299">
        <ele>529.8</ele>
        <time>2026-08-29T08:15:17.451Z</time>
      </trkpt>
      <trkpt lat="43.67666" lon="6.12297">
        <ele>529.3</ele>
        <time>2026-08-29T08:15:23.255Z</time>
      </trkpt>
      <trkpt lat="43.67672" lon="6.12294">
        <ele>529.5</ele>
        <time>2026-08-29T08:15:28.437Z</time>
      </trkpt>
      <trkpt lat="43.67679" lon="6.12291">
        <ele>529.4</ele>
        <time>2026-08-29T08:15:33.373Z</time>
      </trkpt>
      <trkpt lat="43.67686" lon="6.12287">
        <ele>529</ele>
        <time>2026-08-29T08:15:38.476Z</time>
      </trkpt>
      <trkpt lat="43.67692" lon="6.12286">
        <ele>528.5</ele>
        <time>2026-08-29T08:15:43.957Z</time>
      </trkpt>
      <trkpt lat="43.67698" lon="6.12285">
        <ele>528.2</ele>
        <time>2026-08-29T08:15:49.438Z</time>
      </trkpt>
      <trkpt lat="43.67703" lon="6.12284">
        <ele>528.1</ele>
        <time>2026-08-29T08:16:00.436Z</time>
      </trkpt>
      <trkpt lat="43.67705" lon="6.12284">
        <ele>528</ele>
        <time>2026-08-29T08:16:22.394Z</time>
      </trkpt>
      <trkpt lat="43.67711" lon="6.12284">
        <ele>527.9</ele>
        <time>2026-08-29T08:16:27.872Z</time>
      </trkpt>
      <trkpt lat="43.67716" lon="6.12284">
        <ele>527.8</ele>
        <time>2026-08-29T08:16:32.437Z</time>
      </trkpt>
      <trkpt lat="43.67721" lon="6.12284">
        <ele>527.7</ele>
        <time>2026-08-29T08:16:37.971Z</time>
      </trkpt>
      <trkpt lat="43.67725" lon="6.12283">
        <ele>527.6</ele>
        <time>2026-08-29T08:16:42.470Z</time>
      </trkpt>
      <trkpt lat="43.67731" lon="6.12281">
        <ele>527.3</ele>
        <time>2026-08-29T08:17:01.485Z</time>
      </trkpt>
      <trkpt lat="43.67739" lon="6.12281">
        <ele>527.3</ele>
        <time>2026-08-29T08:17:07.319Z</time>
      </trkpt>
      <trkpt lat="43.67746" lon="6.1228">
        <ele>527.2</ele>
        <time>2026-08-29T08:17:12.452Z</time>
      </trkpt>
      <trkpt lat="43.67753" lon="6.1228">
        <ele>527.1</ele>
        <time>2026-08-29T08:17:17.929Z</time>
      </trkpt>
      <trkpt lat="43.6776" lon="6.12279">
        <ele>526.7</ele>
        <time>2026-08-29T08:17:23.436Z</time>
      </trkpt>
      <trkpt lat="43.67766" lon="6.12279">
        <ele>526.5</ele>
        <time>2026-08-29T08:17:28.464Z</time>
      </trkpt>
      <trkpt lat="43.67772" lon="6.12279">
        <ele>526.3</ele>
        <time>2026-08-29T08:17:33.493Z</time>
      </trkpt>
      <trkpt lat="43.67778" lon="6.12281">
        <ele>526.1</ele>
        <time>2026-08-29T08:17:38.978Z</time>
      </trkpt>
      <trkpt lat="43.67784" lon="6.12283">
        <ele>526.3</ele>
        <time>2026-08-29T08:17:44.463Z</time>
      </trkpt>
      <trkpt lat="43.67792" lon="6.12283">
        <ele>526.4</ele>
        <time>2026-08-29T08:17:50.315Z</time>
      </trkpt>
      <trkpt lat="43.67799" lon="6.12283">
        <ele>526.5</ele>
        <time>2026-08-29T08:17:55.437Z</time>
      </trkpt>
      <trkpt lat="43.67805" lon="6.12281">
        <ele>526.3</ele>
        <time>2026-08-29T08:18:00.354Z</time>
      </trkpt>
      <trkpt lat="43.67811" lon="6.12278">
        <ele>526</ele>
        <time>2026-08-29T08:18:05.437Z</time>
      </trkpt>
      <trkpt lat="43.67818" lon="6.12274">
        <ele>526.3</ele>
        <time>2026-08-29T08:18:10.759Z</time>
      </trkpt>
      <trkpt lat="43.67824" lon="6.1227">
        <ele>526.4</ele>
        <time>2026-08-29T08:18:15.440Z</time>
      </trkpt>
      <trkpt lat="43.6783" lon="6.12264">
        <ele>526.2</ele>
        <time>2026-08-29T08:18:21.245Z</time>
      </trkpt>
      <trkpt lat="43.67835" lon="6.12258">
        <ele>526.4</ele>
        <time>2026-08-29T08:18:26.437Z</time>
      </trkpt>
      <trkpt lat="43.67839" lon="6.12249">
        <ele>527.2</ele>
        <time>2026-08-29T08:18:32.164Z</time>
      </trkpt>
      <trkpt lat="43.67842" lon="6.1224">
        <ele>527.6</ele>
        <time>2026-08-29T08:18:37.538Z</time>
      </trkpt>
      <trkpt lat="43.67842" lon="6.12237">
        <ele>527.6</ele>
        <time>2026-08-29T08:19:20.437Z</time>
      </trkpt>
      <trkpt lat="43.67844" lon="6.12227">
        <ele>527.7</ele>
        <time>2026-08-29T08:19:26.012Z</time>
      </trkpt>
      <trkpt lat="43.67845" lon="6.12217">
        <ele>527.6</ele>
        <time>2026-08-29T08:19:31.437Z</time>
      </trkpt>
      <trkpt lat="43.67846" lon="6.12209">
        <ele>527.6</ele>
        <time>2026-08-29T08:19:36.197Z</time>
      </trkpt>
      <trkpt lat="43.67846" lon="6.122">
        <ele>527.5</ele>
        <time>2026-08-29T08:19:41.475Z</time>
      </trkpt>
      <trkpt lat="43.67847" lon="6.12191">
        <ele>527.5</ele>
        <time>2026-08-29T08:19:46.228Z</time>
      </trkpt>
      <trkpt lat="43.67848" lon="6.12181">
        <ele>527.5</ele>
        <time>2026-08-29T08:19:51.498Z</time>
      </trkpt>
      <trkpt lat="43.6785" lon="6.12172">
        <ele>527.3</ele>
        <time>2026-08-29T08:19:56.776Z</time>
      </trkpt>
      <trkpt lat="43.67851" lon="6.12162">
        <ele>527.1</ele>
        <time>2026-08-29T08:20:02.436Z</time>
      </trkpt>
      <trkpt lat="43.67854" lon="6.12153">
        <ele>526.4</ele>
        <time>2026-08-29T08:20:07.458Z</time>
      </trkpt>
      <trkpt lat="43.67857" lon="6.12144">
        <ele>525.4</ele>
        <time>2026-08-29T08:20:12.481Z</time>
      </trkpt>
      <trkpt lat="43.6786" lon="6.12138">
        <ele>524.3</ele>
        <time>2026-08-29T08:20:17.668Z</time>
      </trkpt>
      <trkpt lat="43.67863" lon="6.12131">
        <ele>524.6</ele>
        <time>2026-08-29T08:20:23.455Z</time>
      </trkpt>
      <trkpt lat="43.67865" lon="6.12124">
        <ele>525.2</ele>
        <time>2026-08-29T08:20:29.071Z</time>
      </trkpt>
      <trkpt lat="43.67866" lon="6.12117">
        <ele>525.3</ele>
        <time>2026-08-29T08:20:34.396Z</time>
      </trkpt>
      <trkpt lat="43.67867" lon="6.1211">
        <ele>525.5</ele>
        <time>2026-08-29T08:20:39.092Z</time>
      </trkpt>
      <trkpt lat="43.67868" lon="6.12102">
        <ele>525.5</ele>
        <time>2026-08-29T08:20:44.437Z</time>
      </trkpt>
      <trkpt lat="43.67868" lon="6.12092">
        <ele>525.2</ele>
        <time>2026-08-29T08:20:49.446Z</time>
      </trkpt>
      <trkpt lat="43.67868" lon="6.12082">
        <ele>525</ele>
        <time>2026-08-29T08:20:54.455Z</time>
      </trkpt>
      <trkpt lat="43.6787" lon="6.12072">
        <ele>524.9</ele>
        <time>2026-08-29T08:20:59.946Z</time>
      </trkpt>
      <trkpt lat="43.67872" lon="6.12062">
        <ele>524.7</ele>
        <time>2026-08-29T08:21:05.438Z</time>
      </trkpt>
      <trkpt lat="43.67875" lon="6.12054">
        <ele>524.5</ele>
        <time>2026-08-29T08:21:10.224Z</time>
      </trkpt>
      <trkpt lat="43.67878" lon="6.12045">
        <ele>524.2</ele>
        <time>2026-08-29T08:21:15.489Z</time>
      </trkpt>
      <trkpt lat="43.67883" lon="6.12038">
        <ele>523.6</ele>
        <time>2026-08-29T08:21:20.994Z</time>
      </trkpt>
      <trkpt lat="43.67887" lon="6.1203">
        <ele>522.5</ele>
        <time>2026-08-29T08:21:26.437Z</time>
      </trkpt>
      <trkpt lat="43.67892" lon="6.12024">
        <ele>523.1</ele>
        <time>2026-08-29T08:21:31.501Z</time>
      </trkpt>
      <trkpt lat="43.67896" lon="6.12017">
        <ele>524.4</ele>
        <time>2026-08-29T08:21:36.437Z</time>
      </trkpt>
      <trkpt lat="43.67901" lon="6.12013">
        <ele>524.6</ele>
        <time>2026-08-29T08:21:41.296Z</time>
      </trkpt>
      <trkpt lat="43.67906" lon="6.12008">
        <ele>524.4</ele>
        <time>2026-08-29T08:21:46.487Z</time>
      </trkpt>
      <trkpt lat="43.67913" lon="6.12004">
        <ele>523.2</ele>
        <time>2026-08-29T08:21:52.293Z</time>
      </trkpt>
      <trkpt lat="43.67919" lon="6.12">
        <ele>522.3</ele>
        <time>2026-08-29T08:21:57.400Z</time>
      </trkpt>
      <trkpt lat="43.67925" lon="6.11995">
        <ele>523.2</ele>
        <time>2026-08-29T08:22:02.418Z</time>
      </trkpt>
      <trkpt lat="43.67931" lon="6.1199">
        <ele>523.7</ele>
        <time>2026-08-29T08:22:07.437Z</time>
      </trkpt>
      <trkpt lat="43.67937" lon="6.11985">
        <ele>523.6</ele>
        <time>2026-08-29T08:22:12.778Z</time>
      </trkpt>
      <trkpt lat="43.67942" lon="6.1198">
        <ele>523</ele>
        <time>2026-08-29T08:22:17.484Z</time>
      </trkpt>
      <trkpt lat="43.67947" lon="6.11973">
        <ele>522.6</ele>
        <time>2026-08-29T08:22:22.931Z</time>
      </trkpt>
      <trkpt lat="43.67952" lon="6.11966">
        <ele>523.4</ele>
        <time>2026-08-29T08:22:28.379Z</time>
      </trkpt>
      <trkpt lat="43.67955" lon="6.11957">
        <ele>523.5</ele>
        <time>2026-08-29T08:22:33.407Z</time>
      </trkpt>
      <trkpt lat="43.67958" lon="6.11948">
        <ele>523.2</ele>
        <time>2026-08-29T08:22:38.436Z</time>
      </trkpt>
      <trkpt lat="43.6796" lon="6.1194">
        <ele>523</ele>
        <time>2026-08-29T08:22:43.170Z</time>
      </trkpt>
      <trkpt lat="43.67962" lon="6.11931">
        <ele>522.9</ele>
        <time>2026-08-29T08:22:48.436Z</time>
      </trkpt>
      <trkpt lat="43.67963" lon="6.11922">
        <ele>522.9</ele>
        <time>2026-08-29T08:22:53.465Z</time>
      </trkpt>
      <trkpt lat="43.67963" lon="6.11913">
        <ele>523</ele>
        <time>2026-08-29T08:22:58.437Z</time>
      </trkpt>
      <trkpt lat="43.67964" lon="6.11904">
        <ele>522.8</ele>
        <time>2026-08-29T08:23:03.231Z</time>
      </trkpt>
      <trkpt lat="43.67964" lon="6.11894">
        <ele>522.8</ele>
        <time>2026-08-29T08:23:08.497Z</time>
      </trkpt>
      <trkpt lat="43.67967" lon="6.11885">
        <ele>522.3</ele>
        <time>2026-08-29T08:23:13.985Z</time>
      </trkpt>
      <trkpt lat="43.6797" lon="6.11876">
        <ele>521.7</ele>
        <time>2026-08-29T08:23:19.473Z</time>
      </trkpt>
      <trkpt lat="43.67975" lon="6.11871">
        <ele>521</ele>
        <time>2026-08-29T08:23:24.761Z</time>
      </trkpt>
      <trkpt lat="43.6798" lon="6.11865">
        <ele>520.9</ele>
        <time>2026-08-29T08:23:30.435Z</time>
      </trkpt>
      <trkpt lat="43.67985" lon="6.11861">
        <ele>520.6</ele>
        <time>2026-08-29T08:23:35.270Z</time>
      </trkpt>
      <trkpt lat="43.6799" lon="6.11856">
        <ele>520.9</ele>
        <time>2026-08-29T08:23:40.436Z</time>
      </trkpt>
      <trkpt lat="43.67994" lon="6.11852">
        <ele>521</ele>
        <time>2026-08-29T08:23:50.469Z</time>
      </trkpt>
      <trkpt lat="43.67999" lon="6.1185">
        <ele>520.5</ele>
        <time>2026-08-29T08:23:56.320Z</time>
      </trkpt>
      <trkpt lat="43.68003" lon="6.11847">
        <ele>520.6</ele>
        <time>2026-08-29T08:24:01.436Z</time>
      </trkpt>
      <trkpt lat="43.68008" lon="6.11842">
        <ele>520.6</ele>
        <time>2026-08-29T08:24:06.436Z</time>
      </trkpt>
      <trkpt lat="43.68013" lon="6.11837">
        <ele>520.2</ele>
        <time>2026-08-29T08:24:11.437Z</time>
      </trkpt>
      <trkpt lat="43.68017" lon="6.11831">
        <ele>519.7</ele>
        <time>2026-08-29T08:24:16.229Z</time>
      </trkpt>
      <trkpt lat="43.68021" lon="6.11824">
        <ele>519.4</ele>
        <time>2026-08-29T08:24:21.468Z</time>
      </trkpt>
      <trkpt lat="43.68022" lon="6.11816">
        <ele>519.3</ele>
        <time>2026-08-29T08:24:26.494Z</time>
      </trkpt>
      <trkpt lat="43.68023" lon="6.11808">
        <ele>519.2</ele>
        <time>2026-08-29T08:24:31.521Z</time>
      </trkpt>
      <trkpt lat="43.68019" lon="6.11801">
        <ele>519.4</ele>
        <time>2026-08-29T08:24:36.711Z</time>
      </trkpt>
      <trkpt lat="43.68014" lon="6.11794">
        <ele>519.5</ele>
        <time>2026-08-29T08:24:42.436Z</time>
      </trkpt>
      <trkpt lat="43.68009" lon="6.11788">
        <ele>519.2</ele>
        <time>2026-08-29T08:24:47.268Z</time>
      </trkpt>
      <trkpt lat="43.68004" lon="6.11781">
        <ele>518.6</ele>
        <time>2026-08-29T08:24:52.463Z</time>
      </trkpt>
      <trkpt lat="43.68003" lon="6.11772">
        <ele>518.2</ele>
        <time>2026-08-29T08:24:57.592Z</time>
      </trkpt>
      <trkpt lat="43.68001" lon="6.11762">
        <ele>518</ele>
        <time>2026-08-29T08:25:03.437Z</time>
      </trkpt>
      <trkpt lat="43.68004" lon="6.11752">
        <ele>517.9</ele>
        <time>2026-08-29T08:25:08.949Z</time>
      </trkpt>
      <trkpt lat="43.68007" lon="6.11742">
        <ele>519.5</ele>
        <time>2026-08-29T08:25:14.462Z</time>
      </trkpt>
      <trkpt lat="43.68014" lon="6.11739">
        <ele>519.3</ele>
        <time>2026-08-29T08:25:20.232Z</time>
      </trkpt>
      <trkpt lat="43.6802" lon="6.11735">
        <ele>518.9</ele>
        <time>2026-08-29T08:25:25.477Z</time>
      </trkpt>
      <trkpt lat="43.68028" lon="6.11737">
        <ele>517.5</ele>
        <time>2026-08-29T08:25:31.358Z</time>
      </trkpt>
      <trkpt lat="43.68035" lon="6.11738">
        <ele>517.6</ele>
        <time>2026-08-29T08:25:36.449Z</time>
      </trkpt>
      <trkpt lat="43.68042" lon="6.11738">
        <ele>517.7</ele>
        <time>2026-08-29T08:25:42.343Z</time>
      </trkpt>
      <trkpt lat="43.68048" lon="6.11738">
        <ele>517.8</ele>
        <time>2026-08-29T08:25:47.395Z</time>
      </trkpt>
      <trkpt lat="43.68055" lon="6.11736">
        <ele>518</ele>
        <time>2026-08-29T08:25:52.728Z</time>
      </trkpt>
      <trkpt lat="43.68061" lon="6.11733">
        <ele>517.9</ele>
        <time>2026-08-29T08:25:57.489Z</time>
      </trkpt>
      <trkpt lat="43.68066" lon="6.11732">
        <ele>517.8</ele>
        <time>2026-08-29T08:26:02.889Z</time>
      </trkpt>
      <trkpt lat="43.68071" lon="6.1173">
        <ele>517.6</ele>
        <time>2026-08-29T08:26:08.454Z</time>
      </trkpt>
      <trkpt lat="43.68073" lon="6.11732">
        <ele>517.6</ele>
        <time>2026-08-29T08:26:32.479Z</time>
      </trkpt>
      <trkpt lat="43.6808" lon="6.11731">
        <ele>517.4</ele>
        <time>2026-08-29T08:26:37.933Z</time>
      </trkpt>
      <trkpt lat="43.68087" lon="6.11729">
        <ele>517.2</ele>
        <time>2026-08-29T08:26:43.473Z</time>
      </trkpt>
      <trkpt lat="43.68093" lon="6.11722">
        <ele>516.3</ele>
        <time>2026-08-29T08:26:49.223Z</time>
      </trkpt>
      <trkpt lat="43.68098" lon="6.11715">
        <ele>516.2</ele>
        <time>2026-08-29T08:26:54.436Z</time>
      </trkpt>
      <trkpt lat="43.68102" lon="6.1171">
        <ele>515.8</ele>
        <time>2026-08-29T08:26:59.491Z</time>
      </trkpt>
      <trkpt lat="43.68105" lon="6.11704">
        <ele>515.4</ele>
        <time>2026-08-29T08:27:04.437Z</time>
      </trkpt>
      <trkpt lat="43.68109" lon="6.11694">
        <ele>514.5</ele>
        <time>2026-08-29T08:27:14.465Z</time>
      </trkpt>
      <trkpt lat="43.68108" lon="6.11693">
        <ele>514.7</ele>
        <time>2026-08-29T08:27:33.483Z</time>
      </trkpt>
      <trkpt lat="43.68107" lon="6.11684">
        <ele>515.1</ele>
        <time>2026-08-29T08:27:38.966Z</time>
      </trkpt>
      <trkpt lat="43.68106" lon="6.11675">
        <ele>515.5</ele>
        <time>2026-08-29T08:27:44.450Z</time>
      </trkpt>
      <trkpt lat="43.6811" lon="6.11666">
        <ele>514.4</ele>
        <time>2026-08-29T08:27:50.118Z</time>
      </trkpt>
      <trkpt lat="43.68113" lon="6.11657">
        <ele>515</ele>
        <time>2026-08-29T08:27:55.436Z</time>
      </trkpt>
      <trkpt lat="43.68117" lon="6.11651">
        <ele>515.7</ele>
        <time>2026-08-29T08:28:00.469Z</time>
      </trkpt>
      <trkpt lat="43.6812" lon="6.11644">
        <ele>515.8</ele>
        <time>2026-08-29T08:28:05.488Z</time>
      </trkpt>
      <trkpt lat="43.68124" lon="6.11639">
        <ele>515.5</ele>
        <time>2026-08-29T08:28:10.494Z</time>
      </trkpt>
      <trkpt lat="43.68128" lon="6.11634">
        <ele>516</ele>
        <time>2026-08-29T08:28:15.500Z</time>
      </trkpt>
      <trkpt lat="43.68134" lon="6.11628">
        <ele>515.8</ele>
        <time>2026-08-29T08:28:20.808Z</time>
      </trkpt>
      <trkpt lat="43.6814" lon="6.11621">
        <ele>515</ele>
        <time>2026-08-29T08:28:26.436Z</time>
      </trkpt>
      <trkpt lat="43.68145" lon="6.11616">
        <ele>514.8</ele>
        <time>2026-08-29T08:28:31.461Z</time>
      </trkpt>
      <trkpt lat="43.6815" lon="6.11611">
        <ele>514.2</ele>
        <time>2026-08-29T08:28:36.487Z</time>
      </trkpt>
      <trkpt lat="43.68156" lon="6.11606">
        <ele>514.6</ele>
        <time>2026-08-29T08:28:41.972Z</time>
      </trkpt>
      <trkpt lat="43.68162" lon="6.11601">
        <ele>514.4</ele>
        <time>2026-08-29T08:28:47.457Z</time>
      </trkpt>
      <trkpt lat="43.68169" lon="6.11597">
        <ele>514.1</ele>
        <time>2026-08-29T08:28:53.160Z</time>
      </trkpt>
      <trkpt lat="43.68175" lon="6.11592">
        <ele>514.3</ele>
        <time>2026-08-29T08:28:58.435Z</time>
      </trkpt>
      <trkpt lat="43.68181" lon="6.11587">
        <ele>513.8</ele>
        <time>2026-08-29T08:29:03.752Z</time>
      </trkpt>
      <trkpt lat="43.68186" lon="6.11582">
        <ele>513.1</ele>
        <time>2026-08-29T08:29:08.436Z</time>
      </trkpt>
      <trkpt lat="43.68191" lon="6.11577">
        <ele>513.1</ele>
        <time>2026-08-29T08:29:13.443Z</time>
      </trkpt>
      <trkpt lat="43.68196" lon="6.11572">
        <ele>513.4</ele>
        <time>2026-08-29T08:29:18.451Z</time>
      </trkpt>
      <trkpt lat="43.68202" lon="6.11566">
        <ele>514.2</ele>
        <time>2026-08-29T08:29:23.943Z</time>
      </trkpt>
      <trkpt lat="43.68208" lon="6.1156">
        <ele>513.9</ele>
        <time>2026-08-29T08:29:29.435Z</time>
      </trkpt>
      <trkpt lat="43.68213" lon="6.11555">
        <ele>513</ele>
        <time>2026-08-29T08:29:34.546Z</time>
      </trkpt>
      <trkpt lat="43.68217" lon="6.11549">
        <ele>512.7</ele>
        <time>2026-08-29T08:29:39.435Z</time>
      </trkpt>
      <trkpt lat="43.68221" lon="6.11541">
        <ele>512.2</ele>
        <time>2026-08-29T08:29:44.443Z</time>
      </trkpt>
      <trkpt lat="43.68225" lon="6.11533">
        <ele>512.5</ele>
        <time>2026-08-29T08:29:49.452Z</time>
      </trkpt>
      <trkpt lat="43.68228" lon="6.11526">
        <ele>513</ele>
        <time>2026-08-29T08:29:54.473Z</time>
      </trkpt>
      <trkpt lat="43.68231" lon="6.11519">
        <ele>513.6</ele>
        <time>2026-08-29T08:29:59.495Z</time>
      </trkpt>
      <trkpt lat="43.68236" lon="6.11511">
        <ele>513.7</ele>
        <time>2026-08-29T08:30:05.222Z</time>
      </trkpt>
      <trkpt lat="43.6824" lon="6.11503">
        <ele>513</ele>
        <time>2026-08-29T08:30:10.491Z</time>
      </trkpt>
      <trkpt lat="43.68244" lon="6.11496">
        <ele>512.5</ele>
        <time>2026-08-29T08:30:15.756Z</time>
      </trkpt>
      <trkpt lat="43.68248" lon="6.11488">
        <ele>512.3</ele>
        <time>2026-08-29T08:30:21.497Z</time>
      </trkpt>
      <trkpt lat="43.68253" lon="6.11483">
        <ele>512.1</ele>
        <time>2026-08-29T08:30:26.773Z</time>
      </trkpt>
      <trkpt lat="43.68258" lon="6.11477">
        <ele>511.9</ele>
        <time>2026-08-29T08:30:32.434Z</time>
      </trkpt>
      <trkpt lat="43.68263" lon="6.11473">
        <ele>511.2</ele>
        <time>2026-08-29T08:30:37.435Z</time>
      </trkpt>
      <trkpt lat="43.68268" lon="6.11469">
        <ele>511.5</ele>
        <time>2026-08-29T08:30:42.436Z</time>
      </trkpt>
      <trkpt lat="43.68275" lon="6.11468">
        <ele>510.8</ele>
        <time>2026-08-29T08:30:47.946Z</time>
      </trkpt>
      <trkpt lat="43.68282" lon="6.11467">
        <ele>510.7</ele>
        <time>2026-08-29T08:30:53.457Z</time>
      </trkpt>
      <trkpt lat="43.68289" lon="6.11468">
        <ele>510.3</ele>
        <time>2026-08-29T08:30:58.947Z</time>
      </trkpt>
      <trkpt lat="43.68296" lon="6.11469">
        <ele>510</ele>
        <time>2026-08-29T08:31:04.437Z</time>
      </trkpt>
      <trkpt lat="43.68302" lon="6.11473">
        <ele>509</ele>
        <time>2026-08-29T08:31:10.298Z</time>
      </trkpt>
      <trkpt lat="43.68307" lon="6.11477">
        <ele>509.2</ele>
        <time>2026-08-29T08:31:15.381Z</time>
      </trkpt>
      <trkpt lat="43.68314" lon="6.11479">
        <ele>509.3</ele>
        <time>2026-08-29T08:31:20.848Z</time>
      </trkpt>
      <trkpt lat="43.6832" lon="6.1148">
        <ele>509.4</ele>
        <time>2026-08-29T08:31:25.472Z</time>
      </trkpt>
      <trkpt lat="43.68326" lon="6.11479">
        <ele>509.4</ele>
        <time>2026-08-29T08:31:30.954Z</time>
      </trkpt>
      <trkpt lat="43.68332" lon="6.11478">
        <ele>509.4</ele>
        <time>2026-08-29T08:31:36.436Z</time>
      </trkpt>
      <trkpt lat="43.6834" lon="6.11476">
        <ele>509</ele>
        <time>2026-08-29T08:31:41.883Z</time>
      </trkpt>
      <trkpt lat="43.68348" lon="6.11473">
        <ele>508.1</ele>
        <time>2026-08-29T08:31:47.437Z</time>
      </trkpt>
      <trkpt lat="43.68354" lon="6.11471">
        <ele>507.7</ele>
        <time>2026-08-29T08:31:53.301Z</time>
      </trkpt>
      <trkpt lat="43.68359" lon="6.11468">
        <ele>507.6</ele>
        <time>2026-08-29T08:31:58.480Z</time>
      </trkpt>
      <trkpt lat="43.68365" lon="6.11464">
        <ele>508.6</ele>
        <time>2026-08-29T08:32:03.962Z</time>
      </trkpt>
      <trkpt lat="43.68371" lon="6.1146">
        <ele>509.5</ele>
        <time>2026-08-29T08:32:09.444Z</time>
      </trkpt>
      <trkpt lat="43.68375" lon="6.11461">
        <ele>510.1</ele>
        <time>2026-08-29T08:39:42.435Z</time>
      </trkpt>
      <trkpt lat="43.68377" lon="6.11462">
        <ele>510.5</ele>
        <time>2026-08-29T08:42:08.436Z</time>
      </trkpt>
      <trkpt lat="43.6838" lon="6.11456">
        <ele>509.7</ele>
        <time>2026-08-29T08:42:19.435Z</time>
      </trkpt>
      <trkpt lat="43.68385" lon="6.11452">
        <ele>508.8</ele>
        <time>2026-08-29T08:42:29.436Z</time>
      </trkpt>
      <trkpt lat="43.68388" lon="6.11442">
        <ele>506.1</ele>
        <time>2026-08-29T08:42:39.436Z</time>
      </trkpt>
      <trkpt lat="43.68392" lon="6.11438">
        <ele>507.3</ele>
        <time>2026-08-29T08:42:53.436Z</time>
      </trkpt>
      <trkpt lat="43.68395" lon="6.11432">
        <ele>508.4</ele>
        <time>2026-08-29T08:43:04.436Z</time>
      </trkpt>
      <trkpt lat="43.68395" lon="6.11424">
        <ele>508.1</ele>
        <time>2026-08-29T08:43:09.112Z</time>
      </trkpt>
      <trkpt lat="43.68394" lon="6.11415">
        <ele>507.4</ele>
        <time>2026-08-29T08:43:14.436Z</time>
      </trkpt>
      <trkpt lat="43.68394" lon="6.11406">
        <ele>507.2</ele>
        <time>2026-08-29T08:43:19.620Z</time>
      </trkpt>
      <trkpt lat="43.68393" lon="6.11396">
        <ele>506.7</ele>
        <time>2026-08-29T08:43:25.436Z</time>
      </trkpt>
      <trkpt lat="43.68396" lon="6.11386">
        <ele>507.3</ele>
        <time>2026-08-29T08:43:30.935Z</time>
      </trkpt>
      <trkpt lat="43.68399" lon="6.11376">
        <ele>508.3</ele>
        <time>2026-08-29T08:43:36.435Z</time>
      </trkpt>
      <trkpt lat="43.68404" lon="6.1137">
        <ele>508.2</ele>
        <time>2026-08-29T08:43:41.255Z</time>
      </trkpt>
      <trkpt lat="43.68409" lon="6.11363">
        <ele>507.5</ele>
        <time>2026-08-29T08:43:46.436Z</time>
      </trkpt>
      <trkpt lat="43.68414" lon="6.11356">
        <ele>507.6</ele>
        <time>2026-08-29T08:43:51.682Z</time>
      </trkpt>
      <trkpt lat="43.68418" lon="6.11349">
        <ele>508.6</ele>
        <time>2026-08-29T08:43:56.440Z</time>
      </trkpt>
      <trkpt lat="43.68426" lon="6.11349">
        <ele>508.2</ele>
        <time>2026-08-29T08:44:02.304Z</time>
      </trkpt>
      <trkpt lat="43.68433" lon="6.11349">
        <ele>507.8</ele>
        <time>2026-08-29T08:44:07.435Z</time>
      </trkpt>
      <trkpt lat="43.6844" lon="6.11349">
        <ele>507.5</ele>
        <time>2026-08-29T08:44:12.850Z</time>
      </trkpt>
      <trkpt lat="43.68446" lon="6.11349">
        <ele>507.3</ele>
        <time>2026-08-29T08:44:17.493Z</time>
      </trkpt>
      <trkpt lat="43.68454" lon="6.11353">
        <ele>506.9</ele>
        <time>2026-08-29T08:44:23.299Z</time>
      </trkpt>
      <trkpt lat="43.68461" lon="6.11357">
        <ele>506.2</ele>
        <time>2026-08-29T08:44:28.470Z</time>
      </trkpt>
      <trkpt lat="43.68465" lon="6.1136">
        <ele>505.5</ele>
        <time>2026-08-29T08:44:31.169Z</time>
      </trkpt>
      <trkpt lat="43.6847" lon="6.11362">
        <ele>505.1</ele>
        <time>2026-08-29T08:44:34.257Z</time>
      </trkpt>
      <trkpt lat="43.68474" lon="6.11365">
        <ele>505.7</ele>
        <time>2026-08-29T08:44:36.957Z</time>
      </trkpt>
      <trkpt lat="43.68478" lon="6.11367">
        <ele>506.6</ele>
        <time>2026-08-29T08:44:39.481Z</time>
      </trkpt>
      <trkpt lat="43.68485" lon="6.11374">
        <ele>507.3</ele>
        <time>2026-08-29T08:44:44.949Z</time>
      </trkpt>
      <trkpt lat="43.68492" lon="6.11381">
        <ele>506.5</ele>
        <time>2026-08-29T08:44:50.417Z</time>
      </trkpt>
      <trkpt lat="43.68496" lon="6.11389">
        <ele>504.4</ele>
        <time>2026-08-29T08:44:55.916Z</time>
      </trkpt>
      <trkpt lat="43.685" lon="6.11397">
        <ele>504.3</ele>
        <time>2026-08-29T08:45:01.416Z</time>
      </trkpt>
      <trkpt lat="43.68505" lon="6.11406">
        <ele>505</ele>
        <time>2026-08-29T08:45:06.948Z</time>
      </trkpt>
      <trkpt lat="43.6851" lon="6.11415">
        <ele>505.4</ele>
        <time>2026-08-29T08:45:12.481Z</time>
      </trkpt>
      <trkpt lat="43.68512" lon="6.11426">
        <ele>505.1</ele>
        <time>2026-08-29T08:45:17.710Z</time>
      </trkpt>
      <trkpt lat="43.68514" lon="6.11436">
        <ele>504.8</ele>
        <time>2026-08-29T08:45:22.495Z</time>
      </trkpt>
      <trkpt lat="43.68517" lon="6.11445">
        <ele>504.4</ele>
        <time>2026-08-29T08:45:28.394Z</time>
      </trkpt>
      <trkpt lat="43.68519" lon="6.11453">
        <ele>504.4</ele>
        <time>2026-08-29T08:45:33.434Z</time>
      </trkpt>
      <trkpt lat="43.68523" lon="6.11461">
        <ele>504</ele>
        <time>2026-08-29T08:45:38.646Z</time>
      </trkpt>
      <trkpt lat="43.68526" lon="6.11469">
        <ele>503.4</ele>
        <time>2026-08-29T08:45:43.476Z</time>
      </trkpt>
      <trkpt lat="43.68533" lon="6.11469">
        <ele>503.2</ele>
        <time>2026-08-29T08:45:48.966Z</time>
      </trkpt>
      <trkpt lat="43.6854" lon="6.11468">
        <ele>503.4</ele>
        <time>2026-08-29T08:45:54.486Z</time>
      </trkpt>
      <trkpt lat="43.68544" lon="6.11464">
        <ele>503.4</ele>
        <time>2026-08-29T08:45:57.498Z</time>
      </trkpt>
      <trkpt lat="43.68547" lon="6.1146">
        <ele>503.2</ele>
        <time>2026-08-29T08:46:00.042Z</time>
      </trkpt>
      <trkpt lat="43.68553" lon="6.11451">
        <ele>502.6</ele>
        <time>2026-08-29T08:46:05.459Z</time>
      </trkpt>
      <trkpt lat="43.68555" lon="6.11442">
        <ele>502</ele>
        <time>2026-08-29T08:46:10.293Z</time>
      </trkpt>
      <trkpt lat="43.68556" lon="6.11432">
        <ele>502.2</ele>
        <time>2026-08-29T08:46:15.477Z</time>
      </trkpt>
      <trkpt lat="43.68556" lon="6.11422">
        <ele>502.2</ele>
        <time>2026-08-29T08:46:20.249Z</time>
      </trkpt>
      <trkpt lat="43.68556" lon="6.11411">
        <ele>502.1</ele>
        <time>2026-08-29T08:46:25.500Z</time>
      </trkpt>
      <trkpt lat="43.6856" lon="6.11401">
        <ele>503.1</ele>
        <time>2026-08-29T08:46:30.881Z</time>
      </trkpt>
      <trkpt lat="43.68563" lon="6.1139">
        <ele>503.4</ele>
        <time>2026-08-29T08:46:36.418Z</time>
      </trkpt>
      <trkpt lat="43.68565" lon="6.11382">
        <ele>503.3</ele>
        <time>2026-08-29T08:46:41.459Z</time>
      </trkpt>
      <trkpt lat="43.68567" lon="6.11374">
        <ele>503</ele>
        <time>2026-08-29T08:46:46.500Z</time>
      </trkpt>
      <trkpt lat="43.68572" lon="6.11366">
        <ele>502.5</ele>
        <time>2026-08-29T08:46:51.503Z</time>
      </trkpt>
      <trkpt lat="43.68577" lon="6.11358">
        <ele>502.1</ele>
        <time>2026-08-29T08:46:56.506Z</time>
      </trkpt>
      <trkpt lat="43.68582" lon="6.11352">
        <ele>501.8</ele>
        <time>2026-08-29T08:47:01.792Z</time>
      </trkpt>
      <trkpt lat="43.68587" lon="6.11345">
        <ele>501.5</ele>
        <time>2026-08-29T08:47:07.474Z</time>
      </trkpt>
      <trkpt lat="43.68594" lon="6.11345">
        <ele>501.7</ele>
        <time>2026-08-29T08:47:12.939Z</time>
      </trkpt>
      <trkpt lat="43.68601" lon="6.11344">
        <ele>501.9</ele>
        <time>2026-08-29T08:47:18.435Z</time>
      </trkpt>
      <trkpt lat="43.68608" lon="6.11347">
        <ele>502</ele>
        <time>2026-08-29T08:47:23.935Z</time>
      </trkpt>
      <trkpt lat="43.68615" lon="6.1135">
        <ele>501.8</ele>
        <time>2026-08-29T08:47:29.435Z</time>
      </trkpt>
      <trkpt lat="43.68621" lon="6.11354">
        <ele>501.4</ele>
        <time>2026-08-29T08:47:34.814Z</time>
      </trkpt>
      <trkpt lat="43.68626" lon="6.11358">
        <ele>500.9</ele>
        <time>2026-08-29T08:47:39.479Z</time>
      </trkpt>
      <trkpt lat="43.68632" lon="6.1136">
        <ele>500.4</ele>
        <time>2026-08-29T08:47:45.381Z</time>
      </trkpt>
      <trkpt lat="43.68637" lon="6.11362">
        <ele>500.3</ele>
        <time>2026-08-29T08:47:50.359Z</time>
      </trkpt>
      <trkpt lat="43.68644" lon="6.11364">
        <ele>500.7</ele>
        <time>2026-08-29T08:47:55.458Z</time>
      </trkpt>
      <trkpt lat="43.68651" lon="6.11365">
        <ele>500.9</ele>
        <time>2026-08-29T08:48:00.480Z</time>
      </trkpt>
      <trkpt lat="43.68659" lon="6.11366">
        <ele>501</ele>
        <time>2026-08-29T08:48:06.341Z</time>
      </trkpt>
      <trkpt lat="43.68666" lon="6.11367">
        <ele>501.1</ele>
        <time>2026-08-29T08:48:11.477Z</time>
      </trkpt>
      <trkpt lat="43.68673" lon="6.11368">
        <ele>501.1</ele>
        <time>2026-08-29T08:48:16.956Z</time>
      </trkpt>
      <trkpt lat="43.6868" lon="6.11369">
        <ele>501.1</ele>
        <time>2026-08-29T08:48:22.435Z</time>
      </trkpt>
      <trkpt lat="43.68687" lon="6.11369">
        <ele>501</ele>
        <time>2026-08-29T08:48:27.432Z</time>
      </trkpt>
      <trkpt lat="43.68694" lon="6.11368">
        <ele>500.8</ele>
        <time>2026-08-29T08:48:32.456Z</time>
      </trkpt>
      <trkpt lat="43.68702" lon="6.1137">
        <ele>500.9</ele>
        <time>2026-08-29T08:48:38.280Z</time>
      </trkpt>
      <trkpt lat="43.68709" lon="6.11372">
        <ele>501</ele>
        <time>2026-08-29T08:48:43.401Z</time>
      </trkpt>
      <trkpt lat="43.68716" lon="6.11374">
        <ele>501</ele>
        <time>2026-08-29T08:48:48.840Z</time>
      </trkpt>
      <trkpt lat="43.68722" lon="6.11375">
        <ele>501</ele>
        <time>2026-08-29T08:48:53.440Z</time>
      </trkpt>
      <trkpt lat="43.6873" lon="6.11372">
        <ele>500.7</ele>
        <time>2026-08-29T08:48:59.185Z</time>
      </trkpt>
      <trkpt lat="43.68737" lon="6.11368">
        <ele>500.2</ele>
        <time>2026-08-29T08:49:04.436Z</time>
      </trkpt>
      <trkpt lat="43.68744" lon="6.11366">
        <ele>499.8</ele>
        <time>2026-08-29T08:49:09.740Z</time>
      </trkpt>
      <trkpt lat="43.6875" lon="6.11363">
        <ele>499.3</ele>
        <time>2026-08-29T08:49:14.475Z</time>
      </trkpt>
      <trkpt lat="43.68758" lon="6.11366">
        <ele>499.5</ele>
        <time>2026-08-29T08:49:20.291Z</time>
      </trkpt>
      <trkpt lat="43.68765" lon="6.11369">
        <ele>499.9</ele>
        <time>2026-08-29T08:49:25.434Z</time>
      </trkpt>
      <trkpt lat="43.68771" lon="6.11364">
        <ele>498.8</ele>
        <time>2026-08-29T08:49:30.750Z</time>
      </trkpt>
      <trkpt lat="43.68776" lon="6.11359">
        <ele>498.1</ele>
        <time>2026-08-29T08:49:35.434Z</time>
      </trkpt>
      <trkpt lat="43.68781" lon="6.11354">
        <ele>498.4</ele>
        <time>2026-08-29T08:49:40.545Z</time>
      </trkpt>
      <trkpt lat="43.68785" lon="6.11348">
        <ele>498.6</ele>
        <time>2026-08-29T08:49:45.435Z</time>
      </trkpt>
      <trkpt lat="43.68792" lon="6.11353">
        <ele>498.9</ele>
        <time>2026-08-29T08:49:56.434Z</time>
      </trkpt>
      <trkpt lat="43.68797" lon="6.11351">
        <ele>499</ele>
        <time>2026-08-29T08:50:06.435Z</time>
      </trkpt>
      <trkpt lat="43.688" lon="6.11346">
        <ele>498.8</ele>
        <time>2026-08-29T08:50:16.455Z</time>
      </trkpt>
      <trkpt lat="43.68799" lon="6.11335">
        <ele>498.3</ele>
        <time>2026-08-29T08:50:27.448Z</time>
      </trkpt>
      <trkpt lat="43.68799" lon="6.11325">
        <ele>498.7</ele>
        <time>2026-08-29T08:50:38.442Z</time>
      </trkpt>
      <trkpt lat="43.688" lon="6.11318">
        <ele>499</ele>
        <time>2026-08-29T08:50:49.434Z</time>
      </trkpt>
      <trkpt lat="43.68801" lon="6.11313">
        <ele>499.1</ele>
        <time>2026-08-29T08:50:59.434Z</time>
      </trkpt>
      <trkpt lat="43.688" lon="6.11309">
        <ele>499.4</ele>
        <time>2026-08-29T08:51:18.433Z</time>
      </trkpt>
      <trkpt lat="43.68803" lon="6.11302">
        <ele>499.2</ele>
        <time>2026-08-29T08:51:28.433Z</time>
      </trkpt>
      <trkpt lat="43.68799" lon="6.11313">
        <ele>499.3</ele>
        <time>2026-08-29T08:51:38.433Z</time>
      </trkpt>
      <trkpt lat="43.68794" lon="6.11308">
        <ele>500.1</ele>
        <time>2026-08-29T08:51:59.441Z</time>
      </trkpt>
      <trkpt lat="43.68787" lon="6.11308">
        <ele>500.8</ele>
        <time>2026-08-29T08:52:10.401Z</time>
      </trkpt>
      <trkpt lat="43.68785" lon="6.11301">
        <ele>501.4</ele>
        <time>2026-08-29T08:52:20.482Z</time>
      </trkpt>
      <trkpt lat="43.68782" lon="6.11301">
        <ele>501.8</ele>
        <time>2026-08-29T08:57:17.433Z</time>
      </trkpt>
      <trkpt lat="43.68774" lon="6.11302">
        <ele>502.8</ele>
        <time>2026-08-29T08:57:27.433Z</time>
      </trkpt>
      <trkpt lat="43.68771" lon="6.11304">
        <ele>503.1</ele>
        <time>2026-08-29T08:57:37.433Z</time>
      </trkpt>
      <trkpt lat="43.68767" lon="6.11305">
        <ele>503.6</ele>
        <time>2026-08-29T08:57:41.945Z</time>
      </trkpt>
      <trkpt lat="43.68762" lon="6.11305">
        <ele>504.3</ele>
        <time>2026-08-29T08:57:47.497Z</time>
      </trkpt>
      <trkpt lat="43.68757" lon="6.11306">
        <ele>504.9</ele>
        <time>2026-08-29T08:57:52.970Z</time>
      </trkpt>
      <trkpt lat="43.68752" lon="6.11307">
        <ele>505.5</ele>
        <time>2026-08-29T08:57:58.444Z</time>
      </trkpt>
      <trkpt lat="43.68746" lon="6.11309">
        <ele>505.8</ele>
        <time>2026-08-29T08:58:03.535Z</time>
      </trkpt>
      <trkpt lat="43.68739" lon="6.11311">
        <ele>506</ele>
        <time>2026-08-29T08:58:09.433Z</time>
      </trkpt>
      <trkpt lat="43.68734" lon="6.1131">
        <ele>506.5</ele>
        <time>2026-08-29T08:58:14.433Z</time>
      </trkpt>
      <trkpt lat="43.68729" lon="6.11309">
        <ele>507</ele>
        <time>2026-08-29T08:58:19.434Z</time>
      </trkpt>
      <trkpt lat="43.68724" lon="6.11307">
        <ele>507.7</ele>
        <time>2026-08-29T08:58:24.933Z</time>
      </trkpt>
      <trkpt lat="43.68719" lon="6.11305">
        <ele>508.3</ele>
        <time>2026-08-29T08:58:30.434Z</time>
      </trkpt>
      <trkpt lat="43.68713" lon="6.11299">
        <ele>509.6</ele>
        <time>2026-08-29T08:58:40.434Z</time>
      </trkpt>
      <trkpt lat="43.68708" lon="6.11297">
        <ele>510.3</ele>
        <time>2026-08-29T08:58:45.933Z</time>
      </trkpt>
      <trkpt lat="43.68703" lon="6.11295">
        <ele>510.9</ele>
        <time>2026-08-29T08:58:51.433Z</time>
      </trkpt>
      <trkpt lat="43.68699" lon="6.11294">
        <ele>511.3</ele>
        <time>2026-08-29T08:58:55.892Z</time>
      </trkpt>
      <trkpt lat="43.68694" lon="6.11293">
        <ele>511.8</ele>
        <time>2026-08-29T08:59:01.434Z</time>
      </trkpt>
      <trkpt lat="43.6869" lon="6.1129">
        <ele>512.6</ele>
        <time>2026-08-29T08:59:06.466Z</time>
      </trkpt>
      <trkpt lat="43.68685" lon="6.11287">
        <ele>513.5</ele>
        <time>2026-08-29T08:59:12.495Z</time>
      </trkpt>
      <trkpt lat="43.6868" lon="6.11287">
        <ele>513.9</ele>
        <time>2026-08-29T08:59:17.909Z</time>
      </trkpt>
      <trkpt lat="43.68675" lon="6.11286">
        <ele>514.5</ele>
        <time>2026-08-29T08:59:23.381Z</time>
      </trkpt>
      <trkpt lat="43.68671" lon="6.11284">
        <ele>515.3</ele>
        <time>2026-08-29T08:59:27.787Z</time>
      </trkpt>
      <trkpt lat="43.68666" lon="6.11281">
        <ele>516.4</ele>
        <time>2026-08-29T08:59:33.433Z</time>
      </trkpt>
      <trkpt lat="43.68662" lon="6.11281">
        <ele>516.6</ele>
        <time>2026-08-29T08:59:37.877Z</time>
      </trkpt>
      <trkpt lat="43.68657" lon="6.11281">
        <ele>517</ele>
        <time>2026-08-29T08:59:43.434Z</time>
      </trkpt>
      <trkpt lat="43.68653" lon="6.11281">
        <ele>517.3</ele>
        <time>2026-08-29T08:59:47.887Z</time>
      </trkpt>
      <trkpt lat="43.68648" lon="6.11281">
        <ele>517.6</ele>
        <time>2026-08-29T08:59:53.455Z</time>
      </trkpt>
      <trkpt lat="43.68643" lon="6.11284">
        <ele>517.4</ele>
        <time>2026-08-29T08:59:59.092Z</time>
      </trkpt>
      <trkpt lat="43.68638" lon="6.11286">
        <ele>517.3</ele>
        <time>2026-08-29T09:00:04.476Z</time>
      </trkpt>
      <trkpt lat="43.68634" lon="6.11286">
        <ele>517.5</ele>
        <time>2026-08-29T09:00:09.327Z</time>
      </trkpt>
      <trkpt lat="43.68629" lon="6.11285">
        <ele>518.1</ele>
        <time>2026-08-29T09:00:15.456Z</time>
      </trkpt>
      <trkpt lat="43.68624" lon="6.11281">
        <ele>519.3</ele>
        <time>2026-08-29T09:00:20.554Z</time>
      </trkpt>
      <trkpt lat="43.68618" lon="6.11277">
        <ele>520.5</ele>
        <time>2026-08-29T09:00:26.433Z</time>
      </trkpt>
      <trkpt lat="43.68614" lon="6.11276">
        <ele>520.9</ele>
        <time>2026-08-29T09:00:30.895Z</time>
      </trkpt>
      <trkpt lat="43.68609" lon="6.11275">
        <ele>521.3</ele>
        <time>2026-08-29T09:00:36.441Z</time>
      </trkpt>
      <trkpt lat="43.68604" lon="6.11268">
        <ele>522</ele>
        <time>2026-08-29T09:00:47.433Z</time>
      </trkpt>
      <trkpt lat="43.68602" lon="6.11269">
        <ele>522.1</ele>
        <time>2026-08-29T09:01:07.434Z</time>
      </trkpt>
      <trkpt lat="43.68596" lon="6.11268">
        <ele>522.6</ele>
        <time>2026-08-29T09:01:12.876Z</time>
      </trkpt>
      <trkpt lat="43.6859" lon="6.11266">
        <ele>523.3</ele>
        <time>2026-08-29T09:01:18.434Z</time>
      </trkpt>
      <trkpt lat="43.68586" lon="6.11263">
        <ele>523.8</ele>
        <time>2026-08-29T09:01:22.984Z</time>
      </trkpt>
      <trkpt lat="43.68581" lon="6.1126">
        <ele>524.4</ele>
        <time>2026-08-29T09:01:28.434Z</time>
      </trkpt>
      <trkpt lat="43.68576" lon="6.11258">
        <ele>525</ele>
        <time>2026-08-29T09:01:33.806Z</time>
      </trkpt>
      <trkpt lat="43.68571" lon="6.11255">
        <ele>525.5</ele>
        <time>2026-08-29T09:01:39.433Z</time>
      </trkpt>
      <trkpt lat="43.68569" lon="6.11258">
        <ele>525.5</ele>
        <time>2026-08-29T09:01:58.432Z</time>
      </trkpt>
      <trkpt lat="43.68564" lon="6.11258">
        <ele>525.8</ele>
        <time>2026-08-29T09:02:02.960Z</time>
      </trkpt>
      <trkpt lat="43.68558" lon="6.11257">
        <ele>526.3</ele>
        <time>2026-08-29T09:02:08.433Z</time>
      </trkpt>
      <trkpt lat="43.68553" lon="6.1126">
        <ele>526.5</ele>
        <time>2026-08-29T09:02:13.932Z</time>
      </trkpt>
      <trkpt lat="43.68548" lon="6.11263">
        <ele>526.6</ele>
        <time>2026-08-29T09:02:19.432Z</time>
      </trkpt>
      <trkpt lat="43.68542" lon="6.11265">
        <ele>526.9</ele>
        <time>2026-08-29T09:02:24.431Z</time>
      </trkpt>
      <trkpt lat="43.68536" lon="6.11267">
        <ele>527.2</ele>
        <time>2026-08-29T09:02:29.432Z</time>
      </trkpt>
      <trkpt lat="43.6853" lon="6.11268">
        <ele>527.5</ele>
        <time>2026-08-29T09:02:39.433Z</time>
      </trkpt>
      <trkpt lat="43.68526" lon="6.11267">
        <ele>527.9</ele>
        <time>2026-08-29T09:02:43.834Z</time>
      </trkpt>
      <trkpt lat="43.68521" lon="6.11265">
        <ele>528.3</ele>
        <time>2026-08-29T09:02:49.471Z</time>
      </trkpt>
      <trkpt lat="43.68516" lon="6.11264">
        <ele>528.6</ele>
        <time>2026-08-29T09:02:54.951Z</time>
      </trkpt>
      <trkpt lat="43.68511" lon="6.11263">
        <ele>529</ele>
        <time>2026-08-29T09:03:00.432Z</time>
      </trkpt>
      <trkpt lat="43.68507" lon="6.11264">
        <ele>529.1</ele>
        <time>2026-08-29T09:03:04.916Z</time>
      </trkpt>
      <trkpt lat="43.68502" lon="6.11264">
        <ele>529.4</ele>
        <time>2026-08-29T09:03:10.432Z</time>
      </trkpt>
      <trkpt lat="43.68498" lon="6.11265">
        <ele>529.5</ele>
        <time>2026-08-29T09:03:14.916Z</time>
      </trkpt>
      <trkpt lat="43.68493" lon="6.11265">
        <ele>529.9</ele>
        <time>2026-08-29T09:03:20.432Z</time>
      </trkpt>
      <trkpt lat="43.68486" lon="6.11263">
        <ele>530.6</ele>
        <time>2026-08-29T09:03:30.432Z</time>
      </trkpt>
      <trkpt lat="43.68481" lon="6.11258">
        <ele>531.5</ele>
        <time>2026-08-29T09:03:40.447Z</time>
      </trkpt>
      <trkpt lat="43.68476" lon="6.11258">
        <ele>531.9</ele>
        <time>2026-08-29T09:03:45.948Z</time>
      </trkpt>
      <trkpt lat="43.68471" lon="6.11258">
        <ele>532.3</ele>
        <time>2026-08-29T09:03:51.450Z</time>
      </trkpt>
      <trkpt lat="43.68467" lon="6.11259">
        <ele>532.5</ele>
        <time>2026-08-29T09:03:55.946Z</time>
      </trkpt>
      <trkpt lat="43.68462" lon="6.11259">
        <ele>533</ele>
        <time>2026-08-29T09:04:01.477Z</time>
      </trkpt>
      <trkpt lat="43.68459" lon="6.11263">
        <ele>532.8</ele>
        <time>2026-08-29T09:04:06.498Z</time>
      </trkpt>
      <trkpt lat="43.68455" lon="6.11267">
        <ele>532.6</ele>
        <time>2026-08-29T09:04:12.447Z</time>
      </trkpt>
      <trkpt lat="43.68451" lon="6.11269">
        <ele>532.7</ele>
        <time>2026-08-29T09:04:37.432Z</time>
      </trkpt>
      <trkpt lat="43.68447" lon="6.11272">
        <ele>532.6</ele>
        <time>2026-08-29T09:04:42.437Z</time>
      </trkpt>
      <trkpt lat="43.68442" lon="6.11275">
        <ele>532.7</ele>
        <time>2026-08-29T09:04:48.433Z</time>
      </trkpt>
      <trkpt lat="43.68438" lon="6.11275">
        <ele>533.1</ele>
        <time>2026-08-29T09:04:52.890Z</time>
      </trkpt>
      <trkpt lat="43.68433" lon="6.11275">
        <ele>533.6</ele>
        <time>2026-08-29T09:04:58.463Z</time>
      </trkpt>
      <trkpt lat="43.68425" lon="6.11276">
        <ele>534.4</ele>
        <time>2026-08-29T09:05:09.468Z</time>
      </trkpt>
      <trkpt lat="43.68421" lon="6.11276">
        <ele>534.8</ele>
        <time>2026-08-29T09:05:14.340Z</time>
      </trkpt>
      <trkpt lat="43.68416" lon="6.11276">
        <ele>535.3</ele>
        <time>2026-08-29T09:05:20.432Z</time>
      </trkpt>
      <trkpt lat="43.68411" lon="6.11275">
        <ele>535.8</ele>
        <time>2026-08-29T09:05:30.432Z</time>
      </trkpt>
      <trkpt lat="43.68406" lon="6.11276">
        <ele>536</ele>
        <time>2026-08-29T09:05:35.003Z</time>
      </trkpt>
      <trkpt lat="43.684" lon="6.11276">
        <ele>536.4</ele>
        <time>2026-08-29T09:05:40.432Z</time>
      </trkpt>
      <trkpt lat="43.68396" lon="6.11277">
        <ele>536.6</ele>
        <time>2026-08-29T09:05:44.916Z</time>
      </trkpt>
      <trkpt lat="43.68391" lon="6.11277">
        <ele>536.9</ele>
        <time>2026-08-29T09:05:50.433Z</time>
      </trkpt>
      <trkpt lat="43.68384" lon="6.11279">
        <ele>537.1</ele>
        <time>2026-08-29T09:06:00.461Z</time>
      </trkpt>
      <trkpt lat="43.68376" lon="6.11276">
        <ele>538.1</ele>
        <time>2026-08-29T09:06:11.432Z</time>
      </trkpt>
      <trkpt lat="43.68368" lon="6.11279">
        <ele>538.3</ele>
        <time>2026-08-29T09:06:22.432Z</time>
      </trkpt>
      <trkpt lat="43.68363" lon="6.11281">
        <ele>538.5</ele>
        <time>2026-08-29T09:06:27.529Z</time>
      </trkpt>
      <trkpt lat="43.68358" lon="6.11282">
        <ele>538.9</ele>
        <time>2026-08-29T09:06:32.477Z</time>
      </trkpt>
      <trkpt lat="43.68354" lon="6.11285">
        <ele>539</ele>
        <time>2026-08-29T09:06:37.586Z</time>
      </trkpt>
      <trkpt lat="43.68349" lon="6.11287">
        <ele>539.3</ele>
        <time>2026-08-29T09:06:43.432Z</time>
      </trkpt>
      <trkpt lat="43.68345" lon="6.1129">
        <ele>539.4</ele>
        <time>2026-08-29T09:06:48.097Z</time>
      </trkpt>
      <trkpt lat="43.6834" lon="6.11292">
        <ele>539.7</ele>
        <time>2026-08-29T09:06:53.433Z</time>
      </trkpt>
      <trkpt lat="43.68335" lon="6.11295">
        <ele>540</ele>
        <time>2026-08-29T09:07:03.439Z</time>
      </trkpt>
      <trkpt lat="43.6833" lon="6.11298">
        <ele>540.2</ele>
        <time>2026-08-29T09:07:08.563Z</time>
      </trkpt>
      <trkpt lat="43.68325" lon="6.113">
        <ele>540.5</ele>
        <time>2026-08-29T09:07:13.458Z</time>
      </trkpt>
      <trkpt lat="43.68319" lon="6.11301">
        <ele>541</ele>
        <time>2026-08-29T09:07:24.432Z</time>
      </trkpt>
      <trkpt lat="43.68315" lon="6.11306">
        <ele>540.9</ele>
        <time>2026-08-29T09:09:48.505Z</time>
      </trkpt>
      <trkpt lat="43.6831" lon="6.11307">
        <ele>541.4</ele>
        <time>2026-08-29T09:09:54.004Z</time>
      </trkpt>
      <trkpt lat="43.68305" lon="6.11308">
        <ele>541.8</ele>
        <time>2026-08-29T09:09:59.503Z</time>
      </trkpt>
      <trkpt lat="43.68297" lon="6.1131">
        <ele>542.5</ele>
        <time>2026-08-29T09:10:10.432Z</time>
      </trkpt>
      <trkpt lat="43.68292" lon="6.11312">
        <ele>542.9</ele>
        <time>2026-08-29T09:10:15.089Z</time>
      </trkpt>
      <trkpt lat="43.68286" lon="6.11313">
        <ele>543.5</ele>
        <time>2026-08-29T09:10:20.497Z</time>
      </trkpt>
      <trkpt lat="43.68279" lon="6.11315">
        <ele>544.2</ele>
        <time>2026-08-29T09:10:31.432Z</time>
      </trkpt>
      <trkpt lat="43.68275" lon="6.11315">
        <ele>544.6</ele>
        <time>2026-08-29T09:10:35.896Z</time>
      </trkpt>
      <trkpt lat="43.6827" lon="6.11315">
        <ele>545.2</ele>
        <time>2026-08-29T09:10:41.477Z</time>
      </trkpt>
      <trkpt lat="43.68266" lon="6.11316">
        <ele>545.5</ele>
        <time>2026-08-29T09:10:46.404Z</time>
      </trkpt>
      <trkpt lat="43.68261" lon="6.11316">
        <ele>546.1</ele>
        <time>2026-08-29T09:10:52.466Z</time>
      </trkpt>
      <trkpt lat="43.68256" lon="6.11317">
        <ele>546.5</ele>
        <time>2026-08-29T09:10:57.979Z</time>
      </trkpt>
      <trkpt lat="43.68251" lon="6.11318">
        <ele>547</ele>
        <time>2026-08-29T09:11:03.492Z</time>
      </trkpt>
      <trkpt lat="43.68243" lon="6.11321">
        <ele>547.5</ele>
        <time>2026-08-29T09:11:14.444Z</time>
      </trkpt>
      <trkpt lat="43.68238" lon="6.11323">
        <ele>547.8</ele>
        <time>2026-08-29T09:11:20.020Z</time>
      </trkpt>
      <trkpt lat="43.68233" lon="6.11324">
        <ele>548.1</ele>
        <time>2026-08-29T09:11:25.433Z</time>
      </trkpt>
      <trkpt lat="43.68225" lon="6.1132">
        <ele>549.2</ele>
        <time>2026-08-29T09:11:36.431Z</time>
      </trkpt>
      <trkpt lat="43.6822" lon="6.11321">
        <ele>549.5</ele>
        <time>2026-08-29T09:11:41.456Z</time>
      </trkpt>
      <trkpt lat="43.68215" lon="6.11321">
        <ele>550</ele>
        <time>2026-08-29T09:11:46.431Z</time>
      </trkpt>
      <trkpt lat="43.6821" lon="6.11324">
        <ele>550.2</ele>
        <time>2026-08-29T09:11:51.586Z</time>
      </trkpt>
      <trkpt lat="43.68205" lon="6.11326">
        <ele>550.5</ele>
        <time>2026-08-29T09:11:56.509Z</time>
      </trkpt>
      <trkpt lat="43.682" lon="6.11328">
        <ele>550.8</ele>
        <time>2026-08-29T09:12:02.029Z</time>
      </trkpt>
      <trkpt lat="43.68195" lon="6.11329">
        <ele>551.3</ele>
        <time>2026-08-29T09:12:07.388Z</time>
      </trkpt>
      <trkpt lat="43.68191" lon="6.11331">
        <ele>551.5</ele>
        <time>2026-08-29T09:12:11.985Z</time>
      </trkpt>
      <trkpt lat="43.68186" lon="6.11332">
        <ele>552</ele>
        <time>2026-08-29T09:12:17.446Z</time>
      </trkpt>
      <trkpt lat="43.68181" lon="6.11334">
        <ele>552.4</ele>
        <time>2026-08-29T09:12:22.446Z</time>
      </trkpt>
      <trkpt lat="43.68176" lon="6.11336">
        <ele>552.8</ele>
        <time>2026-08-29T09:12:27.447Z</time>
      </trkpt>
      <trkpt lat="43.68168" lon="6.11337">
        <ele>553.6</ele>
        <time>2026-08-29T09:12:38.432Z</time>
      </trkpt>
      <trkpt lat="43.68163" lon="6.11337">
        <ele>554.1</ele>
        <time>2026-08-29T09:12:42.959Z</time>
      </trkpt>
      <trkpt lat="43.68157" lon="6.11336">
        <ele>554.9</ele>
        <time>2026-08-29T09:12:48.432Z</time>
      </trkpt>
      <trkpt lat="43.68153" lon="6.11336">
        <ele>555.3</ele>
        <time>2026-08-29T09:12:58.496Z</time>
      </trkpt>
      <trkpt lat="43.68153" lon="6.11336">
        <ele>555.3</ele>
        <time>2026-08-29T09:13:18.433Z</time>
      </trkpt>
      <trkpt lat="43.68147" lon="6.11338">
        <ele>555.8</ele>
        <time>2026-08-29T09:13:23.901Z</time>
      </trkpt>
      <trkpt lat="43.68141" lon="6.1134">
        <ele>556.3</ele>
        <time>2026-08-29T09:13:29.370Z</time>
      </trkpt>
      <trkpt lat="43.68136" lon="6.11342">
        <ele>556.6</ele>
        <time>2026-08-29T09:13:34.475Z</time>
      </trkpt>
      <trkpt lat="43.68131" lon="6.11343">
        <ele>556.9</ele>
        <time>2026-08-29T09:13:39.431Z</time>
      </trkpt>
      <trkpt lat="43.68127" lon="6.11345">
        <ele>557</ele>
        <time>2026-08-29T09:13:44.020Z</time>
      </trkpt>
      <trkpt lat="43.68122" lon="6.11346">
        <ele>557.3</ele>
        <time>2026-08-29T09:13:49.472Z</time>
      </trkpt>
      <trkpt lat="43.68117" lon="6.11348">
        <ele>557.5</ele>
        <time>2026-08-29T09:13:55.040Z</time>
      </trkpt>
      <trkpt lat="43.68112" lon="6.11349">
        <ele>557.8</ele>
        <time>2026-08-29T09:14:00.446Z</time>
      </trkpt>
      <trkpt lat="43.68108" lon="6.11351">
        <ele>557.9</ele>
        <time>2026-08-29T09:14:05.467Z</time>
      </trkpt>
      <trkpt lat="43.68103" lon="6.11352">
        <ele>558.1</ele>
        <time>2026-08-29T09:14:11.431Z</time>
      </trkpt>
      <trkpt lat="43.68096" lon="6.11355">
        <ele>558.4</ele>
        <time>2026-08-29T09:14:21.431Z</time>
      </trkpt>
      <trkpt lat="43.68092" lon="6.11357">
        <ele>558.6</ele>
        <time>2026-08-29T09:14:25.951Z</time>
      </trkpt>
      <trkpt lat="43.68087" lon="6.11359">
        <ele>558.8</ele>
        <time>2026-08-29T09:14:31.483Z</time>
      </trkpt>
      <trkpt lat="43.68079" lon="6.11358">
        <ele>559.4</ele>
        <time>2026-08-29T09:14:42.463Z</time>
      </trkpt>
      <trkpt lat="43.68074" lon="6.11362">
        <ele>559.6</ele>
        <time>2026-08-29T09:14:47.936Z</time>
      </trkpt>
      <trkpt lat="43.68069" lon="6.11366">
        <ele>559.9</ele>
        <time>2026-08-29T09:14:53.411Z</time>
      </trkpt>
      <trkpt lat="43.68065" lon="6.11371">
        <ele>560</ele>
        <time>2026-08-29T09:14:58.641Z</time>
      </trkpt>
      <trkpt lat="43.68061" lon="6.11375">
        <ele>560.1</ele>
        <time>2026-08-29T09:15:03.430Z</time>
      </trkpt>
      <trkpt lat="43.68054" lon="6.1138">
        <ele>560.4</ele>
        <time>2026-08-29T09:15:13.431Z</time>
      </trkpt>
      <trkpt lat="43.6805" lon="6.11384">
        <ele>560.4</ele>
        <time>2026-08-29T09:15:18.636Z</time>
      </trkpt>
      <trkpt lat="43.68045" lon="6.11387">
        <ele>560.4</ele>
        <time>2026-08-29T09:15:24.385Z</time>
      </trkpt>
      <trkpt lat="43.68042" lon="6.11392">
        <ele>560.4</ele>
        <time>2026-08-29T09:15:29.306Z</time>
      </trkpt>
      <trkpt lat="43.68038" lon="6.11396">
        <ele>560.5</ele>
        <time>2026-08-29T09:15:34.477Z</time>
      </trkpt>
      <trkpt lat="43.68031" lon="6.11403">
        <ele>560.8</ele>
        <time>2026-08-29T09:15:45.458Z</time>
      </trkpt>
      <trkpt lat="43.68025" lon="6.11406">
        <ele>561.1</ele>
        <time>2026-08-29T09:15:50.659Z</time>
      </trkpt>
      <trkpt lat="43.68018" lon="6.11408">
        <ele>561.5</ele>
        <time>2026-08-29T09:15:56.486Z</time>
      </trkpt>
      <trkpt lat="43.68014" lon="6.11412">
        <ele>561.6</ele>
        <time>2026-08-29T09:16:02.180Z</time>
      </trkpt>
      <trkpt lat="43.6801" lon="6.11415">
        <ele>561.7</ele>
        <time>2026-08-29T09:16:07.430Z</time>
      </trkpt>
      <trkpt lat="43.68002" lon="6.1142">
        <ele>561.8</ele>
        <time>2026-08-29T09:16:17.508Z</time>
      </trkpt>
      <trkpt lat="43.67995" lon="6.11427">
        <ele>561.8</ele>
        <time>2026-08-29T09:16:28.471Z</time>
      </trkpt>
      <trkpt lat="43.6799" lon="6.1143">
        <ele>561.9</ele>
        <time>2026-08-29T09:16:33.950Z</time>
      </trkpt>
      <trkpt lat="43.67985" lon="6.11433">
        <ele>562</ele>
        <time>2026-08-29T09:16:39.430Z</time>
      </trkpt>
      <trkpt lat="43.67981" lon="6.11436">
        <ele>562</ele>
        <time>2026-08-29T09:16:43.986Z</time>
      </trkpt>
      <trkpt lat="43.67976" lon="6.11439">
        <ele>562.1</ele>
        <time>2026-08-29T09:16:49.444Z</time>
      </trkpt>
      <trkpt lat="43.6797" lon="6.11445">
        <ele>562.1</ele>
        <time>2026-08-29T09:17:00.431Z</time>
      </trkpt>
      <trkpt lat="43.67963" lon="6.11449">
        <ele>562.2</ele>
        <time>2026-08-29T09:18:01.430Z</time>
      </trkpt>
      <trkpt lat="43.67955" lon="6.11452">
        <ele>562.3</ele>
        <time>2026-08-29T09:18:11.430Z</time>
      </trkpt>
      <trkpt lat="43.67948" lon="6.1145">
        <ele>562.7</ele>
        <time>2026-08-29T09:18:21.431Z</time>
      </trkpt>
      <trkpt lat="43.67943" lon="6.11452">
        <ele>562.8</ele>
        <time>2026-08-29T09:18:26.930Z</time>
      </trkpt>
      <trkpt lat="43.67938" lon="6.11454">
        <ele>562.9</ele>
        <time>2026-08-29T09:18:32.430Z</time>
      </trkpt>
      <trkpt lat="43.67934" lon="6.11453">
        <ele>563.1</ele>
        <time>2026-08-29T09:18:37.334Z</time>
      </trkpt>
      <trkpt lat="43.67929" lon="6.11452">
        <ele>563.3</ele>
        <time>2026-08-29T09:18:43.431Z</time>
      </trkpt>
      <trkpt lat="43.67921" lon="6.11455">
        <ele>563.5</ele>
        <time>2026-08-29T09:18:53.431Z</time>
      </trkpt>
      <trkpt lat="43.67913" lon="6.11453">
        <ele>563.7</ele>
        <time>2026-08-29T09:19:04.435Z</time>
      </trkpt>
      <trkpt lat="43.67908" lon="6.11452">
        <ele>563.8</ele>
        <time>2026-08-29T09:19:09.390Z</time>
      </trkpt>
      <trkpt lat="43.67902" lon="6.1145">
        <ele>563.9</ele>
        <time>2026-08-29T09:19:15.445Z</time>
      </trkpt>
      <trkpt lat="43.67901" lon="6.11454">
        <ele>563.9</ele>
        <time>2026-08-29T09:19:26.431Z</time>
      </trkpt>
      <trkpt lat="43.679" lon="6.11459">
        <ele>563.8</ele>
        <time>2026-08-29T09:19:37.430Z</time>
      </trkpt>
      <trkpt lat="43.67898" lon="6.11467">
        <ele>563.7</ele>
        <time>2026-08-29T09:19:42.723Z</time>
      </trkpt>
      <trkpt lat="43.67896" lon="6.11474">
        <ele>563.7</ele>
        <time>2026-08-29T09:19:47.431Z</time>
      </trkpt>
      <trkpt lat="43.67896" lon="6.11482">
        <ele>563.5</ele>
        <time>2026-08-29T09:19:52.764Z</time>
      </trkpt>
      <trkpt lat="43.67896" lon="6.11489">
        <ele>563.3</ele>
        <time>2026-08-29T09:19:57.431Z</time>
      </trkpt>
      <trkpt lat="43.67894" lon="6.11497">
        <ele>563.1</ele>
        <time>2026-08-29T09:20:02.724Z</time>
      </trkpt>
      <trkpt lat="43.67892" lon="6.11504">
        <ele>563</ele>
        <time>2026-08-29T09:20:07.431Z</time>
      </trkpt>
      <trkpt lat="43.6789" lon="6.1151">
        <ele>563</ele>
        <time>2026-08-29T09:20:12.479Z</time>
      </trkpt>
      <trkpt lat="43.67887" lon="6.11515">
        <ele>563</ele>
        <time>2026-08-29T09:20:17.444Z</time>
      </trkpt>
      <trkpt lat="43.67881" lon="6.1152">
        <ele>563.1</ele>
        <time>2026-08-29T09:20:22.614Z</time>
      </trkpt>
      <trkpt lat="43.67874" lon="6.11525">
        <ele>563.1</ele>
        <time>2026-08-29T09:20:28.430Z</time>
      </trkpt>
      <trkpt lat="43.67869" lon="6.1153">
        <ele>563</ele>
        <time>2026-08-29T09:20:34.111Z</time>
      </trkpt>
      <trkpt lat="43.67864" lon="6.11534">
        <ele>563</ele>
        <time>2026-08-29T09:20:39.430Z</time>
      </trkpt>
      <trkpt lat="43.67861" lon="6.11542">
        <ele>563</ele>
        <time>2026-08-29T09:20:49.431Z</time>
      </trkpt>
      <trkpt lat="43.67858" lon="6.11548">
        <ele>563.1</ele>
        <time>2026-08-29T09:20:54.150Z</time>
      </trkpt>
      <trkpt lat="43.67854" lon="6.11554">
        <ele>563.3</ele>
        <time>2026-08-29T09:20:59.431Z</time>
      </trkpt>
      <trkpt lat="43.67849" lon="6.11562">
        <ele>563.2</ele>
        <time>2026-08-29T09:21:05.128Z</time>
      </trkpt>
      <trkpt lat="43.67844" lon="6.11569">
        <ele>563.1</ele>
        <time>2026-08-29T09:21:10.430Z</time>
      </trkpt>
      <trkpt lat="43.67841" lon="6.11576">
        <ele>563</ele>
        <time>2026-08-29T09:21:15.429Z</time>
      </trkpt>
      <trkpt lat="43.67838" lon="6.11583">
        <ele>562.8</ele>
        <time>2026-08-29T09:21:20.430Z</time>
      </trkpt>
      <trkpt lat="43.67834" lon="6.1159">
        <ele>562.7</ele>
        <time>2026-08-29T09:21:25.652Z</time>
      </trkpt>
      <trkpt lat="43.6783" lon="6.11596">
        <ele>562.7</ele>
        <time>2026-08-29T09:21:30.430Z</time>
      </trkpt>
      <trkpt lat="43.67826" lon="6.11602">
        <ele>562.6</ele>
        <time>2026-08-29T09:21:35.161Z</time>
      </trkpt>
      <trkpt lat="43.67821" lon="6.11608">
        <ele>562.6</ele>
        <time>2026-08-29T09:21:40.470Z</time>
      </trkpt>
      <trkpt lat="43.67816" lon="6.11618">
        <ele>562.4</ele>
        <time>2026-08-29T09:21:51.471Z</time>
      </trkpt>
      <trkpt lat="43.67812" lon="6.11625">
        <ele>562.3</ele>
        <time>2026-08-29T09:21:56.703Z</time>
      </trkpt>
      <trkpt lat="43.67807" lon="6.11632">
        <ele>562.2</ele>
        <time>2026-08-29T09:22:02.473Z</time>
      </trkpt>
      <trkpt lat="43.67804" lon="6.11638">
        <ele>562.1</ele>
        <time>2026-08-29T09:22:07.645Z</time>
      </trkpt>
      <trkpt lat="43.678" lon="6.11644">
        <ele>562</ele>
        <time>2026-08-29T09:22:13.431Z</time>
      </trkpt>
      <trkpt lat="43.67797" lon="6.11651">
        <ele>561.9</ele>
        <time>2026-08-29T09:22:18.430Z</time>
      </trkpt>
      <trkpt lat="43.67794" lon="6.11658">
        <ele>561.7</ele>
        <time>2026-08-29T09:22:23.431Z</time>
      </trkpt>
      <trkpt lat="43.67791" lon="6.11666">
        <ele>561.5</ele>
        <time>2026-08-29T09:22:28.253Z</time>
      </trkpt>
      <trkpt lat="43.67787" lon="6.11674">
        <ele>561.7</ele>
        <time>2026-08-29T09:22:33.459Z</time>
      </trkpt>
      <trkpt lat="43.67784" lon="6.11682">
        <ele>561.8</ele>
        <time>2026-08-29T09:22:38.735Z</time>
      </trkpt>
      <trkpt lat="43.6778" lon="6.1169">
        <ele>561.9</ele>
        <time>2026-08-29T09:22:44.430Z</time>
      </trkpt>
      <trkpt lat="43.67777" lon="6.11697">
        <ele>561.9</ele>
        <time>2026-08-29T09:22:49.939Z</time>
      </trkpt>
      <trkpt lat="43.67773" lon="6.11703">
        <ele>561.9</ele>
        <time>2026-08-29T09:22:55.465Z</time>
      </trkpt>
      <trkpt lat="43.6777" lon="6.11709">
        <ele>561.8</ele>
        <time>2026-08-29T09:23:01.285Z</time>
      </trkpt>
      <trkpt lat="43.67767" lon="6.11714">
        <ele>561.7</ele>
        <time>2026-08-29T09:23:06.469Z</time>
      </trkpt>
      <trkpt lat="43.67763" lon="6.11724">
        <ele>561.5</ele>
        <time>2026-08-29T09:23:12.186Z</time>
      </trkpt>
      <trkpt lat="43.67759" lon="6.11733">
        <ele>561.3</ele>
        <time>2026-08-29T09:23:17.472Z</time>
      </trkpt>
      <trkpt lat="43.67755" lon="6.11741">
        <ele>561.1</ele>
        <time>2026-08-29T09:23:23.186Z</time>
      </trkpt>
      <trkpt lat="43.67751" lon="6.11748">
        <ele>561</ele>
        <time>2026-08-29T09:23:28.429Z</time>
      </trkpt>
      <trkpt lat="43.67748" lon="6.11755">
        <ele>560.9</ele>
        <time>2026-08-29T09:23:33.217Z</time>
      </trkpt>
      <trkpt lat="43.67744" lon="6.11762">
        <ele>560.8</ele>
        <time>2026-08-29T09:23:38.468Z</time>
      </trkpt>
      <trkpt lat="43.67741" lon="6.11771">
        <ele>560.6</ele>
        <time>2026-08-29T09:23:43.773Z</time>
      </trkpt>
      <trkpt lat="43.67737" lon="6.1178">
        <ele>560.4</ele>
        <time>2026-08-29T09:23:49.429Z</time>
      </trkpt>
      <trkpt lat="43.67732" lon="6.11787">
        <ele>560.4</ele>
        <time>2026-08-29T09:23:54.627Z</time>
      </trkpt>
      <trkpt lat="43.67727" lon="6.11793">
        <ele>560.4</ele>
        <time>2026-08-29T09:23:59.464Z</time>
      </trkpt>
      <trkpt lat="43.67721" lon="6.118">
        <ele>560.2</ele>
        <time>2026-08-29T09:24:05.106Z</time>
      </trkpt>
      <trkpt lat="43.67715" lon="6.11806">
        <ele>560.2</ele>
        <time>2026-08-29T09:24:10.429Z</time>
      </trkpt>
      <trkpt lat="43.6771" lon="6.11811">
        <ele>560.2</ele>
        <time>2026-08-29T09:24:15.237Z</time>
      </trkpt>
      <trkpt lat="43.67704" lon="6.11815">
        <ele>560.3</ele>
        <time>2026-08-29T09:24:20.429Z</time>
      </trkpt>
      <trkpt lat="43.67699" lon="6.11819">
        <ele>560.4</ele>
        <time>2026-08-29T09:24:25.086Z</time>
      </trkpt>
      <trkpt lat="43.67693" lon="6.11823">
        <ele>560.4</ele>
        <time>2026-08-29T09:24:30.458Z</time>
      </trkpt>
      <trkpt lat="43.67687" lon="6.11826">
        <ele>560.3</ele>
        <time>2026-08-29T09:24:36.049Z</time>
      </trkpt>
      <trkpt lat="43.67681" lon="6.11828">
        <ele>560.3</ele>
        <time>2026-08-29T09:24:41.459Z</time>
      </trkpt>
      <trkpt lat="43.67676" lon="6.11833">
        <ele>560</ele>
        <time>2026-08-29T09:24:47.140Z</time>
      </trkpt>
      <trkpt lat="43.67671" lon="6.11837">
        <ele>559.5</ele>
        <time>2026-08-29T09:24:52.460Z</time>
      </trkpt>
      <trkpt lat="43.67665" lon="6.11839">
        <ele>559.1</ele>
        <time>2026-08-29T09:24:57.558Z</time>
      </trkpt>
      <trkpt lat="43.67658" lon="6.11841">
        <ele>558.5</ele>
        <time>2026-08-29T09:25:03.464Z</time>
      </trkpt>
      <trkpt lat="43.67652" lon="6.1184">
        <ele>558.4</ele>
        <time>2026-08-29T09:25:08.519Z</time>
      </trkpt>
      <trkpt lat="43.67645" lon="6.11839">
        <ele>558.2</ele>
        <time>2026-08-29T09:25:14.407Z</time>
      </trkpt>
      <trkpt lat="43.6764" lon="6.11836">
        <ele>558.6</ele>
        <time>2026-08-29T09:25:18.917Z</time>
      </trkpt>
      <trkpt lat="43.67634" lon="6.11832">
        <ele>558.6</ele>
        <time>2026-08-29T09:25:24.429Z</time>
      </trkpt>
      <trkpt lat="43.67628" lon="6.11832">
        <ele>558</ele>
        <time>2026-08-29T09:25:29.049Z</time>
      </trkpt>
      <trkpt lat="43.67621" lon="6.11832">
        <ele>557.2</ele>
        <time>2026-08-29T09:25:34.440Z</time>
      </trkpt>
      <trkpt lat="43.67616" lon="6.11836">
        <ele>556</ele>
        <time>2026-08-29T09:25:39.548Z</time>
      </trkpt>
      <trkpt lat="43.6761" lon="6.1184">
        <ele>554.7</ele>
        <time>2026-08-29T09:25:45.440Z</time>
      </trkpt>
      <trkpt lat="43.67605" lon="6.11844">
        <ele>553.5</ele>
        <time>2026-08-29T09:25:51.100Z</time>
      </trkpt>
      <trkpt lat="43.676" lon="6.11847">
        <ele>552.5</ele>
        <time>2026-08-29T09:25:56.442Z</time>
      </trkpt>
      <trkpt lat="43.67596" lon="6.11851">
        <ele>551.5</ele>
        <time>2026-08-29T09:26:01.943Z</time>
      </trkpt>
      <trkpt lat="43.67592" lon="6.11855">
        <ele>550.6</ele>
        <time>2026-08-29T09:26:07.446Z</time>
      </trkpt>
      <trkpt lat="43.6759" lon="6.11863">
        <ele>549.3</ele>
        <time>2026-08-29T09:26:13.271Z</time>
      </trkpt>
      <trkpt lat="43.67588" lon="6.1187">
        <ele>548.6</ele>
        <time>2026-08-29T09:26:18.451Z</time>
      </trkpt>
      <trkpt lat="43.67586" lon="6.11878">
        <ele>547.9</ele>
        <time>2026-08-29T09:26:23.780Z</time>
      </trkpt>
      <trkpt lat="43.67583" lon="6.11886">
        <ele>547.2</ele>
        <time>2026-08-29T09:26:29.455Z</time>
      </trkpt>
      <trkpt lat="43.67583" lon="6.11893">
        <ele>547.3</ele>
        <time>2026-08-29T09:26:34.783Z</time>
      </trkpt>
      <trkpt lat="43.67582" lon="6.11899">
        <ele>547.9</ele>
        <time>2026-08-29T09:26:39.470Z</time>
      </trkpt>
      <trkpt lat="43.67582" lon="6.11906">
        <ele>548.4</ele>
        <time>2026-08-29T09:26:44.909Z</time>
      </trkpt>
      <trkpt lat="43.67581" lon="6.11913">
        <ele>549</ele>
        <time>2026-08-29T09:26:50.454Z</time>
      </trkpt>
      <trkpt lat="43.67581" lon="6.1192">
        <ele>549.7</ele>
        <time>2026-08-29T09:26:55.889Z</time>
      </trkpt>
      <trkpt lat="43.6758" lon="6.11927">
        <ele>550.6</ele>
        <time>2026-08-29T09:27:01.430Z</time>
      </trkpt>
      <trkpt lat="43.67575" lon="6.11934">
        <ele>552.1</ele>
        <time>2026-08-29T09:27:11.430Z</time>
      </trkpt>
      <trkpt lat="43.67571" lon="6.11941">
        <ele>553.4</ele>
        <time>2026-08-29T09:27:22.458Z</time>
      </trkpt>
      <trkpt lat="43.67567" lon="6.11952">
        <ele>555.2</ele>
        <time>2026-08-29T09:27:33.428Z</time>
      </trkpt>
      <trkpt lat="43.67562" lon="6.11959">
        <ele>556.6</ele>
        <time>2026-08-29T09:27:44.428Z</time>
      </trkpt>
      <trkpt lat="43.67556" lon="6.11964">
        <ele>558</ele>
        <time>2026-08-29T09:27:54.456Z</time>
      </trkpt>
      <trkpt lat="43.6755" lon="6.11971">
        <ele>559.5</ele>
        <time>2026-08-29T09:28:05.457Z</time>
      </trkpt>
      <trkpt lat="43.67546" lon="6.11975">
        <ele>560.1</ele>
        <time>2026-08-29T09:28:10.942Z</time>
      </trkpt>
      <trkpt lat="43.67542" lon="6.11979">
        <ele>560.6</ele>
        <time>2026-08-29T09:28:16.429Z</time>
      </trkpt>
      <trkpt lat="43.67534" lon="6.11984">
        <ele>561.4</ele>
        <time>2026-08-29T09:28:26.452Z</time>
      </trkpt>
      <trkpt lat="43.6753" lon="6.11984">
        <ele>561.8</ele>
        <time>2026-08-29T09:28:31.343Z</time>
      </trkpt>
      <trkpt lat="43.67525" lon="6.11984">
        <ele>562.2</ele>
        <time>2026-08-29T09:28:37.457Z</time>
      </trkpt>
      <trkpt lat="43.67517" lon="6.11988">
        <ele>562.8</ele>
        <time>2026-08-29T09:28:48.428Z</time>
      </trkpt>
      <trkpt lat="43.6751" lon="6.11995">
        <ele>563.3</ele>
        <time>2026-08-29T09:28:58.429Z</time>
      </trkpt>
      <trkpt lat="43.67503" lon="6.12002">
        <ele>563.8</ele>
        <time>2026-08-29T09:29:08.453Z</time>
      </trkpt>
      <trkpt lat="43.67498" lon="6.12004">
        <ele>564.1</ele>
        <time>2026-08-29T09:29:13.474Z</time>
      </trkpt>
      <trkpt lat="43.67492" lon="6.12006">
        <ele>564.6</ele>
        <time>2026-08-29T09:29:19.428Z</time>
      </trkpt>
      <trkpt lat="43.67487" lon="6.12008">
        <ele>564.9</ele>
        <time>2026-08-29T09:29:24.443Z</time>
      </trkpt>
      <trkpt lat="43.67482" lon="6.1201">
        <ele>565.3</ele>
        <time>2026-08-29T09:29:29.460Z</time>
      </trkpt>
      <trkpt lat="43.67476" lon="6.12013">
        <ele>565.7</ele>
        <time>2026-08-29T09:29:35.055Z</time>
      </trkpt>
      <trkpt lat="43.6747" lon="6.12015">
        <ele>566.1</ele>
        <time>2026-08-29T09:29:40.468Z</time>
      </trkpt>
      <trkpt lat="43.67465" lon="6.12012">
        <ele>566.3</ele>
        <time>2026-08-29T09:29:45.400Z</time>
      </trkpt>
      <trkpt lat="43.67459" lon="6.12008">
        <ele>566.5</ele>
        <time>2026-08-29T09:29:51.428Z</time>
      </trkpt>
      <trkpt lat="43.67453" lon="6.12008">
        <ele>566.7</ele>
        <time>2026-08-29T09:29:56.928Z</time>
      </trkpt>
      <trkpt lat="43.67447" lon="6.12008">
        <ele>566.9</ele>
        <time>2026-08-29T09:30:02.428Z</time>
      </trkpt>
      <trkpt lat="43.67442" lon="6.12009">
        <ele>567.1</ele>
        <time>2026-08-29T09:30:07.454Z</time>
      </trkpt>
      <trkpt lat="43.67437" lon="6.12009">
        <ele>567.4</ele>
        <time>2026-08-29T09:30:12.429Z</time>
      </trkpt>
      <trkpt lat="43.67433" lon="6.12014">
        <ele>567.6</ele>
        <time>2026-08-29T09:30:17.256Z</time>
      </trkpt>
      <trkpt lat="43.67428" lon="6.12018">
        <ele>568</ele>
        <time>2026-08-29T09:30:22.429Z</time>
      </trkpt>
      <trkpt lat="43.67424" lon="6.12023">
        <ele>568.3</ele>
        <time>2026-08-29T09:30:27.649Z</time>
      </trkpt>
      <trkpt lat="43.6742" lon="6.12027">
        <ele>568.7</ele>
        <time>2026-08-29T09:30:32.429Z</time>
      </trkpt>
      <trkpt lat="43.67416" lon="6.12033">
        <ele>569</ele>
        <time>2026-08-29T09:30:37.445Z</time>
      </trkpt>
      <trkpt lat="43.67412" lon="6.12039">
        <ele>569.2</ele>
        <time>2026-08-29T09:30:42.462Z</time>
      </trkpt>
      <trkpt lat="43.67412" lon="6.12047">
        <ele>569.2</ele>
        <time>2026-08-29T09:30:47.904Z</time>
      </trkpt>
      <trkpt lat="43.67411" lon="6.12055">
        <ele>569.2</ele>
        <time>2026-08-29T09:30:53.428Z</time>
      </trkpt>
      <trkpt lat="43.67413" lon="6.12062">
        <ele>569.1</ele>
        <time>2026-08-29T09:30:58.753Z</time>
      </trkpt>
      <trkpt lat="43.67415" lon="6.12068">
        <ele>569.1</ele>
        <time>2026-08-29T09:31:03.429Z</time>
      </trkpt>
      <trkpt lat="43.6742" lon="6.12072">
        <ele>568.8</ele>
        <time>2026-08-29T09:31:09.045Z</time>
      </trkpt>
      <trkpt lat="43.67424" lon="6.12075">
        <ele>568.6</ele>
        <time>2026-08-29T09:31:13.470Z</time>
      </trkpt>
      <trkpt lat="43.67425" lon="6.12083">
        <ele>568.4</ele>
        <time>2026-08-29T09:31:18.967Z</time>
      </trkpt>
      <trkpt lat="43.67426" lon="6.12091">
        <ele>568.3</ele>
        <time>2026-08-29T09:31:24.465Z</time>
      </trkpt>
      <trkpt lat="43.67426" lon="6.12099">
        <ele>568.3</ele>
        <time>2026-08-29T09:31:30.290Z</time>
      </trkpt>
      <trkpt lat="43.67425" lon="6.12106">
        <ele>568.4</ele>
        <time>2026-08-29T09:31:35.486Z</time>
      </trkpt>
      <trkpt lat="43.67424" lon="6.12113">
        <ele>568.4</ele>
        <time>2026-08-29T09:31:41.134Z</time>
      </trkpt>
      <trkpt lat="43.67422" lon="6.12119">
        <ele>568.3</ele>
        <time>2026-08-29T09:31:46.365Z</time>
      </trkpt>
      <trkpt lat="43.67421" lon="6.12126">
        <ele>568.2</ele>
        <time>2026-08-29T09:31:51.789Z</time>
      </trkpt>
      <trkpt lat="43.6742" lon="6.12132">
        <ele>568</ele>
        <time>2026-08-29T09:31:56.471Z</time>
      </trkpt>
      <trkpt lat="43.67417" lon="6.12139">
        <ele>568</ele>
        <time>2026-08-29T09:32:01.949Z</time>
      </trkpt>
      <trkpt lat="43.67414" lon="6.12146">
        <ele>568.2</ele>
        <time>2026-08-29T09:32:07.429Z</time>
      </trkpt>
      <trkpt lat="43.67411" lon="6.12151">
        <ele>568.4</ele>
        <time>2026-08-29T09:32:12.879Z</time>
      </trkpt>
      <trkpt lat="43.67408" lon="6.12156">
        <ele>568.6</ele>
        <time>2026-08-29T09:32:18.331Z</time>
      </trkpt>
      <trkpt lat="43.67405" lon="6.12162">
        <ele>568.8</ele>
        <time>2026-08-29T09:32:23.379Z</time>
      </trkpt>
      <trkpt lat="43.67402" lon="6.12168">
        <ele>569</ele>
        <time>2026-08-29T09:32:28.429Z</time>
      </trkpt>
      <trkpt lat="43.67398" lon="6.12174">
        <ele>569.2</ele>
        <time>2026-08-29T09:32:33.928Z</time>
      </trkpt>
      <trkpt lat="43.67394" lon="6.1218">
        <ele>569.2</ele>
        <time>2026-08-29T09:32:39.429Z</time>
      </trkpt>
      <trkpt lat="43.6739" lon="6.12186">
        <ele>569.3</ele>
        <time>2026-08-29T09:32:45.176Z</time>
      </trkpt>
      <trkpt lat="43.67386" lon="6.12191">
        <ele>569.3</ele>
        <time>2026-08-29T09:32:50.428Z</time>
      </trkpt>
      <trkpt lat="43.67382" lon="6.12196">
        <ele>569.5</ele>
        <time>2026-08-29T09:32:55.255Z</time>
      </trkpt>
      <trkpt lat="43.67377" lon="6.122">
        <ele>569.9</ele>
        <time>2026-08-29T09:33:00.428Z</time>
      </trkpt>
      <trkpt lat="43.67374" lon="6.12207">
        <ele>570.1</ele>
        <time>2026-08-29T09:33:05.701Z</time>
      </trkpt>
      <trkpt lat="43.67371" lon="6.12213">
        <ele>570.3</ele>
        <time>2026-08-29T09:33:10.429Z</time>
      </trkpt>
      <trkpt lat="43.67368" lon="6.1222">
        <ele>570.5</ele>
        <time>2026-08-29T09:33:16.229Z</time>
      </trkpt>
      <trkpt lat="43.67365" lon="6.12226">
        <ele>570.6</ele>
        <time>2026-08-29T09:33:21.429Z</time>
      </trkpt>
      <trkpt lat="43.67361" lon="6.12232">
        <ele>570.7</ele>
        <time>2026-08-29T09:33:26.317Z</time>
      </trkpt>
      <trkpt lat="43.67356" lon="6.12237">
        <ele>570.8</ele>
        <time>2026-08-29T09:33:31.429Z</time>
      </trkpt>
      <trkpt lat="43.67352" lon="6.12245">
        <ele>570.8</ele>
        <time>2026-08-29T09:33:37.165Z</time>
      </trkpt>
      <trkpt lat="43.67348" lon="6.12252">
        <ele>570.9</ele>
        <time>2026-08-29T09:33:42.427Z</time>
      </trkpt>
      <trkpt lat="43.67343" lon="6.12257">
        <ele>571.2</ele>
        <time>2026-08-29T09:33:47.426Z</time>
      </trkpt>
      <trkpt lat="43.67338" lon="6.12262">
        <ele>571.6</ele>
        <time>2026-08-29T09:33:52.427Z</time>
      </trkpt>
      <trkpt lat="43.67336" lon="6.12274">
        <ele>571.7</ele>
        <time>2026-08-29T09:34:02.428Z</time>
      </trkpt>
      <trkpt lat="43.67337" lon="6.12284">
        <ele>571.4</ele>
        <time>2026-08-29T09:34:07.736Z</time>
      </trkpt>
      <trkpt lat="43.67337" lon="6.12293">
        <ele>571.1</ele>
        <time>2026-08-29T09:34:12.470Z</time>
      </trkpt>
      <trkpt lat="43.67336" lon="6.12303">
        <ele>570.9</ele>
        <time>2026-08-29T09:34:17.948Z</time>
      </trkpt>
      <trkpt lat="43.67335" lon="6.12313">
        <ele>570.6</ele>
        <time>2026-08-29T09:34:23.427Z</time>
      </trkpt>
      <trkpt lat="43.67333" lon="6.1232">
        <ele>570.5</ele>
        <time>2026-08-29T09:34:28.752Z</time>
      </trkpt>
      <trkpt lat="43.67331" lon="6.12326">
        <ele>570.4</ele>
        <time>2026-08-29T09:34:33.428Z</time>
      </trkpt>
      <trkpt lat="43.67329" lon="6.12334">
        <ele>570.3</ele>
        <time>2026-08-29T09:34:38.543Z</time>
      </trkpt>
      <trkpt lat="43.67326" lon="6.12341">
        <ele>570.3</ele>
        <time>2026-08-29T09:34:43.461Z</time>
      </trkpt>
      <trkpt lat="43.67324" lon="6.12349">
        <ele>570.1</ele>
        <time>2026-08-29T09:34:48.780Z</time>
      </trkpt>
      <trkpt lat="43.67321" lon="6.12357">
        <ele>570</ele>
        <time>2026-08-29T09:34:54.443Z</time>
      </trkpt>
      <trkpt lat="43.67318" lon="6.12364">
        <ele>570</ele>
        <time>2026-08-29T09:34:59.719Z</time>
      </trkpt>
      <trkpt lat="43.67315" lon="6.1237">
        <ele>570</ele>
        <time>2026-08-29T09:35:04.450Z</time>
      </trkpt>
      <trkpt lat="43.67311" lon="6.12377">
        <ele>570</ele>
        <time>2026-08-29T09:35:09.882Z</time>
      </trkpt>
      <trkpt lat="43.67306" lon="6.12383">
        <ele>570.2</ele>
        <time>2026-08-29T09:35:15.456Z</time>
      </trkpt>
      <trkpt lat="43.67303" lon="6.1239">
        <ele>570</ele>
        <time>2026-08-29T09:35:20.463Z</time>
      </trkpt>
      <trkpt lat="43.67299" lon="6.12396">
        <ele>569.8</ele>
        <time>2026-08-29T09:35:25.485Z</time>
      </trkpt>
      <trkpt lat="43.67295" lon="6.12403">
        <ele>569.6</ele>
        <time>2026-08-29T09:35:31.210Z</time>
      </trkpt>
      <trkpt lat="43.67291" lon="6.12409">
        <ele>569.5</ele>
        <time>2026-08-29T09:35:36.447Z</time>
      </trkpt>
      <trkpt lat="43.67288" lon="6.12416">
        <ele>569.3</ele>
        <time>2026-08-29T09:35:41.946Z</time>
      </trkpt>
      <trkpt lat="43.67285" lon="6.12423">
        <ele>569.4</ele>
        <time>2026-08-29T09:35:47.446Z</time>
      </trkpt>
      <trkpt lat="43.67283" lon="6.1243">
        <ele>569.5</ele>
        <time>2026-08-29T09:35:53.293Z</time>
      </trkpt>
      <trkpt lat="43.67281" lon="6.12436">
        <ele>569.7</ele>
        <time>2026-08-29T09:35:58.427Z</time>
      </trkpt>
      <trkpt lat="43.6728" lon="6.12444">
        <ele>569.8</ele>
        <time>2026-08-29T09:36:03.749Z</time>
      </trkpt>
      <trkpt lat="43.67279" lon="6.12451">
        <ele>569.9</ele>
        <time>2026-08-29T09:36:08.428Z</time>
      </trkpt>
      <trkpt lat="43.67274" lon="6.12458">
        <ele>570.3</ele>
        <time>2026-08-29T09:36:13.446Z</time>
      </trkpt>
      <trkpt lat="43.67269" lon="6.12465">
        <ele>570.9</ele>
        <time>2026-08-29T09:36:18.466Z</time>
      </trkpt>
      <trkpt lat="43.67266" lon="6.12471">
        <ele>571.3</ele>
        <time>2026-08-29T09:36:23.645Z</time>
      </trkpt>
      <trkpt lat="43.67262" lon="6.12477">
        <ele>571.6</ele>
        <time>2026-08-29T09:36:29.439Z</time>
      </trkpt>
      <trkpt lat="43.67259" lon="6.12484">
        <ele>571.7</ele>
        <time>2026-08-29T09:36:34.924Z</time>
      </trkpt>
      <trkpt lat="43.67256" lon="6.12491">
        <ele>571.8</ele>
        <time>2026-08-29T09:36:40.411Z</time>
      </trkpt>
      <trkpt lat="43.67253" lon="6.12498">
        <ele>571.8</ele>
        <time>2026-08-29T09:36:45.188Z</time>
      </trkpt>
      <trkpt lat="43.67249" lon="6.12505">
        <ele>571.9</ele>
        <time>2026-08-29T09:36:50.427Z</time>
      </trkpt>
      <trkpt lat="43.67247" lon="6.12512">
        <ele>571.9</ele>
        <time>2026-08-29T09:36:55.505Z</time>
      </trkpt>
      <trkpt lat="43.67244" lon="6.12518">
        <ele>572</ele>
        <time>2026-08-29T09:37:00.427Z</time>
      </trkpt>
      <trkpt lat="43.67241" lon="6.12526">
        <ele>572</ele>
        <time>2026-08-29T09:37:05.931Z</time>
      </trkpt>
      <trkpt lat="43.67238" lon="6.12534">
        <ele>572.2</ele>
        <time>2026-08-29T09:37:11.436Z</time>
      </trkpt>
      <trkpt lat="43.67234" lon="6.12542">
        <ele>572.4</ele>
        <time>2026-08-29T09:37:16.931Z</time>
      </trkpt>
      <trkpt lat="43.6723" lon="6.1255">
        <ele>572.6</ele>
        <time>2026-08-29T09:37:22.428Z</time>
      </trkpt>
      <trkpt lat="43.67227" lon="6.12557">
        <ele>572.6</ele>
        <time>2026-08-29T09:37:28.227Z</time>
      </trkpt>
      <trkpt lat="43.67224" lon="6.12563">
        <ele>572.9</ele>
        <time>2026-08-29T09:37:33.427Z</time>
      </trkpt>
      <trkpt lat="43.67222" lon="6.1257">
        <ele>573</ele>
        <time>2026-08-29T09:37:38.257Z</time>
      </trkpt>
      <trkpt lat="43.67219" lon="6.12577">
        <ele>573.3</ele>
        <time>2026-08-29T09:37:43.480Z</time>
      </trkpt>
      <trkpt lat="43.67217" lon="6.12586">
        <ele>573.5</ele>
        <time>2026-08-29T09:37:48.813Z</time>
      </trkpt>
      <trkpt lat="43.67214" lon="6.12595">
        <ele>573.5</ele>
        <time>2026-08-29T09:37:54.428Z</time>
      </trkpt>
      <trkpt lat="43.67211" lon="6.12604">
        <ele>573.5</ele>
        <time>2026-08-29T09:37:59.430Z</time>
      </trkpt>
      <trkpt lat="43.67208" lon="6.12613">
        <ele>573.5</ele>
        <time>2026-08-29T09:38:04.434Z</time>
      </trkpt>
      <trkpt lat="43.67205" lon="6.12623">
        <ele>573.6</ele>
        <time>2026-08-29T09:38:10.205Z</time>
      </trkpt>
      <trkpt lat="43.67202" lon="6.12632">
        <ele>573.6</ele>
        <time>2026-08-29T09:38:15.488Z</time>
      </trkpt>
      <trkpt lat="43.67199" lon="6.1264">
        <ele>573.6</ele>
        <time>2026-08-29T09:38:20.957Z</time>
      </trkpt>
      <trkpt lat="43.67196" lon="6.12648">
        <ele>573.6</ele>
        <time>2026-08-29T09:38:26.428Z</time>
      </trkpt>
      <trkpt lat="43.67193" lon="6.12657">
        <ele>573.5</ele>
        <time>2026-08-29T09:38:31.927Z</time>
      </trkpt>
      <trkpt lat="43.6719" lon="6.12666">
        <ele>573.3</ele>
        <time>2026-08-29T09:38:37.428Z</time>
      </trkpt>
      <trkpt lat="43.67186" lon="6.12672">
        <ele>573.4</ele>
        <time>2026-08-29T09:38:42.626Z</time>
      </trkpt>
      <trkpt lat="43.67181" lon="6.12678">
        <ele>573.6</ele>
        <time>2026-08-29T09:38:48.459Z</time>
      </trkpt>
      <trkpt lat="43.67176" lon="6.12684">
        <ele>573.7</ele>
        <time>2026-08-29T09:38:53.651Z</time>
      </trkpt>
      <trkpt lat="43.67171" lon="6.12689">
        <ele>573.9</ele>
        <time>2026-08-29T09:38:58.491Z</time>
      </trkpt>
      <trkpt lat="43.67167" lon="6.12696">
        <ele>574</ele>
        <time>2026-08-29T09:39:03.958Z</time>
      </trkpt>
      <trkpt lat="43.67163" lon="6.12703">
        <ele>574.2</ele>
        <time>2026-08-29T09:39:09.427Z</time>
      </trkpt>
      <trkpt lat="43.67159" lon="6.12709">
        <ele>574.4</ele>
        <time>2026-08-29T09:39:14.653Z</time>
      </trkpt>
      <trkpt lat="43.67155" lon="6.12714">
        <ele>574.7</ele>
        <time>2026-08-29T09:39:19.429Z</time>
      </trkpt>
      <trkpt lat="43.67151" lon="6.12719">
        <ele>575.1</ele>
        <time>2026-08-29T09:39:24.661Z</time>
      </trkpt>
      <trkpt lat="43.67147" lon="6.12723">
        <ele>575.4</ele>
        <time>2026-08-29T09:39:29.451Z</time>
      </trkpt>
      <trkpt lat="43.67142" lon="6.12728">
        <ele>575.8</ele>
        <time>2026-08-29T09:39:34.592Z</time>
      </trkpt>
      <trkpt lat="43.67136" lon="6.12733">
        <ele>576.2</ele>
        <time>2026-08-29T09:39:40.429Z</time>
      </trkpt>
      <trkpt lat="43.67131" lon="6.12739">
        <ele>576.6</ele>
        <time>2026-08-29T09:39:45.927Z</time>
      </trkpt>
      <trkpt lat="43.67126" lon="6.12745">
        <ele>576.9</ele>
        <time>2026-08-29T09:39:51.426Z</time>
      </trkpt>
      <trkpt lat="43.67122" lon="6.1275">
        <ele>577.2</ele>
        <time>2026-08-29T09:39:56.425Z</time>
      </trkpt>
      <trkpt lat="43.67118" lon="6.12755">
        <ele>577.3</ele>
        <time>2026-08-29T09:40:01.426Z</time>
      </trkpt>
      <trkpt lat="43.67114" lon="6.12758">
        <ele>577.5</ele>
        <time>2026-08-29T09:40:05.986Z</time>
      </trkpt>
      <trkpt lat="43.67109" lon="6.12761">
        <ele>577.7</ele>
        <time>2026-08-29T09:40:11.449Z</time>
      </trkpt>
      <trkpt lat="43.67104" lon="6.12762">
        <ele>577.8</ele>
        <time>2026-08-29T09:40:16.447Z</time>
      </trkpt>
      <trkpt lat="43.67098" lon="6.12763">
        <ele>578</ele>
        <time>2026-08-29T09:40:22.427Z</time>
      </trkpt>
      <trkpt lat="43.67094" lon="6.12767">
        <ele>578</ele>
        <time>2026-08-29T09:40:27.897Z</time>
      </trkpt>
      <trkpt lat="43.6709" lon="6.12771">
        <ele>578</ele>
        <time>2026-08-29T09:40:33.369Z</time>
      </trkpt>
      <trkpt lat="43.67087" lon="6.12777">
        <ele>577.9</ele>
        <time>2026-08-29T09:40:38.132Z</time>
      </trkpt>
      <trkpt lat="43.67083" lon="6.12783">
        <ele>578</ele>
        <time>2026-08-29T09:40:43.462Z</time>
      </trkpt>
      <trkpt lat="43.67078" lon="6.12791">
        <ele>578.3</ele>
        <time>2026-08-29T09:40:49.141Z</time>
      </trkpt>
      <trkpt lat="43.67073" lon="6.12798">
        <ele>578.5</ele>
        <time>2026-08-29T09:40:54.427Z</time>
      </trkpt>
      <trkpt lat="43.6707" lon="6.12807">
        <ele>578.4</ele>
        <time>2026-08-29T09:40:59.750Z</time>
      </trkpt>
      <trkpt lat="43.67066" lon="6.12816">
        <ele>578.2</ele>
        <time>2026-08-29T09:41:05.426Z</time>
      </trkpt>
      <trkpt lat="43.67063" lon="6.12827">
        <ele>578</ele>
        <time>2026-08-29T09:41:16.426Z</time>
      </trkpt>
      <trkpt lat="43.67059" lon="6.12835">
        <ele>577.8</ele>
        <time>2026-08-29T09:41:21.419Z</time>
      </trkpt>
      <trkpt lat="43.67054" lon="6.12842">
        <ele>577.8</ele>
        <time>2026-08-29T09:41:26.470Z</time>
      </trkpt>
      <trkpt lat="43.6705" lon="6.1285">
        <ele>577.7</ele>
        <time>2026-08-29T09:41:32.154Z</time>
      </trkpt>
      <trkpt lat="43.67046" lon="6.12857">
        <ele>577.8</ele>
        <time>2026-08-29T09:41:37.369Z</time>
      </trkpt>
      <trkpt lat="43.67041" lon="6.12863">
        <ele>578</ele>
        <time>2026-08-29T09:41:42.398Z</time>
      </trkpt>
      <trkpt lat="43.67036" lon="6.12869">
        <ele>578.1</ele>
        <time>2026-08-29T09:41:47.429Z</time>
      </trkpt>
      <trkpt lat="43.67033" lon="6.12875">
        <ele>578.1</ele>
        <time>2026-08-29T09:41:52.438Z</time>
      </trkpt>
      <trkpt lat="43.6703" lon="6.12881">
        <ele>578.1</ele>
        <time>2026-08-29T09:41:57.449Z</time>
      </trkpt>
      <trkpt lat="43.67027" lon="6.12889">
        <ele>578</ele>
        <time>2026-08-29T09:42:03.217Z</time>
      </trkpt>
      <trkpt lat="43.67024" lon="6.12896">
        <ele>577.9</ele>
        <time>2026-08-29T09:42:08.426Z</time>
      </trkpt>
      <trkpt lat="43.6702" lon="6.12903">
        <ele>577.9</ele>
        <time>2026-08-29T09:42:13.182Z</time>
      </trkpt>
      <trkpt lat="43.67015" lon="6.1291">
        <ele>578</ele>
        <time>2026-08-29T09:42:18.427Z</time>
      </trkpt>
      <trkpt lat="43.67011" lon="6.12917">
        <ele>578.2</ele>
        <time>2026-08-29T09:42:23.855Z</time>
      </trkpt>
      <trkpt lat="43.67006" lon="6.12923">
        <ele>578.4</ele>
        <time>2026-08-29T09:42:29.426Z</time>
      </trkpt>
      <trkpt lat="43.67002" lon="6.12927">
        <ele>578.5</ele>
        <time>2026-08-29T09:42:34.432Z</time>
      </trkpt>
      <trkpt lat="43.66998" lon="6.12931">
        <ele>578.6</ele>
        <time>2026-08-29T09:42:39.439Z</time>
      </trkpt>
      <trkpt lat="43.66992" lon="6.12936">
        <ele>578.6</ele>
        <time>2026-08-29T09:42:44.610Z</time>
      </trkpt>
      <trkpt lat="43.66985" lon="6.12941">
        <ele>578.7</ele>
        <time>2026-08-29T09:42:50.427Z</time>
      </trkpt>
      <trkpt lat="43.66979" lon="6.12943">
        <ele>578.8</ele>
        <time>2026-08-29T09:42:55.926Z</time>
      </trkpt>
      <trkpt lat="43.66973" lon="6.12945">
        <ele>579</ele>
        <time>2026-08-29T09:43:01.427Z</time>
      </trkpt>
      <trkpt lat="43.66968" lon="6.12944">
        <ele>579.3</ele>
        <time>2026-08-29T09:43:05.982Z</time>
      </trkpt>
      <trkpt lat="43.66962" lon="6.12943">
        <ele>579.8</ele>
        <time>2026-08-29T09:43:11.432Z</time>
      </trkpt>
      <trkpt lat="43.66959" lon="6.12941">
        <ele>580</ele>
        <time>2026-08-29T09:43:21.439Z</time>
      </trkpt>
      <trkpt lat="43.66959" lon="6.1294">
        <ele>580</ele>
        <time>2026-08-29T09:45:03.366Z</time>
      </trkpt>
      <trkpt lat="43.66958" lon="6.12932">
        <ele>580.2</ele>
        <time>2026-08-29T09:45:08.579Z</time>
      </trkpt>
      <trkpt lat="43.66957" lon="6.12923">
        <ele>580.4</ele>
        <time>2026-08-29T09:45:14.426Z</time>
      </trkpt>
      <trkpt lat="43.66957" lon="6.12914">
        <ele>580.6</ele>
        <time>2026-08-29T09:45:19.650Z</time>
      </trkpt>
      <trkpt lat="43.66957" lon="6.12904">
        <ele>581</ele>
        <time>2026-08-29T09:45:25.455Z</time>
      </trkpt>
      <trkpt lat="43.66957" lon="6.12895">
        <ele>581.3</ele>
        <time>2026-08-29T09:45:30.949Z</time>
      </trkpt>
      <trkpt lat="43.66957" lon="6.12886">
        <ele>581.7</ele>
        <time>2026-08-29T09:45:36.444Z</time>
      </trkpt>
      <trkpt lat="43.66957" lon="6.12877">
        <ele>582</ele>
        <time>2026-08-29T09:45:41.902Z</time>
      </trkpt>
      <trkpt lat="43.66956" lon="6.12868">
        <ele>582.3</ele>
        <time>2026-08-29T09:45:47.426Z</time>
      </trkpt>
      <trkpt lat="43.66956" lon="6.12859">
        <ele>582.6</ele>
        <time>2026-08-29T09:45:52.893Z</time>
      </trkpt>
      <trkpt lat="43.66955" lon="6.1285">
        <ele>582.9</ele>
        <time>2026-08-29T09:45:58.426Z</time>
      </trkpt>
      <trkpt lat="43.66955" lon="6.12843">
        <ele>583</ele>
        <time>2026-08-29T09:46:03.559Z</time>
      </trkpt>
      <trkpt lat="43.66955" lon="6.12835">
        <ele>583.2</ele>
        <time>2026-08-29T09:46:09.426Z</time>
      </trkpt>
      <trkpt lat="43.66955" lon="6.12828">
        <ele>583.6</ele>
        <time>2026-08-29T09:46:14.095Z</time>
      </trkpt>
      <trkpt lat="43.66955" lon="6.1282">
        <ele>584.2</ele>
        <time>2026-08-29T09:46:19.431Z</time>
      </trkpt>
      <trkpt lat="43.66955" lon="6.12812">
        <ele>584.8</ele>
        <time>2026-08-29T09:46:24.572Z</time>
      </trkpt>
      <trkpt lat="43.66954" lon="6.12803">
        <ele>585.4</ele>
        <time>2026-08-29T09:46:30.425Z</time>
      </trkpt>
      <trkpt lat="43.66954" lon="6.12795">
        <ele>585.7</ele>
        <time>2026-08-29T09:46:35.597Z</time>
      </trkpt>
      <trkpt lat="43.66953" lon="6.12786">
        <ele>586.1</ele>
        <time>2026-08-29T09:46:41.485Z</time>
      </trkpt>
      <trkpt lat="43.66952" lon="6.12779">
        <ele>586.4</ele>
        <time>2026-08-29T09:46:46.615Z</time>
      </trkpt>
      <trkpt lat="43.66951" lon="6.12771">
        <ele>586.8</ele>
        <time>2026-08-29T09:46:52.454Z</time>
      </trkpt>
      <trkpt lat="43.6695" lon="6.12761">
        <ele>587.2</ele>
        <time>2026-08-29T09:47:03.425Z</time>
      </trkpt>
      <trkpt lat="43.66948" lon="6.12761">
        <ele>587.3</ele>
        <time>2026-08-29T09:47:31.426Z</time>
      </trkpt>
      <trkpt lat="43.66943" lon="6.1276">
        <ele>587.7</ele>
        <time>2026-08-29T09:47:36.434Z</time>
      </trkpt>
      <trkpt lat="43.66937" lon="6.12759">
        <ele>588.2</ele>
        <time>2026-08-29T09:47:42.425Z</time>
      </trkpt>
      <trkpt lat="43.66931" lon="6.12764">
        <ele>588.5</ele>
        <time>2026-08-29T09:47:52.425Z</time>
      </trkpt>
      <trkpt lat="43.66928" lon="6.12771">
        <ele>588.4</ele>
        <time>2026-08-29T09:47:57.199Z</time>
      </trkpt>
      <trkpt lat="43.66924" lon="6.12778">
        <ele>588.5</ele>
        <time>2026-08-29T09:48:02.435Z</time>
      </trkpt>
      <trkpt lat="43.6692" lon="6.12785">
        <ele>588.5</ele>
        <time>2026-08-29T09:48:07.929Z</time>
      </trkpt>
      <trkpt lat="43.66916" lon="6.12792">
        <ele>588.5</ele>
        <time>2026-08-29T09:48:13.425Z</time>
      </trkpt>
      <trkpt lat="43.66913" lon="6.12799">
        <ele>588.5</ele>
        <time>2026-08-29T09:48:18.697Z</time>
      </trkpt>
      <trkpt lat="43.6691" lon="6.12805">
        <ele>588.5</ele>
        <time>2026-08-29T09:48:23.425Z</time>
      </trkpt>
      <trkpt lat="43.66906" lon="6.12811">
        <ele>588.4</ele>
        <time>2026-08-29T09:48:28.664Z</time>
      </trkpt>
      <trkpt lat="43.66902" lon="6.12816">
        <ele>588.3</ele>
        <time>2026-08-29T09:48:33.451Z</time>
      </trkpt>
      <trkpt lat="43.66896" lon="6.12819">
        <ele>588.5</ele>
        <time>2026-08-29T09:48:38.627Z</time>
      </trkpt>
      <trkpt lat="43.66889" lon="6.12821">
        <ele>588.9</ele>
        <time>2026-08-29T09:48:44.427Z</time>
      </trkpt>
      <trkpt lat="43.66884" lon="6.12825">
        <ele>588.9</ele>
        <time>2026-08-29T09:48:49.653Z</time>
      </trkpt>
      <trkpt lat="43.66878" lon="6.12828">
        <ele>589.1</ele>
        <time>2026-08-29T09:48:55.426Z</time>
      </trkpt>
      <trkpt lat="43.66872" lon="6.12829">
        <ele>589.4</ele>
        <time>2026-08-29T09:49:00.426Z</time>
      </trkpt>
      <trkpt lat="43.66866" lon="6.1283">
        <ele>589.8</ele>
        <time>2026-08-29T09:49:05.426Z</time>
      </trkpt>
      <trkpt lat="43.66861" lon="6.12833">
        <ele>590</ele>
        <time>2026-08-29T09:49:10.126Z</time>
      </trkpt>
      <trkpt lat="43.66855" lon="6.12835">
        <ele>590.2</ele>
        <time>2026-08-29T09:49:15.449Z</time>
      </trkpt>
      <trkpt lat="43.66849" lon="6.12838">
        <ele>590.3</ele>
        <time>2026-08-29T09:49:20.625Z</time>
      </trkpt>
      <trkpt lat="43.66842" lon="6.1284">
        <ele>590.4</ele>
        <time>2026-08-29T09:49:26.425Z</time>
      </trkpt>
      <trkpt lat="43.66837" lon="6.12839">
        <ele>590.7</ele>
        <time>2026-08-29T09:49:30.926Z</time>
      </trkpt>
      <trkpt lat="43.66831" lon="6.12837">
        <ele>591</ele>
        <time>2026-08-29T09:49:36.426Z</time>
      </trkpt>
      <trkpt lat="43.66825" lon="6.12837">
        <ele>591.2</ele>
        <time>2026-08-29T09:49:41.419Z</time>
      </trkpt>
      <trkpt lat="43.66819" lon="6.12836">
        <ele>591.4</ele>
        <time>2026-08-29T09:49:46.449Z</time>
      </trkpt>
      <trkpt lat="43.66815" lon="6.12831">
        <ele>591.8</ele>
        <time>2026-08-29T09:49:51.589Z</time>
      </trkpt>
      <trkpt lat="43.6681" lon="6.12826">
        <ele>592.4</ele>
        <time>2026-08-29T09:49:57.471Z</time>
      </trkpt>
      <trkpt lat="43.66805" lon="6.12823">
        <ele>592.8</ele>
        <time>2026-08-29T09:50:02.947Z</time>
      </trkpt>
      <trkpt lat="43.668" lon="6.1282">
        <ele>593.2</ele>
        <time>2026-08-29T09:50:08.425Z</time>
      </trkpt>
      <trkpt lat="43.66796" lon="6.12816">
        <ele>593.6</ele>
        <time>2026-08-29T09:50:13.424Z</time>
      </trkpt>
      <trkpt lat="43.66792" lon="6.12812">
        <ele>594</ele>
        <time>2026-08-29T09:50:18.425Z</time>
      </trkpt>
      <trkpt lat="43.66786" lon="6.1281">
        <ele>594.4</ele>
        <time>2026-08-29T09:50:23.840Z</time>
      </trkpt>
      <trkpt lat="43.6678" lon="6.12807">
        <ele>594.8</ele>
        <time>2026-08-29T09:50:29.439Z</time>
      </trkpt>
      <trkpt lat="43.66775" lon="6.12805">
        <ele>595.1</ele>
        <time>2026-08-29T09:50:34.804Z</time>
      </trkpt>
      <trkpt lat="43.6677" lon="6.12802">
        <ele>595.4</ele>
        <time>2026-08-29T09:50:40.424Z</time>
      </trkpt>
      <trkpt lat="43.66765" lon="6.12802">
        <ele>595.6</ele>
        <time>2026-08-29T09:50:45.398Z</time>
      </trkpt>
      <trkpt lat="43.6676" lon="6.12801">
        <ele>595.8</ele>
        <time>2026-08-29T09:50:50.424Z</time>
      </trkpt>
      <trkpt lat="43.66755" lon="6.12799">
        <ele>596.1</ele>
        <time>2026-08-29T09:50:55.375Z</time>
      </trkpt>
      <trkpt lat="43.66749" lon="6.12796">
        <ele>596.4</ele>
        <time>2026-08-29T09:51:01.444Z</time>
      </trkpt>
      <trkpt lat="43.66743" lon="6.12798">
        <ele>596.5</ele>
        <time>2026-08-29T09:51:06.939Z</time>
      </trkpt>
      <trkpt lat="43.66737" lon="6.128">
        <ele>596.7</ele>
        <time>2026-08-29T09:51:12.436Z</time>
      </trkpt>
      <trkpt lat="43.66732" lon="6.128">
        <ele>596.8</ele>
        <time>2026-08-29T09:51:17.410Z</time>
      </trkpt>
      <trkpt lat="43.66726" lon="6.12799">
        <ele>597.1</ele>
        <time>2026-08-29T09:51:23.424Z</time>
      </trkpt>
      <trkpt lat="43.66722" lon="6.12801">
        <ele>597.2</ele>
        <time>2026-08-29T09:51:28.007Z</time>
      </trkpt>
      <trkpt lat="43.66717" lon="6.12802">
        <ele>597.5</ele>
        <time>2026-08-29T09:51:33.451Z</time>
      </trkpt>
      <trkpt lat="43.66709" lon="6.12803">
        <ele>598.1</ele>
        <time>2026-08-29T09:51:44.445Z</time>
      </trkpt>
      <trkpt lat="43.66703" lon="6.12803">
        <ele>598.5</ele>
        <time>2026-08-29T09:51:55.424Z</time>
      </trkpt>
      <trkpt lat="43.66701" lon="6.12805">
        <ele>598.6</ele>
        <time>2026-08-29T09:52:05.465Z</time>
      </trkpt>
      <trkpt lat="43.66696" lon="6.12808">
        <ele>598.8</ele>
        <time>2026-08-29T09:52:10.524Z</time>
      </trkpt>
      <trkpt lat="43.6669" lon="6.12811">
        <ele>599.1</ele>
        <time>2026-08-29T09:52:16.446Z</time>
      </trkpt>
      <trkpt lat="43.66686" lon="6.12816">
        <ele>599.2</ele>
        <time>2026-08-29T09:52:22.177Z</time>
      </trkpt>
      <trkpt lat="43.66682" lon="6.1282">
        <ele>599.4</ele>
        <time>2026-08-29T09:52:27.424Z</time>
      </trkpt>
      <trkpt lat="43.66678" lon="6.12825">
        <ele>599.5</ele>
        <time>2026-08-29T09:52:32.252Z</time>
      </trkpt>
      <trkpt lat="43.66673" lon="6.12829">
        <ele>599.7</ele>
        <time>2026-08-29T09:52:37.424Z</time>
      </trkpt>
      <trkpt lat="43.66671" lon="6.12835">
        <ele>599.6</ele>
        <time>2026-08-29T09:52:42.673Z</time>
      </trkpt>
      <trkpt lat="43.66668" lon="6.12841">
        <ele>599.6</ele>
        <time>2026-08-29T09:52:48.469Z</time>
      </trkpt>
      <trkpt lat="43.66664" lon="6.12844">
        <ele>599.7</ele>
        <time>2026-08-29T09:52:53.454Z</time>
      </trkpt>
      <trkpt lat="43.66659" lon="6.12847">
        <ele>599.9</ele>
        <time>2026-08-29T09:52:59.425Z</time>
      </trkpt>
      <trkpt lat="43.66654" lon="6.12846">
        <ele>600.2</ele>
        <time>2026-08-29T09:53:10.425Z</time>
      </trkpt>
      <trkpt lat="43.66653" lon="6.12842">
        <ele>600.3</ele>
        <time>2026-08-29T09:53:34.450Z</time>
      </trkpt>
      <trkpt lat="43.66649" lon="6.12837">
        <ele>600.6</ele>
        <time>2026-08-29T09:53:39.376Z</time>
      </trkpt>
      <trkpt lat="43.66644" lon="6.12831">
        <ele>600.9</ele>
        <time>2026-08-29T09:53:45.424Z</time>
      </trkpt>
      <trkpt lat="43.6664" lon="6.1282">
        <ele>601.4</ele>
        <time>2026-08-29T09:53:55.425Z</time>
      </trkpt>
      <trkpt lat="43.66636" lon="6.12813">
        <ele>601.7</ele>
        <time>2026-08-29T09:54:00.655Z</time>
      </trkpt>
      <trkpt lat="43.66631" lon="6.12806">
        <ele>602</ele>
        <time>2026-08-29T09:54:06.424Z</time>
      </trkpt>
      <trkpt lat="43.66632" lon="6.128">
        <ele>602.2</ele>
        <time>2026-08-29T09:54:11.103Z</time>
      </trkpt>
      <trkpt lat="43.66632" lon="6.12793">
        <ele>602.5</ele>
        <time>2026-08-29T09:54:16.424Z</time>
      </trkpt>
      <trkpt lat="43.66634" lon="6.12787">
        <ele>602.7</ele>
        <time>2026-08-29T09:54:21.098Z</time>
      </trkpt>
      <trkpt lat="43.66636" lon="6.1278">
        <ele>602.9</ele>
        <time>2026-08-29T09:54:26.424Z</time>
      </trkpt>
      <trkpt lat="43.66639" lon="6.12773">
        <ele>603</ele>
        <time>2026-08-29T09:54:31.631Z</time>
      </trkpt>
      <trkpt lat="43.66641" lon="6.12766">
        <ele>603</ele>
        <time>2026-08-29T09:54:36.448Z</time>
      </trkpt>
      <trkpt lat="43.66645" lon="6.12761">
        <ele>602.9</ele>
        <time>2026-08-29T09:54:41.687Z</time>
      </trkpt>
      <trkpt lat="43.66649" lon="6.12755">
        <ele>602.9</ele>
        <time>2026-08-29T09:54:47.423Z</time>
      </trkpt>
      <trkpt lat="43.66654" lon="6.12749">
        <ele>603</ele>
        <time>2026-08-29T09:54:52.487Z</time>
      </trkpt>
      <trkpt lat="43.66658" lon="6.12742">
        <ele>603</ele>
        <time>2026-08-29T09:54:57.423Z</time>
      </trkpt>
      <trkpt lat="43.66662" lon="6.12736">
        <ele>603</ele>
        <time>2026-08-29T09:55:02.213Z</time>
      </trkpt>
      <trkpt lat="43.66666" lon="6.12729">
        <ele>603</ele>
        <time>2026-08-29T09:55:07.450Z</time>
      </trkpt>
      <trkpt lat="43.66667" lon="6.12722">
        <ele>603</ele>
        <time>2026-08-29T09:55:12.582Z</time>
      </trkpt>
      <trkpt lat="43.66668" lon="6.12714">
        <ele>602.7</ele>
        <time>2026-08-29T09:55:18.423Z</time>
      </trkpt>
      <trkpt lat="43.66667" lon="6.12705">
        <ele>602.4</ele>
        <time>2026-08-29T09:55:23.423Z</time>
      </trkpt>
      <trkpt lat="43.66666" lon="6.12696">
        <ele>602.1</ele>
        <time>2026-08-29T09:55:28.424Z</time>
      </trkpt>
      <trkpt lat="43.66664" lon="6.12688">
        <ele>602.1</ele>
        <time>2026-08-29T09:55:33.286Z</time>
      </trkpt>
      <trkpt lat="43.66661" lon="6.1268">
        <ele>602.2</ele>
        <time>2026-08-29T09:55:38.464Z</time>
      </trkpt>
      <trkpt lat="43.66659" lon="6.12672">
        <ele>602.3</ele>
        <time>2026-08-29T09:55:43.947Z</time>
      </trkpt>
      <trkpt lat="43.66657" lon="6.12664">
        <ele>602.3</ele>
        <time>2026-08-29T09:55:49.432Z</time>
      </trkpt>
      <trkpt lat="43.66653" lon="6.12658">
        <ele>602.3</ele>
        <time>2026-08-29T09:55:54.682Z</time>
      </trkpt>
      <trkpt lat="43.66649" lon="6.12651">
        <ele>602.3</ele>
        <time>2026-08-29T09:56:00.423Z</time>
      </trkpt>
      <trkpt lat="43.66645" lon="6.12647">
        <ele>602.2</ele>
        <time>2026-08-29T09:56:05.422Z</time>
      </trkpt>
      <trkpt lat="43.66641" lon="6.12643">
        <ele>602.1</ele>
        <time>2026-08-29T09:56:10.423Z</time>
      </trkpt>
      <trkpt lat="43.66636" lon="6.12639">
        <ele>602</ele>
        <time>2026-08-29T09:56:15.266Z</time>
      </trkpt>
      <trkpt lat="43.66631" lon="6.12634">
        <ele>602</ele>
        <time>2026-08-29T09:56:20.441Z</time>
      </trkpt>
      <trkpt lat="43.66623" lon="6.12639">
        <ele>602</ele>
        <time>2026-08-29T09:56:25.931Z</time>
      </trkpt>
      <trkpt lat="43.66615" lon="6.12644">
        <ele>602.2</ele>
        <time>2026-08-29T09:56:31.423Z</time>
      </trkpt>
      <trkpt lat="43.66609" lon="6.12646">
        <ele>602.2</ele>
        <time>2026-08-29T09:56:36.423Z</time>
      </trkpt>
      <trkpt lat="43.66603" lon="6.12648">
        <ele>602.2</ele>
        <time>2026-08-29T09:56:41.424Z</time>
      </trkpt>
      <trkpt lat="43.66598" lon="6.12652">
        <ele>602.2</ele>
        <time>2026-08-29T09:56:46.433Z</time>
      </trkpt>
      <trkpt lat="43.66593" lon="6.12656">
        <ele>602.2</ele>
        <time>2026-08-29T09:56:51.444Z</time>
      </trkpt>
      <trkpt lat="43.66589" lon="6.12663">
        <ele>602.2</ele>
        <time>2026-08-29T09:56:56.863Z</time>
      </trkpt>
      <trkpt lat="43.66584" lon="6.12669">
        <ele>602.1</ele>
        <time>2026-08-29T09:57:02.424Z</time>
      </trkpt>
      <trkpt lat="43.66581" lon="6.12676">
        <ele>602.3</ele>
        <time>2026-08-29T09:57:07.416Z</time>
      </trkpt>
      <trkpt lat="43.66577" lon="6.12682">
        <ele>602.4</ele>
        <time>2026-08-29T09:57:12.424Z</time>
      </trkpt>
      <trkpt lat="43.66572" lon="6.12689">
        <ele>602.7</ele>
        <time>2026-08-29T09:57:22.438Z</time>
      </trkpt>
      <trkpt lat="43.66572" lon="6.12691">
        <ele>602.8</ele>
        <time>2026-08-29T09:57:36.423Z</time>
        <extensions>
          <visugpx:TrkExtension xmlns:visugpx="https://www.visugpx.com/editgpx/">
            <visugpx:node>1</visugpx:node>
            </visugpx:TrkExtension>
        </extensions>
      </trkpt>
    </trkseg>
  </trk>
</gpx>